<?xml version="1.0" encoding="UTF-8" standalone="no" ?>
<gpx xmlns="http://www.topografix.com/GPX/1/1" xmlns:xsi="http://www.w3.org/2001/XMLSchema-instance" xsi:schemaLocation="http://www.topografix.com/GPX/1/1 http://www.topografix.com/GPX/1/1/gpx.xsd" version="1.1" creator="VisuGPX - https://www.visugpx.com">
  <metadata>
    <name>Juvignac fabregues gardiole</name>
  </metadata>
  <trk>
    <name><![CDATA[Juvignac fabregues gardiole_1]]></name>
    <extensions>
      <line xmlns="http://www.topografix.com/GPX/gpx_style/0/2">
        <color>0000FF</color>
        <width>4</width>
      </line>
    </extensions>
    <trkseg>
      <trkpt lat="43.59331" lon="3.82035">
        <ele>27.998419</ele>
        <time>2021-01-03T09:37:49Z</time>
      </trkpt>
      <trkpt lat="43.59312" lon="3.82015">
        <ele>27.865364</ele>
        <time>2021-01-03T09:37:54Z</time>
      </trkpt>
      <trkpt lat="43.59299" lon="3.81992">
        <ele>27.630053</ele>
        <time>2021-01-03T09:37:59Z</time>
      </trkpt>
      <trkpt lat="43.59293" lon="3.81956">
        <ele>27.281082</ele>
        <time>2021-01-03T09:38:04Z</time>
      </trkpt>
      <trkpt lat="43.59286" lon="3.8192">
        <ele>27.00942</ele>
        <time>2021-01-03T09:38:09Z</time>
      </trkpt>
      <trkpt lat="43.5928" lon="3.81881">
        <ele>27.020182</ele>
        <time>2021-01-03T09:38:14Z</time>
      </trkpt>
      <trkpt lat="43.59273" lon="3.81844">
        <ele>27.287109</ele>
        <time>2021-01-03T09:38:19Z</time>
      </trkpt>
      <trkpt lat="43.59266" lon="3.81808">
        <ele>27.791306</ele>
        <time>2021-01-03T09:38:24Z</time>
      </trkpt>
      <trkpt lat="43.5925" lon="3.81787">
        <ele>28.243546</ele>
        <time>2021-01-03T09:38:29Z</time>
      </trkpt>
      <trkpt lat="43.59228" lon="3.81783">
        <ele>28.636324</ele>
        <time>2021-01-03T09:38:34Z</time>
      </trkpt>
      <trkpt lat="43.59212" lon="3.81765">
        <ele>28.803793</ele>
        <time>2021-01-03T09:38:39Z</time>
      </trkpt>
      <trkpt lat="43.59205" lon="3.81736">
        <ele>28.862154</ele>
        <time>2021-01-03T09:38:44Z</time>
      </trkpt>
      <trkpt lat="43.59197" lon="3.81707">
        <ele>28.756334</ele>
        <time>2021-01-03T09:38:49Z</time>
      </trkpt>
      <trkpt lat="43.59188" lon="3.81679">
        <ele>28.593908</ele>
        <time>2021-01-03T09:38:54Z</time>
      </trkpt>
      <trkpt lat="43.59179" lon="3.81651">
        <ele>28.394857</ele>
        <time>2021-01-03T09:38:59Z</time>
      </trkpt>
      <trkpt lat="43.5917" lon="3.81622">
        <ele>28.145508</ele>
        <time>2021-01-03T09:39:04Z</time>
      </trkpt>
      <trkpt lat="43.59162" lon="3.81591">
        <ele>27.996826</ele>
        <time>2021-01-03T09:39:09Z</time>
      </trkpt>
      <trkpt lat="43.59156" lon="3.81556">
        <ele>27.996988</ele>
        <time>2021-01-03T09:39:14Z</time>
      </trkpt>
      <trkpt lat="43.59147" lon="3.81524">
        <ele>27.877937</ele>
        <time>2021-01-03T09:39:19Z</time>
      </trkpt>
      <trkpt lat="43.59139" lon="3.8149">
        <ele>27.64012</ele>
        <time>2021-01-03T09:39:24Z</time>
      </trkpt>
      <trkpt lat="43.59134" lon="3.8146">
        <ele>27.496046</ele>
        <time>2021-01-03T09:39:29Z</time>
      </trkpt>
      <trkpt lat="43.59146" lon="3.81475">
        <ele>27.461832</ele>
        <time>2021-01-03T09:39:34Z</time>
      </trkpt>
      <trkpt lat="43.59157" lon="3.81505">
        <ele>27.37207</ele>
        <time>2021-01-03T09:39:39Z</time>
      </trkpt>
      <trkpt lat="43.59166" lon="3.81536">
        <ele>27.327194</ele>
        <time>2021-01-03T09:39:44Z</time>
      </trkpt>
      <trkpt lat="43.59176" lon="3.81568">
        <ele>27.509468</ele>
        <time>2021-01-03T09:39:49Z</time>
      </trkpt>
      <trkpt lat="43.59175" lon="3.81591">
        <ele>27.764433</ele>
        <time>2021-01-03T09:39:54Z</time>
      </trkpt>
      <trkpt lat="43.59167" lon="3.81597">
        <ele>27.911051</ele>
        <time>2021-01-03T09:39:59Z</time>
      </trkpt>
      <trkpt lat="43.59142" lon="3.816">
        <ele>27.995035</ele>
        <time>2021-01-03T09:40:04Z</time>
      </trkpt>
      <trkpt lat="43.59116" lon="3.81592">
        <ele>28</ele>
        <time>2021-01-03T09:40:09Z</time>
      </trkpt>
      <trkpt lat="43.59096" lon="3.81568">
        <ele>28</ele>
        <time>2021-01-03T09:40:14Z</time>
      </trkpt>
      <trkpt lat="43.59077" lon="3.81546">
        <ele>27.959311</ele>
        <time>2021-01-03T09:40:19Z</time>
      </trkpt>
      <trkpt lat="43.59058" lon="3.81521">
        <ele>27.681723</ele>
        <time>2021-01-03T09:40:24Z</time>
      </trkpt>
      <trkpt lat="43.5904" lon="3.81496">
        <ele>27.465494</ele>
        <time>2021-01-03T09:40:29Z</time>
      </trkpt>
      <trkpt lat="43.59021" lon="3.81477">
        <ele>27.175375</ele>
        <time>2021-01-03T09:40:34Z</time>
      </trkpt>
      <trkpt lat="43.59003" lon="3.81453">
        <ele>26.934814</ele>
        <time>2021-01-03T09:40:39Z</time>
      </trkpt>
      <trkpt lat="43.58986" lon="3.81429">
        <ele>26.741455</ele>
        <time>2021-01-03T09:40:44Z</time>
      </trkpt>
      <trkpt lat="43.5897" lon="3.81406">
        <ele>26.416048</ele>
        <time>2021-01-03T09:40:49Z</time>
      </trkpt>
      <trkpt lat="43.58955" lon="3.81381">
        <ele>26.170517</ele>
        <time>2021-01-03T09:40:54Z</time>
      </trkpt>
      <trkpt lat="43.58937" lon="3.81356">
        <ele>25.955145</ele>
        <time>2021-01-03T09:40:59Z</time>
      </trkpt>
      <trkpt lat="43.58921" lon="3.81333">
        <ele>25.719223</ele>
        <time>2021-01-03T09:41:04Z</time>
      </trkpt>
      <trkpt lat="43.58906" lon="3.81314">
        <ele>25.582193</ele>
        <time>2021-01-03T09:41:09Z</time>
      </trkpt>
      <trkpt lat="43.58892" lon="3.81292">
        <ele>25.320135</ele>
        <time>2021-01-03T09:41:14Z</time>
      </trkpt>
      <trkpt lat="43.58879" lon="3.81274">
        <ele>25.112329</ele>
        <time>2021-01-03T09:41:19Z</time>
      </trkpt>
      <trkpt lat="43.58865" lon="3.81254">
        <ele>25.071793</ele>
        <time>2021-01-03T09:41:24Z</time>
      </trkpt>
      <trkpt lat="43.58849" lon="3.81232">
        <ele>25.124918</ele>
        <time>2021-01-03T09:41:29Z</time>
      </trkpt>
      <trkpt lat="43.58833" lon="3.8121">
        <ele>25.232504</ele>
        <time>2021-01-03T09:41:34Z</time>
      </trkpt>
      <trkpt lat="43.58818" lon="3.81189">
        <ele>25.318521</ele>
        <time>2021-01-03T09:41:39Z</time>
      </trkpt>
      <trkpt lat="43.58804" lon="3.81166">
        <ele>25.446695</ele>
        <time>2021-01-03T09:41:44Z</time>
      </trkpt>
      <trkpt lat="43.58788" lon="3.81143">
        <ele>25.765543</ele>
        <time>2021-01-03T09:41:49Z</time>
      </trkpt>
      <trkpt lat="43.58773" lon="3.8112">
        <ele>26.096598</ele>
        <time>2021-01-03T09:41:54Z</time>
      </trkpt>
      <trkpt lat="43.58758" lon="3.811">
        <ele>26.467285</ele>
        <time>2021-01-03T09:41:59Z</time>
      </trkpt>
      <trkpt lat="43.58742" lon="3.81082">
        <ele>26.801025</ele>
        <time>2021-01-03T09:42:04Z</time>
      </trkpt>
      <trkpt lat="43.58728" lon="3.81062">
        <ele>27.021566</ele>
        <time>2021-01-03T09:42:09Z</time>
      </trkpt>
      <trkpt lat="43.58715" lon="3.81041">
        <ele>27.35376</ele>
        <time>2021-01-03T09:42:14Z</time>
      </trkpt>
      <trkpt lat="43.587" lon="3.81019">
        <ele>27.591146</ele>
        <time>2021-01-03T09:42:19Z</time>
      </trkpt>
      <trkpt lat="43.58683" lon="3.81">
        <ele>27.97583</ele>
        <time>2021-01-03T09:42:24Z</time>
      </trkpt>
      <trkpt lat="43.58666" lon="3.80979">
        <ele>28.447973</ele>
        <time>2021-01-03T09:42:29Z</time>
      </trkpt>
      <trkpt lat="43.5865" lon="3.8096">
        <ele>29.203791</ele>
        <time>2021-01-03T09:42:34Z</time>
      </trkpt>
      <trkpt lat="43.58636" lon="3.80941">
        <ele>29.675705</ele>
        <time>2021-01-03T09:42:39Z</time>
      </trkpt>
      <trkpt lat="43.58624" lon="3.80921">
        <ele>30.173872</ele>
        <time>2021-01-03T09:42:44Z</time>
      </trkpt>
      <trkpt lat="43.58611" lon="3.80901">
        <ele>30.684082</ele>
        <time>2021-01-03T09:42:49Z</time>
      </trkpt>
      <trkpt lat="43.58596" lon="3.80883">
        <ele>31.368326</ele>
        <time>2021-01-03T09:42:54Z</time>
      </trkpt>
      <trkpt lat="43.58581" lon="3.80865">
        <ele>31.851282</ele>
        <time>2021-01-03T09:42:59Z</time>
      </trkpt>
      <trkpt lat="43.58567" lon="3.80846">
        <ele>32.33247</ele>
        <time>2021-01-03T09:43:04Z</time>
      </trkpt>
      <trkpt lat="43.58553" lon="3.80827">
        <ele>32.570297</ele>
        <time>2021-01-03T09:43:09Z</time>
      </trkpt>
      <trkpt lat="43.5854" lon="3.80809">
        <ele>32.79974</ele>
        <time>2021-01-03T09:43:14Z</time>
      </trkpt>
      <trkpt lat="43.58527" lon="3.8079">
        <ele>32.884846</ele>
        <time>2021-01-03T09:43:19Z</time>
      </trkpt>
      <trkpt lat="43.58513" lon="3.80771">
        <ele>32.980305</ele>
        <time>2021-01-03T09:43:24Z</time>
      </trkpt>
      <trkpt lat="43.58502" lon="3.80755">
        <ele>33.060139</ele>
        <time>2021-01-03T09:43:29Z</time>
      </trkpt>
      <trkpt lat="43.58496" lon="3.80746">
        <ele>33.119873</ele>
        <time>2021-01-03T09:43:34Z</time>
      </trkpt>
      <trkpt lat="43.58484" lon="3.80729">
        <ele>33.170574</ele>
        <time>2021-01-03T09:43:39Z</time>
      </trkpt>
      <trkpt lat="43.58471" lon="3.80707">
        <ele>33.233479</ele>
        <time>2021-01-03T09:43:44Z</time>
      </trkpt>
      <trkpt lat="43.58458" lon="3.80685">
        <ele>33.23283</ele>
        <time>2021-01-03T09:43:49Z</time>
      </trkpt>
      <trkpt lat="43.58444" lon="3.80664">
        <ele>33.202637</ele>
        <time>2021-01-03T09:43:54Z</time>
      </trkpt>
      <trkpt lat="43.58432" lon="3.80641">
        <ele>33.100422</ele>
        <time>2021-01-03T09:43:59Z</time>
      </trkpt>
      <trkpt lat="43.58424" lon="3.80618">
        <ele>33.061932</ele>
        <time>2021-01-03T09:44:04Z</time>
      </trkpt>
      <trkpt lat="43.58413" lon="3.80596">
        <ele>33.11845</ele>
        <time>2021-01-03T09:44:09Z</time>
      </trkpt>
      <trkpt lat="43.58399" lon="3.80576">
        <ele>33.181812</ele>
        <time>2021-01-03T09:44:14Z</time>
      </trkpt>
      <trkpt lat="43.5839" lon="3.80552">
        <ele>33.290176</ele>
        <time>2021-01-03T09:44:19Z</time>
      </trkpt>
      <trkpt lat="43.58389" lon="3.80524">
        <ele>33.712467</ele>
        <time>2021-01-03T09:44:24Z</time>
      </trkpt>
      <trkpt lat="43.58389" lon="3.80496">
        <ele>34.67292</ele>
        <time>2021-01-03T09:44:29Z</time>
      </trkpt>
      <trkpt lat="43.58405" lon="3.80487">
        <ele>36.872658</ele>
        <time>2021-01-03T09:44:34Z</time>
      </trkpt>
      <trkpt lat="43.58425" lon="3.80484">
        <ele>37.969753</ele>
        <time>2021-01-03T09:44:39Z</time>
      </trkpt>
      <trkpt lat="43.58445" lon="3.80477">
        <ele>37.823963</ele>
        <time>2021-01-03T09:44:44Z</time>
      </trkpt>
      <trkpt lat="43.58461" lon="3.8047">
        <ele>37.757954</ele>
        <time>2021-01-03T09:44:49Z</time>
      </trkpt>
      <trkpt lat="43.58471" lon="3.80461">
        <ele>37.650814</ele>
        <time>2021-01-03T09:44:54Z</time>
      </trkpt>
      <trkpt lat="43.58477" lon="3.80439">
        <ele>37.641331</ele>
        <time>2021-01-03T09:44:59Z</time>
      </trkpt>
      <trkpt lat="43.58475" lon="3.80413">
        <ele>37.92411</ele>
        <time>2021-01-03T09:45:04Z</time>
      </trkpt>
      <trkpt lat="43.5847" lon="3.80386">
        <ele>38.932045</ele>
        <time>2021-01-03T09:45:09Z</time>
      </trkpt>
      <trkpt lat="43.5846" lon="3.80357">
        <ele>39.645508</ele>
        <time>2021-01-03T09:45:14Z</time>
      </trkpt>
      <trkpt lat="43.5845" lon="3.80325">
        <ele>40.40826</ele>
        <time>2021-01-03T09:45:19Z</time>
      </trkpt>
      <trkpt lat="43.58436" lon="3.80289">
        <ele>41.066776</ele>
        <time>2021-01-03T09:45:24Z</time>
      </trkpt>
      <trkpt lat="43.58429" lon="3.80255">
        <ele>41.692005</ele>
        <time>2021-01-03T09:45:29Z</time>
      </trkpt>
      <trkpt lat="43.58417" lon="3.80219">
        <ele>41.634647</ele>
        <time>2021-01-03T09:45:34Z</time>
      </trkpt>
      <trkpt lat="43.58407" lon="3.80184">
        <ele>40.629887</ele>
        <time>2021-01-03T09:45:39Z</time>
      </trkpt>
      <trkpt lat="43.58389" lon="3.80158">
        <ele>39.070774</ele>
        <time>2021-01-03T09:45:44Z</time>
      </trkpt>
      <trkpt lat="43.58362" lon="3.80155">
        <ele>36.699585</ele>
        <time>2021-01-03T09:45:49Z</time>
      </trkpt>
      <trkpt lat="43.58338" lon="3.80153">
        <ele>35.936172</ele>
        <time>2021-01-03T09:45:54Z</time>
      </trkpt>
      <trkpt lat="43.58311" lon="3.8015">
        <ele>35.675884</ele>
        <time>2021-01-03T09:45:59Z</time>
      </trkpt>
      <trkpt lat="43.58282" lon="3.80145">
        <ele>35.218616</ele>
        <time>2021-01-03T09:46:04Z</time>
      </trkpt>
      <trkpt lat="43.58255" lon="3.8014">
        <ele>34.465473</ele>
        <time>2021-01-03T09:46:09Z</time>
      </trkpt>
      <trkpt lat="43.58227" lon="3.80135">
        <ele>33.55373</ele>
        <time>2021-01-03T09:46:14Z</time>
      </trkpt>
      <trkpt lat="43.582" lon="3.8013">
        <ele>32.83654</ele>
        <time>2021-01-03T09:46:19Z</time>
      </trkpt>
      <trkpt lat="43.58174" lon="3.80125">
        <ele>32.45586</ele>
        <time>2021-01-03T09:46:24Z</time>
      </trkpt>
      <trkpt lat="43.58149" lon="3.80118">
        <ele>32.482761</ele>
        <time>2021-01-03T09:46:29Z</time>
      </trkpt>
      <trkpt lat="43.58126" lon="3.80109">
        <ele>32.755596</ele>
        <time>2021-01-03T09:46:34Z</time>
      </trkpt>
      <trkpt lat="43.58104" lon="3.8009">
        <ele>32.795776</ele>
        <time>2021-01-03T09:46:39Z</time>
      </trkpt>
      <trkpt lat="43.58085" lon="3.80063">
        <ele>32.52409</ele>
        <time>2021-01-03T09:46:44Z</time>
      </trkpt>
      <trkpt lat="43.58067" lon="3.80033">
        <ele>32.260632</ele>
        <time>2021-01-03T09:46:49Z</time>
      </trkpt>
      <trkpt lat="43.58048" lon="3.80003">
        <ele>31.595978</ele>
        <time>2021-01-03T09:46:54Z</time>
      </trkpt>
      <trkpt lat="43.5803" lon="3.79978">
        <ele>30.845947</ele>
        <time>2021-01-03T09:46:59Z</time>
      </trkpt>
      <trkpt lat="43.58004" lon="3.79964">
        <ele>29.943359</ele>
        <time>2021-01-03T09:47:04Z</time>
      </trkpt>
      <trkpt lat="43.57972" lon="3.79962">
        <ele>28.813477</ele>
        <time>2021-01-03T09:47:09Z</time>
      </trkpt>
      <trkpt lat="43.57941" lon="3.7996">
        <ele>28.216879</ele>
        <time>2021-01-03T09:47:14Z</time>
      </trkpt>
      <trkpt lat="43.57911" lon="3.79958">
        <ele>27.724642</ele>
        <time>2021-01-03T09:47:19Z</time>
      </trkpt>
      <trkpt lat="43.57881" lon="3.79956">
        <ele>27.106422</ele>
        <time>2021-01-03T09:47:24Z</time>
      </trkpt>
      <trkpt lat="43.57853" lon="3.79954">
        <ele>26.525629</ele>
        <time>2021-01-03T09:47:29Z</time>
      </trkpt>
      <trkpt lat="43.57825" lon="3.79953">
        <ele>25.876017</ele>
        <time>2021-01-03T09:47:34Z</time>
      </trkpt>
      <trkpt lat="43.57796" lon="3.79953">
        <ele>25.459879</ele>
        <time>2021-01-03T09:47:39Z</time>
      </trkpt>
      <trkpt lat="43.57766" lon="3.79955">
        <ele>25.038574</ele>
        <time>2021-01-03T09:47:44Z</time>
      </trkpt>
      <trkpt lat="43.57736" lon="3.79957">
        <ele>24.694986</ele>
        <time>2021-01-03T09:47:49Z</time>
      </trkpt>
      <trkpt lat="43.57708" lon="3.7996">
        <ele>24.223648</ele>
        <time>2021-01-03T09:47:54Z</time>
      </trkpt>
      <trkpt lat="43.57679" lon="3.79963">
        <ele>23.861885</ele>
        <time>2021-01-03T09:47:59Z</time>
      </trkpt>
      <trkpt lat="43.57651" lon="3.79969">
        <ele>23.644346</ele>
        <time>2021-01-03T09:48:04Z</time>
      </trkpt>
      <trkpt lat="43.57623" lon="3.79978">
        <ele>23.31024</ele>
        <time>2021-01-03T09:48:09Z</time>
      </trkpt>
      <trkpt lat="43.57599" lon="3.79982">
        <ele>23.136465</ele>
        <time>2021-01-03T09:48:14Z</time>
      </trkpt>
      <trkpt lat="43.57587" lon="3.79959">
        <ele>23.034386</ele>
        <time>2021-01-03T09:48:19Z</time>
      </trkpt>
      <trkpt lat="43.57562" lon="3.79938">
        <ele>23.002615</ele>
        <time>2021-01-03T09:48:24Z</time>
      </trkpt>
      <trkpt lat="43.57532" lon="3.79918">
        <ele>23</ele>
        <time>2021-01-03T09:48:29Z</time>
      </trkpt>
      <trkpt lat="43.57504" lon="3.799">
        <ele>22.998957</ele>
        <time>2021-01-03T09:48:34Z</time>
      </trkpt>
      <trkpt lat="43.57477" lon="3.79883">
        <ele>22.860697</ele>
        <time>2021-01-03T09:48:39Z</time>
      </trkpt>
      <trkpt lat="43.57451" lon="3.79867">
        <ele>22.752419</ele>
        <time>2021-01-03T09:48:44Z</time>
      </trkpt>
      <trkpt lat="43.57428" lon="3.79851">
        <ele>22.730829</ele>
        <time>2021-01-03T09:48:49Z</time>
      </trkpt>
      <trkpt lat="43.57412" lon="3.79837">
        <ele>22.651533</ele>
        <time>2021-01-03T09:48:54Z</time>
      </trkpt>
      <trkpt lat="43.57396" lon="3.79826">
        <ele>22.437744</ele>
        <time>2021-01-03T09:48:59Z</time>
      </trkpt>
      <trkpt lat="43.57382" lon="3.79814">
        <ele>22.244303</ele>
        <time>2021-01-03T09:49:04Z</time>
      </trkpt>
      <trkpt lat="43.57369" lon="3.79798">
        <ele>22.047255</ele>
        <time>2021-01-03T09:49:09Z</time>
      </trkpt>
      <trkpt lat="43.57354" lon="3.79785">
        <ele>21.970301</ele>
        <time>2021-01-03T09:49:14Z</time>
      </trkpt>
      <trkpt lat="43.57336" lon="3.79782">
        <ele>21.986746</ele>
        <time>2021-01-03T09:49:19Z</time>
      </trkpt>
      <trkpt lat="43.57322" lon="3.79779">
        <ele>22.007187</ele>
        <time>2021-01-03T09:49:24Z</time>
      </trkpt>
      <trkpt lat="43.57306" lon="3.79777">
        <ele>22.007883</ele>
        <time>2021-01-03T09:49:29Z</time>
      </trkpt>
      <trkpt lat="43.57288" lon="3.79778">
        <ele>21.889502</ele>
        <time>2021-01-03T09:49:34Z</time>
      </trkpt>
      <trkpt lat="43.57269" lon="3.79779">
        <ele>21.624023</ele>
        <time>2021-01-03T09:49:39Z</time>
      </trkpt>
      <trkpt lat="43.57255" lon="3.79779">
        <ele>21.361816</ele>
        <time>2021-01-03T09:49:44Z</time>
      </trkpt>
      <trkpt lat="43.57227" lon="3.7978">
        <ele>21.033773</ele>
        <time>2021-01-03T09:49:59Z</time>
      </trkpt>
      <trkpt lat="43.57202" lon="3.7978">
        <ele>20.74349</ele>
        <time>2021-01-03T09:50:09Z</time>
      </trkpt>
      <trkpt lat="43.57174" lon="3.79772">
        <ele>20.462646</ele>
        <time>2021-01-03T09:50:14Z</time>
      </trkpt>
      <trkpt lat="43.57146" lon="3.7976">
        <ele>20.092773</ele>
        <time>2021-01-03T09:50:19Z</time>
      </trkpt>
      <trkpt lat="43.57118" lon="3.79748">
        <ele>20</ele>
        <time>2021-01-03T09:50:24Z</time>
      </trkpt>
      <trkpt lat="43.57089" lon="3.79735">
        <ele>19.993002</ele>
        <time>2021-01-03T09:50:29Z</time>
      </trkpt>
      <trkpt lat="43.57066" lon="3.79725">
        <ele>19.755453</ele>
        <time>2021-01-03T09:50:34Z</time>
      </trkpt>
      <trkpt lat="43.57051" lon="3.79719">
        <ele>19.406088</ele>
        <time>2021-01-03T09:50:39Z</time>
      </trkpt>
      <trkpt lat="43.57037" lon="3.79715">
        <ele>19.171061</ele>
        <time>2021-01-03T09:50:44Z</time>
      </trkpt>
      <trkpt lat="43.57026" lon="3.79712">
        <ele>19.011719</ele>
        <time>2021-01-03T09:50:49Z</time>
      </trkpt>
      <trkpt lat="43.57012" lon="3.79708">
        <ele>19</ele>
        <time>2021-01-03T09:50:54Z</time>
      </trkpt>
      <trkpt lat="43.56998" lon="3.79703">
        <ele>19</ele>
        <time>2021-01-03T09:50:59Z</time>
      </trkpt>
      <trkpt lat="43.56985" lon="3.79696">
        <ele>19</ele>
        <time>2021-01-03T09:51:04Z</time>
      </trkpt>
      <trkpt lat="43.56969" lon="3.79688">
        <ele>19</ele>
        <time>2021-01-03T09:51:09Z</time>
      </trkpt>
      <trkpt lat="43.56951" lon="3.79681">
        <ele>19</ele>
        <time>2021-01-03T09:51:14Z</time>
      </trkpt>
      <trkpt lat="43.56933" lon="3.79674">
        <ele>19</ele>
        <time>2021-01-03T09:51:19Z</time>
      </trkpt>
      <trkpt lat="43.56916" lon="3.79668">
        <ele>19</ele>
        <time>2021-01-03T09:51:24Z</time>
      </trkpt>
      <trkpt lat="43.56899" lon="3.79661">
        <ele>19</ele>
        <time>2021-01-03T09:51:29Z</time>
      </trkpt>
      <trkpt lat="43.56881" lon="3.79653">
        <ele>18.937012</ele>
        <time>2021-01-03T09:51:34Z</time>
      </trkpt>
      <trkpt lat="43.56863" lon="3.79644">
        <ele>18.705078</ele>
        <time>2021-01-03T09:51:39Z</time>
      </trkpt>
      <trkpt lat="43.56845" lon="3.79634">
        <ele>18.448404</ele>
        <time>2021-01-03T09:51:44Z</time>
      </trkpt>
      <trkpt lat="43.56828" lon="3.79623">
        <ele>18.184408</ele>
        <time>2021-01-03T09:51:49Z</time>
      </trkpt>
      <trkpt lat="43.56806" lon="3.79612">
        <ele>17.921957</ele>
        <time>2021-01-03T09:51:54Z</time>
      </trkpt>
      <trkpt lat="43.56786" lon="3.79602">
        <ele>17.624023</ele>
        <time>2021-01-03T09:51:59Z</time>
      </trkpt>
      <trkpt lat="43.56765" lon="3.7959">
        <ele>17.324463</ele>
        <time>2021-01-03T09:52:04Z</time>
      </trkpt>
      <trkpt lat="43.56743" lon="3.79576">
        <ele>17.019531</ele>
        <time>2021-01-03T09:52:09Z</time>
      </trkpt>
      <trkpt lat="43.56735" lon="3.79551">
        <ele>16.765055</ele>
        <time>2021-01-03T09:52:14Z</time>
      </trkpt>
      <trkpt lat="43.5674" lon="3.79533">
        <ele>16.596762</ele>
        <time>2021-01-03T09:52:19Z</time>
      </trkpt>
      <trkpt lat="43.56744" lon="3.79513">
        <ele>16.61857</ele>
        <time>2021-01-03T09:52:24Z</time>
      </trkpt>
      <trkpt lat="43.56746" lon="3.795">
        <ele>16.675211</ele>
        <time>2021-01-03T09:52:29Z</time>
      </trkpt>
      <trkpt lat="43.56749" lon="3.79484">
        <ele>16.826742</ele>
        <time>2021-01-03T09:52:34Z</time>
      </trkpt>
      <trkpt lat="43.56752" lon="3.79468">
        <ele>17.103842</ele>
        <time>2021-01-03T09:52:39Z</time>
      </trkpt>
      <trkpt lat="43.56755" lon="3.79451">
        <ele>17.381266</ele>
        <time>2021-01-03T09:52:44Z</time>
      </trkpt>
      <trkpt lat="43.56759" lon="3.79434">
        <ele>17.658773</ele>
        <time>2021-01-03T09:52:49Z</time>
      </trkpt>
      <trkpt lat="43.56764" lon="3.79416">
        <ele>17.884649</ele>
        <time>2021-01-03T09:52:54Z</time>
      </trkpt>
      <trkpt lat="43.56766" lon="3.79398">
        <ele>17.972139</ele>
        <time>2021-01-03T09:52:59Z</time>
      </trkpt>
      <trkpt lat="43.56754" lon="3.79384">
        <ele>17.991701</ele>
        <time>2021-01-03T09:53:04Z</time>
      </trkpt>
      <trkpt lat="43.56739" lon="3.79375">
        <ele>17.97439</ele>
        <time>2021-01-03T09:53:09Z</time>
      </trkpt>
      <trkpt lat="43.56723" lon="3.79364">
        <ele>17.981993</ele>
        <time>2021-01-03T09:53:14Z</time>
      </trkpt>
      <trkpt lat="43.56707" lon="3.79354">
        <ele>18.021643</ele>
        <time>2021-01-03T09:53:19Z</time>
      </trkpt>
      <trkpt lat="43.5669" lon="3.79341">
        <ele>18.033356</ele>
        <time>2021-01-03T09:53:24Z</time>
      </trkpt>
      <trkpt lat="43.56673" lon="3.7933">
        <ele>17.961584</ele>
        <time>2021-01-03T09:53:29Z</time>
      </trkpt>
      <trkpt lat="43.56657" lon="3.79318">
        <ele>17.878649</ele>
        <time>2021-01-03T09:53:34Z</time>
      </trkpt>
      <trkpt lat="43.56641" lon="3.79306">
        <ele>17.871447</ele>
        <time>2021-01-03T09:53:39Z</time>
      </trkpt>
      <trkpt lat="43.56623" lon="3.79298">
        <ele>17.945236</ele>
        <time>2021-01-03T09:53:44Z</time>
      </trkpt>
      <trkpt lat="43.56607" lon="3.79287">
        <ele>18.063883</ele>
        <time>2021-01-03T09:53:49Z</time>
      </trkpt>
      <trkpt lat="43.56591" lon="3.79275">
        <ele>18.211344</ele>
        <time>2021-01-03T09:53:54Z</time>
      </trkpt>
      <trkpt lat="43.56574" lon="3.79265">
        <ele>18.385742</ele>
        <time>2021-01-03T09:53:59Z</time>
      </trkpt>
      <trkpt lat="43.56559" lon="3.79255">
        <ele>18.535971</ele>
        <time>2021-01-03T09:54:04Z</time>
      </trkpt>
      <trkpt lat="43.56544" lon="3.79244">
        <ele>18.683105</ele>
        <time>2021-01-03T09:54:09Z</time>
      </trkpt>
      <trkpt lat="43.5653" lon="3.79231">
        <ele>18.842773</ele>
        <time>2021-01-03T09:54:14Z</time>
      </trkpt>
      <trkpt lat="43.56517" lon="3.79219">
        <ele>18.996908</ele>
        <time>2021-01-03T09:54:19Z</time>
      </trkpt>
      <trkpt lat="43.56501" lon="3.79206">
        <ele>19.200928</ele>
        <time>2021-01-03T09:54:24Z</time>
      </trkpt>
      <trkpt lat="43.56484" lon="3.79192">
        <ele>19.395914</ele>
        <time>2021-01-03T09:54:29Z</time>
      </trkpt>
      <trkpt lat="43.5647" lon="3.79178">
        <ele>19.599447</ele>
        <time>2021-01-03T09:54:34Z</time>
      </trkpt>
      <trkpt lat="43.56453" lon="3.79164">
        <ele>19.79834</ele>
        <time>2021-01-03T09:54:39Z</time>
      </trkpt>
      <trkpt lat="43.56434" lon="3.79149">
        <ele>19.973063</ele>
        <time>2021-01-03T09:54:44Z</time>
      </trkpt>
      <trkpt lat="43.56415" lon="3.79132">
        <ele>20</ele>
        <time>2021-01-03T09:54:49Z</time>
      </trkpt>
      <trkpt lat="43.56398" lon="3.79115">
        <ele>20.027899</ele>
        <time>2021-01-03T09:54:54Z</time>
      </trkpt>
      <trkpt lat="43.56379" lon="3.79119">
        <ele>20.220194</ele>
        <time>2021-01-03T09:54:59Z</time>
      </trkpt>
      <trkpt lat="43.56363" lon="3.79143">
        <ele>20.377016</ele>
        <time>2021-01-03T09:55:04Z</time>
      </trkpt>
      <trkpt lat="43.56348" lon="3.79169">
        <ele>20.299753</ele>
        <time>2021-01-03T09:55:09Z</time>
      </trkpt>
      <trkpt lat="43.56332" lon="3.79196">
        <ele>20.306742</ele>
        <time>2021-01-03T09:55:14Z</time>
      </trkpt>
      <trkpt lat="43.56315" lon="3.79222">
        <ele>20.668779</ele>
        <time>2021-01-03T09:55:19Z</time>
      </trkpt>
      <trkpt lat="43.56296" lon="3.79243">
        <ele>21.197966</ele>
        <time>2021-01-03T09:55:24Z</time>
      </trkpt>
      <trkpt lat="43.56277" lon="3.79265">
        <ele>21.638931</ele>
        <time>2021-01-03T09:55:29Z</time>
      </trkpt>
      <trkpt lat="43.5626" lon="3.79289">
        <ele>22.21756</ele>
        <time>2021-01-03T09:55:34Z</time>
      </trkpt>
      <trkpt lat="43.56244" lon="3.79314">
        <ele>22.743532</ele>
        <time>2021-01-03T09:55:39Z</time>
      </trkpt>
      <trkpt lat="43.56228" lon="3.79339">
        <ele>23.105867</ele>
        <time>2021-01-03T09:55:44Z</time>
      </trkpt>
      <trkpt lat="43.56211" lon="3.79363">
        <ele>23.546783</ele>
        <time>2021-01-03T09:55:49Z</time>
      </trkpt>
      <trkpt lat="43.56195" lon="3.79388">
        <ele>24.102579</ele>
        <time>2021-01-03T09:55:54Z</time>
      </trkpt>
      <trkpt lat="43.56179" lon="3.79413">
        <ele>24.589193</ele>
        <time>2021-01-03T09:55:59Z</time>
      </trkpt>
      <trkpt lat="43.56163" lon="3.79426">
        <ele>25.060873</ele>
        <time>2021-01-03T09:56:04Z</time>
      </trkpt>
      <trkpt lat="43.56148" lon="3.79448">
        <ele>25.5236</ele>
        <time>2021-01-03T09:56:09Z</time>
      </trkpt>
      <trkpt lat="43.56133" lon="3.79472">
        <ele>25.848633</ele>
        <time>2021-01-03T09:56:14Z</time>
      </trkpt>
      <trkpt lat="43.56116" lon="3.79496">
        <ele>25.961588</ele>
        <time>2021-01-03T09:56:19Z</time>
      </trkpt>
      <trkpt lat="43.56101" lon="3.79518">
        <ele>26.078043</ele>
        <time>2021-01-03T09:56:24Z</time>
      </trkpt>
      <trkpt lat="43.56087" lon="3.7954">
        <ele>26.334311</ele>
        <time>2021-01-03T09:56:29Z</time>
      </trkpt>
      <trkpt lat="43.56073" lon="3.79561">
        <ele>26.740561</ele>
        <time>2021-01-03T09:56:34Z</time>
      </trkpt>
      <trkpt lat="43.56059" lon="3.79581">
        <ele>26.999735</ele>
        <time>2021-01-03T09:56:39Z</time>
      </trkpt>
      <trkpt lat="43.56043" lon="3.79587">
        <ele>26.975981</ele>
        <time>2021-01-03T09:56:44Z</time>
      </trkpt>
      <trkpt lat="43.56025" lon="3.79599">
        <ele>26.934385</ele>
        <time>2021-01-03T09:56:49Z</time>
      </trkpt>
      <trkpt lat="43.56013" lon="3.7962">
        <ele>26.940016</ele>
        <time>2021-01-03T09:56:54Z</time>
      </trkpt>
      <trkpt lat="43.5601" lon="3.79648">
        <ele>26.96711</ele>
        <time>2021-01-03T09:56:59Z</time>
      </trkpt>
      <trkpt lat="43.5601" lon="3.79678">
        <ele>26.929747</ele>
        <time>2021-01-03T09:57:04Z</time>
      </trkpt>
      <trkpt lat="43.55998" lon="3.79702">
        <ele>26.577524</ele>
        <time>2021-01-03T09:57:09Z</time>
      </trkpt>
      <trkpt lat="43.55986" lon="3.79723">
        <ele>26.198479</ele>
        <time>2021-01-03T09:57:14Z</time>
      </trkpt>
      <trkpt lat="43.55974" lon="3.79744">
        <ele>26.009398</ele>
        <time>2021-01-03T09:57:19Z</time>
      </trkpt>
      <trkpt lat="43.5596" lon="3.79767">
        <ele>26</ele>
        <time>2021-01-03T09:57:24Z</time>
      </trkpt>
      <trkpt lat="43.55945" lon="3.79791">
        <ele>26</ele>
        <time>2021-01-03T09:57:29Z</time>
      </trkpt>
      <trkpt lat="43.55925" lon="3.79806">
        <ele>26</ele>
        <time>2021-01-03T09:57:34Z</time>
      </trkpt>
      <trkpt lat="43.55899" lon="3.79811">
        <ele>26</ele>
        <time>2021-01-03T09:57:39Z</time>
      </trkpt>
      <trkpt lat="43.55871" lon="3.79831">
        <ele>26</ele>
        <time>2021-01-03T09:57:44Z</time>
      </trkpt>
      <trkpt lat="43.55839" lon="3.79834">
        <ele>26</ele>
        <time>2021-01-03T09:57:49Z</time>
      </trkpt>
      <trkpt lat="43.55808" lon="3.79837">
        <ele>26</ele>
        <time>2021-01-03T09:57:54Z</time>
      </trkpt>
      <trkpt lat="43.5579" lon="3.79872">
        <ele>25.972412</ele>
        <time>2021-01-03T09:57:59Z</time>
      </trkpt>
      <trkpt lat="43.55757" lon="3.79873">
        <ele>25.422607</ele>
        <time>2021-01-03T09:58:04Z</time>
      </trkpt>
      <trkpt lat="43.55722" lon="3.7987">
        <ele>24.083008</ele>
        <time>2021-01-03T09:58:09Z</time>
      </trkpt>
      <trkpt lat="43.55682" lon="3.79886">
        <ele>22.536377</ele>
        <time>2021-01-03T09:58:14Z</time>
      </trkpt>
      <trkpt lat="43.55644" lon="3.7991">
        <ele>20.834654</ele>
        <time>2021-01-03T09:58:19Z</time>
      </trkpt>
      <trkpt lat="43.55606" lon="3.79935">
        <ele>19.357553</ele>
        <time>2021-01-03T09:58:24Z</time>
      </trkpt>
      <trkpt lat="43.55573" lon="3.7996">
        <ele>18.93132</ele>
        <time>2021-01-03T09:58:29Z</time>
      </trkpt>
      <trkpt lat="43.55544" lon="3.79979">
        <ele>19.438457</ele>
        <time>2021-01-03T09:58:34Z</time>
      </trkpt>
      <trkpt lat="43.55519" lon="3.79993">
        <ele>20.912209</ele>
        <time>2021-01-03T09:58:39Z</time>
      </trkpt>
      <trkpt lat="43.55497" lon="3.8">
        <ele>22.582365</ele>
        <time>2021-01-03T09:58:44Z</time>
      </trkpt>
      <trkpt lat="43.55476" lon="3.80003">
        <ele>24.157272</ele>
        <time>2021-01-03T09:58:49Z</time>
      </trkpt>
      <trkpt lat="43.55455" lon="3.80002">
        <ele>25.441038</ele>
        <time>2021-01-03T09:58:54Z</time>
      </trkpt>
      <trkpt lat="43.55436" lon="3.8">
        <ele>26.64744</ele>
        <time>2021-01-03T09:58:59Z</time>
      </trkpt>
      <trkpt lat="43.55418" lon="3.79996">
        <ele>27.880539</ele>
        <time>2021-01-03T09:59:04Z</time>
      </trkpt>
      <trkpt lat="43.554" lon="3.79992">
        <ele>29.108408</ele>
        <time>2021-01-03T09:59:09Z</time>
      </trkpt>
      <trkpt lat="43.55384" lon="3.79988">
        <ele>30.091354</ele>
        <time>2021-01-03T09:59:14Z</time>
      </trkpt>
      <trkpt lat="43.5537" lon="3.79985">
        <ele>31.43306</ele>
        <time>2021-01-03T09:59:19Z</time>
      </trkpt>
      <trkpt lat="43.55356" lon="3.79981">
        <ele>32.87151</ele>
        <time>2021-01-03T09:59:24Z</time>
      </trkpt>
      <trkpt lat="43.55342" lon="3.79978">
        <ele>33.878716</ele>
        <time>2021-01-03T09:59:29Z</time>
      </trkpt>
      <trkpt lat="43.55328" lon="3.79976">
        <ele>35.327663</ele>
        <time>2021-01-03T09:59:34Z</time>
      </trkpt>
      <trkpt lat="43.55314" lon="3.79974">
        <ele>36.717518</ele>
        <time>2021-01-03T09:59:39Z</time>
      </trkpt>
      <trkpt lat="43.553" lon="3.79974">
        <ele>37.776112</ele>
        <time>2021-01-03T09:59:44Z</time>
      </trkpt>
      <trkpt lat="43.55286" lon="3.79974">
        <ele>38.677963</ele>
        <time>2021-01-03T09:59:49Z</time>
      </trkpt>
      <trkpt lat="43.55273" lon="3.79977">
        <ele>39.553532</ele>
        <time>2021-01-03T09:59:54Z</time>
      </trkpt>
      <trkpt lat="43.55259" lon="3.79981">
        <ele>40.368893</ele>
        <time>2021-01-03T09:59:59Z</time>
      </trkpt>
      <trkpt lat="43.55245" lon="3.79986">
        <ele>41.085346</ele>
        <time>2021-01-03T10:00:04Z</time>
      </trkpt>
      <trkpt lat="43.55232" lon="3.79993">
        <ele>41.553925</ele>
        <time>2021-01-03T10:00:09Z</time>
      </trkpt>
      <trkpt lat="43.5522" lon="3.7999">
        <ele>41.875233</ele>
        <time>2021-01-03T10:00:14Z</time>
      </trkpt>
      <trkpt lat="43.55212" lon="3.79973">
        <ele>42.464989</ele>
        <time>2021-01-03T10:00:19Z</time>
      </trkpt>
      <trkpt lat="43.55214" lon="3.79962">
        <ele>43.34964</ele>
        <time>2021-01-03T10:00:24Z</time>
      </trkpt>
      <trkpt lat="43.55211" lon="3.79953">
        <ele>43.733929</ele>
        <time>2021-01-03T10:00:29Z</time>
      </trkpt>
      <trkpt lat="43.55199" lon="3.79945">
        <ele>44.059345</ele>
        <time>2021-01-03T10:00:34Z</time>
      </trkpt>
      <trkpt lat="43.55187" lon="3.79936">
        <ele>44.800098</ele>
        <time>2021-01-03T10:00:39Z</time>
      </trkpt>
      <trkpt lat="43.55175" lon="3.79926">
        <ele>45.458828</ele>
        <time>2021-01-03T10:00:44Z</time>
      </trkpt>
      <trkpt lat="43.55173" lon="3.79913">
        <ele>45.962757</ele>
        <time>2021-01-03T10:00:49Z</time>
      </trkpt>
      <trkpt lat="43.5518" lon="3.79896">
        <ele>46.27895</ele>
        <time>2021-01-03T10:00:54Z</time>
      </trkpt>
      <trkpt lat="43.55191" lon="3.7988">
        <ele>46.405872</ele>
        <time>2021-01-03T10:00:59Z</time>
      </trkpt>
      <trkpt lat="43.55201" lon="3.79866">
        <ele>46.446606</ele>
        <time>2021-01-03T10:01:04Z</time>
      </trkpt>
      <trkpt lat="43.55204" lon="3.79848">
        <ele>46.4305</ele>
        <time>2021-01-03T10:01:09Z</time>
      </trkpt>
      <trkpt lat="43.55209" lon="3.79837">
        <ele>46.267334</ele>
        <time>2021-01-03T10:01:14Z</time>
      </trkpt>
      <trkpt lat="43.55218" lon="3.79822">
        <ele>45.537922</ele>
        <time>2021-01-03T10:01:19Z</time>
      </trkpt>
      <trkpt lat="43.55221" lon="3.798">
        <ele>44.437988</ele>
        <time>2021-01-03T10:01:24Z</time>
      </trkpt>
      <trkpt lat="43.55228" lon="3.79779">
        <ele>43.090168</ele>
        <time>2021-01-03T10:01:29Z</time>
      </trkpt>
      <trkpt lat="43.55243" lon="3.79768">
        <ele>41.7915</ele>
        <time>2021-01-03T10:01:34Z</time>
      </trkpt>
      <trkpt lat="43.55257" lon="3.79764">
        <ele>39.963406</ele>
        <time>2021-01-03T10:01:39Z</time>
      </trkpt>
      <trkpt lat="43.55273" lon="3.79769">
        <ele>38.987202</ele>
        <time>2021-01-03T10:01:44Z</time>
      </trkpt>
      <trkpt lat="43.55277" lon="3.79758">
        <ele>37.870358</ele>
        <time>2021-01-03T10:01:49Z</time>
      </trkpt>
      <trkpt lat="43.55276" lon="3.79754">
        <ele>36.631733</ele>
        <time>2021-01-03T10:01:54Z</time>
      </trkpt>
      <trkpt lat="43.55271" lon="3.79739">
        <ele>36.228699</ele>
        <time>2021-01-03T10:01:59Z</time>
      </trkpt>
      <trkpt lat="43.55264" lon="3.79729">
        <ele>35.326614</ele>
        <time>2021-01-03T10:02:04Z</time>
      </trkpt>
      <trkpt lat="43.5526" lon="3.79707">
        <ele>34.61842</ele>
        <time>2021-01-03T10:02:09Z</time>
      </trkpt>
      <trkpt lat="43.55243" lon="3.79679">
        <ele>33.085369</ele>
        <time>2021-01-03T10:02:14Z</time>
      </trkpt>
      <trkpt lat="43.55234" lon="3.79657">
        <ele>31.287271</ele>
        <time>2021-01-03T10:02:19Z</time>
      </trkpt>
      <trkpt lat="43.55224" lon="3.79633">
        <ele>29.750811</ele>
        <time>2021-01-03T10:02:24Z</time>
      </trkpt>
      <trkpt lat="43.55211" lon="3.79613">
        <ele>28.359457</ele>
        <time>2021-01-03T10:02:29Z</time>
      </trkpt>
      <trkpt lat="43.55199" lon="3.79597">
        <ele>27.883383</ele>
        <time>2021-01-03T10:02:34Z</time>
      </trkpt>
      <trkpt lat="43.55188" lon="3.79574">
        <ele>27.485025</ele>
        <time>2021-01-03T10:02:39Z</time>
      </trkpt>
      <trkpt lat="43.55173" lon="3.79554">
        <ele>27.052002</ele>
        <time>2021-01-03T10:02:44Z</time>
      </trkpt>
      <trkpt lat="43.55156" lon="3.79539">
        <ele>27.073486</ele>
        <time>2021-01-03T10:02:49Z</time>
      </trkpt>
      <trkpt lat="43.55143" lon="3.79529">
        <ele>27.862549</ele>
        <time>2021-01-03T10:02:54Z</time>
      </trkpt>
      <trkpt lat="43.55125" lon="3.79518">
        <ele>28.655762</ele>
        <time>2021-01-03T10:02:59Z</time>
      </trkpt>
      <trkpt lat="43.55111" lon="3.79504">
        <ele>29.69165</ele>
        <time>2021-01-03T10:03:04Z</time>
      </trkpt>
      <trkpt lat="43.55098" lon="3.79489">
        <ele>30.356043</ele>
        <time>2021-01-03T10:03:09Z</time>
      </trkpt>
      <trkpt lat="43.55093" lon="3.79478">
        <ele>30.696722</ele>
        <time>2021-01-03T10:03:14Z</time>
      </trkpt>
      <trkpt lat="43.5509" lon="3.79464">
        <ele>30.643785</ele>
        <time>2021-01-03T10:03:19Z</time>
      </trkpt>
      <trkpt lat="43.55093" lon="3.7945">
        <ele>30.217331</ele>
        <time>2021-01-03T10:03:24Z</time>
      </trkpt>
      <trkpt lat="43.5508" lon="3.79434">
        <ele>29.464699</ele>
        <time>2021-01-03T10:03:29Z</time>
      </trkpt>
      <trkpt lat="43.55066" lon="3.7943">
        <ele>29.396524</ele>
        <time>2021-01-03T10:03:34Z</time>
      </trkpt>
      <trkpt lat="43.55059" lon="3.79431">
        <ele>30.022909</ele>
        <time>2021-01-03T10:03:39Z</time>
      </trkpt>
      <trkpt lat="43.55049" lon="3.79423">
        <ele>30.566477</ele>
        <time>2021-01-03T10:03:44Z</time>
      </trkpt>
      <trkpt lat="43.5504" lon="3.79411">
        <ele>30.85211</ele>
        <time>2021-01-03T10:03:49Z</time>
      </trkpt>
      <trkpt lat="43.55039" lon="3.79398">
        <ele>30.773623</ele>
        <time>2021-01-03T10:03:54Z</time>
      </trkpt>
      <trkpt lat="43.55029" lon="3.79387">
        <ele>30.360809</ele>
        <time>2021-01-03T10:03:59Z</time>
      </trkpt>
      <trkpt lat="43.55022" lon="3.79373">
        <ele>30.141397</ele>
        <time>2021-01-03T10:04:04Z</time>
      </trkpt>
      <trkpt lat="43.55007" lon="3.79366">
        <ele>29.88899</ele>
        <time>2021-01-03T10:04:09Z</time>
      </trkpt>
      <trkpt lat="43.54998" lon="3.79351">
        <ele>29.858932</ele>
        <time>2021-01-03T10:04:14Z</time>
      </trkpt>
      <trkpt lat="43.54989" lon="3.7935">
        <ele>29.997232</ele>
        <time>2021-01-03T10:04:19Z</time>
      </trkpt>
      <trkpt lat="43.54981" lon="3.79346">
        <ele>30.245703</ele>
        <time>2021-01-03T10:04:24Z</time>
      </trkpt>
      <trkpt lat="43.54976" lon="3.79337">
        <ele>30.388817</ele>
        <time>2021-01-03T10:04:29Z</time>
      </trkpt>
      <trkpt lat="43.5497" lon="3.79331">
        <ele>30.184082</ele>
        <time>2021-01-03T10:04:34Z</time>
      </trkpt>
      <trkpt lat="43.54966" lon="3.79318">
        <ele>29.897949</ele>
        <time>2021-01-03T10:04:39Z</time>
      </trkpt>
      <trkpt lat="43.5496" lon="3.79304">
        <ele>29.477701</ele>
        <time>2021-01-03T10:04:44Z</time>
      </trkpt>
      <trkpt lat="43.54952" lon="3.79295">
        <ele>28.790201</ele>
        <time>2021-01-03T10:04:49Z</time>
      </trkpt>
      <trkpt lat="43.54946" lon="3.79287">
        <ele>28.455078</ele>
        <time>2021-01-03T10:04:54Z</time>
      </trkpt>
      <trkpt lat="43.54938" lon="3.79279">
        <ele>28.313883</ele>
        <time>2021-01-03T10:04:59Z</time>
      </trkpt>
      <trkpt lat="43.54931" lon="3.79272">
        <ele>28.173666</ele>
        <time>2021-01-03T10:05:04Z</time>
      </trkpt>
      <trkpt lat="43.54923" lon="3.79266">
        <ele>28.091553</ele>
        <time>2021-01-03T10:05:09Z</time>
      </trkpt>
      <trkpt lat="43.54914" lon="3.79261">
        <ele>28.055094</ele>
        <time>2021-01-03T10:05:14Z</time>
      </trkpt>
      <trkpt lat="43.54907" lon="3.79254">
        <ele>28.075226</ele>
        <time>2021-01-03T10:05:19Z</time>
      </trkpt>
      <trkpt lat="43.54901" lon="3.79245">
        <ele>28.01358</ele>
        <time>2021-01-03T10:05:24Z</time>
      </trkpt>
      <trkpt lat="43.54895" lon="3.79231">
        <ele>27.774437</ele>
        <time>2021-01-03T10:05:29Z</time>
      </trkpt>
      <trkpt lat="43.5489" lon="3.79217">
        <ele>27.424047</ele>
        <time>2021-01-03T10:05:34Z</time>
      </trkpt>
      <trkpt lat="43.54881" lon="3.79206">
        <ele>27.137369</ele>
        <time>2021-01-03T10:05:39Z</time>
      </trkpt>
      <trkpt lat="43.54871" lon="3.79198">
        <ele>27.085611</ele>
        <time>2021-01-03T10:05:44Z</time>
      </trkpt>
      <trkpt lat="43.5486" lon="3.79195">
        <ele>27.133301</ele>
        <time>2021-01-03T10:05:49Z</time>
      </trkpt>
      <trkpt lat="43.54849" lon="3.79193">
        <ele>27.3444</ele>
        <time>2021-01-03T10:05:54Z</time>
      </trkpt>
      <trkpt lat="43.54841" lon="3.79187">
        <ele>27.598471</ele>
        <time>2021-01-03T10:05:59Z</time>
      </trkpt>
      <trkpt lat="43.5483" lon="3.79177">
        <ele>27.687338</ele>
        <time>2021-01-03T10:06:04Z</time>
      </trkpt>
      <trkpt lat="43.54822" lon="3.79165">
        <ele>27.703451</ele>
        <time>2021-01-03T10:06:09Z</time>
      </trkpt>
      <trkpt lat="43.5481" lon="3.79148">
        <ele>27.645325</ele>
        <time>2021-01-03T10:06:14Z</time>
      </trkpt>
      <trkpt lat="43.54787" lon="3.79132">
        <ele>27.617849</ele>
        <time>2021-01-03T10:06:19Z</time>
      </trkpt>
      <trkpt lat="43.54775" lon="3.79123">
        <ele>27.67164</ele>
        <time>2021-01-03T10:06:24Z</time>
      </trkpt>
      <trkpt lat="43.54776" lon="3.79108">
        <ele>27.710321</ele>
        <time>2021-01-03T10:06:29Z</time>
      </trkpt>
      <trkpt lat="43.54777" lon="3.79094">
        <ele>27.356218</ele>
        <time>2021-01-03T10:06:34Z</time>
      </trkpt>
      <trkpt lat="43.54779" lon="3.79082">
        <ele>27.006269</ele>
        <time>2021-01-03T10:06:39Z</time>
      </trkpt>
      <trkpt lat="43.54775" lon="3.79072">
        <ele>26.948875</ele>
        <time>2021-01-03T10:06:44Z</time>
      </trkpt>
      <trkpt lat="43.54769" lon="3.79063">
        <ele>26.996439</ele>
        <time>2021-01-03T10:06:49Z</time>
      </trkpt>
      <trkpt lat="43.5477" lon="3.79053">
        <ele>27.115396</ele>
        <time>2021-01-03T10:06:54Z</time>
      </trkpt>
      <trkpt lat="43.54785" lon="3.79059">
        <ele>26.961222</ele>
        <time>2021-01-03T10:07:09Z</time>
      </trkpt>
      <trkpt lat="43.54782" lon="3.79072">
        <ele>26.799826</ele>
        <time>2021-01-03T10:07:19Z</time>
      </trkpt>
      <trkpt lat="43.54773" lon="3.7907">
        <ele>26.837446</ele>
        <time>2021-01-03T10:07:24Z</time>
      </trkpt>
      <trkpt lat="43.54766" lon="3.79063">
        <ele>27.021439</ele>
        <time>2021-01-03T10:07:29Z</time>
      </trkpt>
      <trkpt lat="43.54754" lon="3.79058">
        <ele>27.237305</ele>
        <time>2021-01-03T10:07:34Z</time>
      </trkpt>
      <trkpt lat="43.54743" lon="3.79056">
        <ele>27.543619</ele>
        <time>2021-01-03T10:07:39Z</time>
      </trkpt>
      <trkpt lat="43.54731" lon="3.79059">
        <ele>27.810221</ele>
        <time>2021-01-03T10:07:44Z</time>
      </trkpt>
      <trkpt lat="43.54718" lon="3.79062">
        <ele>28.217123</ele>
        <time>2021-01-03T10:07:49Z</time>
      </trkpt>
      <trkpt lat="43.54704" lon="3.79063">
        <ele>28.595053</ele>
        <time>2021-01-03T10:07:54Z</time>
      </trkpt>
      <trkpt lat="43.5469" lon="3.79064">
        <ele>28.944876</ele>
        <time>2021-01-03T10:07:59Z</time>
      </trkpt>
      <trkpt lat="43.54677" lon="3.79068">
        <ele>29.662531</ele>
        <time>2021-01-03T10:08:04Z</time>
      </trkpt>
      <trkpt lat="43.54667" lon="3.79073">
        <ele>30.425604</ele>
        <time>2021-01-03T10:08:09Z</time>
      </trkpt>
      <trkpt lat="43.54662" lon="3.79085">
        <ele>31.006235</ele>
        <time>2021-01-03T10:08:14Z</time>
      </trkpt>
      <trkpt lat="43.5466" lon="3.79101">
        <ele>31.406103</ele>
        <time>2021-01-03T10:08:19Z</time>
      </trkpt>
      <trkpt lat="43.54655" lon="3.79115">
        <ele>31.749979</ele>
        <time>2021-01-03T10:08:24Z</time>
      </trkpt>
      <trkpt lat="43.54646" lon="3.79123">
        <ele>32.406902</ele>
        <time>2021-01-03T10:08:29Z</time>
      </trkpt>
      <trkpt lat="43.54633" lon="3.79126">
        <ele>33.159344</ele>
        <time>2021-01-03T10:08:34Z</time>
      </trkpt>
      <trkpt lat="43.54619" lon="3.79132">
        <ele>34.071289</ele>
        <time>2021-01-03T10:08:39Z</time>
      </trkpt>
      <trkpt lat="43.54609" lon="3.79137">
        <ele>35.171711</ele>
        <time>2021-01-03T10:08:44Z</time>
      </trkpt>
      <trkpt lat="43.546" lon="3.79146">
        <ele>36.140869</ele>
        <time>2021-01-03T10:08:49Z</time>
      </trkpt>
      <trkpt lat="43.54589" lon="3.79152">
        <ele>37.042156</ele>
        <time>2021-01-03T10:08:54Z</time>
      </trkpt>
      <trkpt lat="43.54577" lon="3.79157">
        <ele>38.014568</ele>
        <time>2021-01-03T10:08:59Z</time>
      </trkpt>
      <trkpt lat="43.54567" lon="3.79161">
        <ele>38.876789</ele>
        <time>2021-01-03T10:09:04Z</time>
      </trkpt>
      <trkpt lat="43.54557" lon="3.79167">
        <ele>39.89151</ele>
        <time>2021-01-03T10:09:09Z</time>
      </trkpt>
      <trkpt lat="43.54549" lon="3.79173">
        <ele>40.751884</ele>
        <time>2021-01-03T10:09:14Z</time>
      </trkpt>
      <trkpt lat="43.54539" lon="3.79177">
        <ele>41.590412</ele>
        <time>2021-01-03T10:09:19Z</time>
      </trkpt>
      <trkpt lat="43.54531" lon="3.79182">
        <ele>42.378338</ele>
        <time>2021-01-03T10:09:24Z</time>
      </trkpt>
      <trkpt lat="43.54522" lon="3.79184">
        <ele>43.13924</ele>
        <time>2021-01-03T10:09:29Z</time>
      </trkpt>
      <trkpt lat="43.54512" lon="3.79182">
        <ele>43.864094</ele>
        <time>2021-01-03T10:09:34Z</time>
      </trkpt>
      <trkpt lat="43.54504" lon="3.79173">
        <ele>44.51701</ele>
        <time>2021-01-03T10:09:39Z</time>
      </trkpt>
      <trkpt lat="43.54494" lon="3.79161">
        <ele>44.901531</ele>
        <time>2021-01-03T10:09:44Z</time>
      </trkpt>
      <trkpt lat="43.54485" lon="3.79148">
        <ele>45.16325</ele>
        <time>2021-01-03T10:09:49Z</time>
      </trkpt>
      <trkpt lat="43.54476" lon="3.79137">
        <ele>45.305012</ele>
        <time>2021-01-03T10:09:54Z</time>
      </trkpt>
      <trkpt lat="43.54467" lon="3.79126">
        <ele>45.468426</ele>
        <time>2021-01-03T10:09:59Z</time>
      </trkpt>
      <trkpt lat="43.54458" lon="3.79114">
        <ele>45.575603</ele>
        <time>2021-01-03T10:10:04Z</time>
      </trkpt>
      <trkpt lat="43.54448" lon="3.79101">
        <ele>45.752441</ele>
        <time>2021-01-03T10:10:09Z</time>
      </trkpt>
      <trkpt lat="43.54439" lon="3.79091">
        <ele>45.93457</ele>
        <time>2021-01-03T10:10:14Z</time>
      </trkpt>
      <trkpt lat="43.5443" lon="3.79078">
        <ele>46.130764</ele>
        <time>2021-01-03T10:10:19Z</time>
      </trkpt>
      <trkpt lat="43.54419" lon="3.79063">
        <ele>46.197407</ele>
        <time>2021-01-03T10:10:24Z</time>
      </trkpt>
      <trkpt lat="43.54406" lon="3.79041">
        <ele>46.186432</ele>
        <time>2021-01-03T10:10:29Z</time>
      </trkpt>
      <trkpt lat="43.54395" lon="3.79015">
        <ele>45.822647</ele>
        <time>2021-01-03T10:10:34Z</time>
      </trkpt>
      <trkpt lat="43.5438" lon="3.79001">
        <ele>45.314697</ele>
        <time>2021-01-03T10:10:39Z</time>
      </trkpt>
      <trkpt lat="43.5437" lon="3.7899">
        <ele>45.337811</ele>
        <time>2021-01-03T10:10:44Z</time>
      </trkpt>
      <trkpt lat="43.54361" lon="3.78979">
        <ele>45.529297</ele>
        <time>2021-01-03T10:10:49Z</time>
      </trkpt>
      <trkpt lat="43.54352" lon="3.78968">
        <ele>45.643269</ele>
        <time>2021-01-03T10:10:54Z</time>
      </trkpt>
      <trkpt lat="43.54347" lon="3.78956">
        <ele>45.686207</ele>
        <time>2021-01-03T10:10:59Z</time>
      </trkpt>
      <trkpt lat="43.54339" lon="3.78945">
        <ele>45.63261</ele>
        <time>2021-01-03T10:11:04Z</time>
      </trkpt>
      <trkpt lat="43.54329" lon="3.78938">
        <ele>45.609699</ele>
        <time>2021-01-03T10:11:09Z</time>
      </trkpt>
      <trkpt lat="43.5432" lon="3.78927">
        <ele>45.78418</ele>
        <time>2021-01-03T10:11:14Z</time>
      </trkpt>
      <trkpt lat="43.54311" lon="3.78916">
        <ele>45.907471</ele>
        <time>2021-01-03T10:11:19Z</time>
      </trkpt>
      <trkpt lat="43.54302" lon="3.78904">
        <ele>45.985596</ele>
        <time>2021-01-03T10:11:24Z</time>
      </trkpt>
      <trkpt lat="43.5429" lon="3.78893">
        <ele>46.05843</ele>
        <time>2021-01-03T10:11:29Z</time>
      </trkpt>
      <trkpt lat="43.54281" lon="3.78879">
        <ele>46.180096</ele>
        <time>2021-01-03T10:11:34Z</time>
      </trkpt>
      <trkpt lat="43.54271" lon="3.78867">
        <ele>46.366047</ele>
        <time>2021-01-03T10:11:39Z</time>
      </trkpt>
      <trkpt lat="43.54263" lon="3.78852">
        <ele>46.61385</ele>
        <time>2021-01-03T10:11:44Z</time>
      </trkpt>
      <trkpt lat="43.54255" lon="3.7884">
        <ele>46.781006</ele>
        <time>2021-01-03T10:11:49Z</time>
      </trkpt>
      <trkpt lat="43.54245" lon="3.78829">
        <ele>46.942303</ele>
        <time>2021-01-03T10:11:54Z</time>
      </trkpt>
      <trkpt lat="43.54236" lon="3.78816">
        <ele>47.220051</ele>
        <time>2021-01-03T10:11:59Z</time>
      </trkpt>
      <trkpt lat="43.54224" lon="3.788">
        <ele>47.311932</ele>
        <time>2021-01-03T10:12:04Z</time>
      </trkpt>
      <trkpt lat="43.54213" lon="3.78801">
        <ele>47.452312</ele>
        <time>2021-01-03T10:12:09Z</time>
      </trkpt>
      <trkpt lat="43.54206" lon="3.78816">
        <ele>48.499348</ele>
        <time>2021-01-03T10:12:34Z</time>
      </trkpt>
      <trkpt lat="43.54203" lon="3.78822">
        <ele>48.891113</ele>
        <time>2021-01-03T10:12:44Z</time>
      </trkpt>
      <trkpt lat="43.54198" lon="3.78832">
        <ele>49.239014</ele>
        <time>2021-01-03T10:12:49Z</time>
      </trkpt>
      <trkpt lat="43.54193" lon="3.7884">
        <ele>49.672039</ele>
        <time>2021-01-03T10:12:54Z</time>
      </trkpt>
      <trkpt lat="43.54193" lon="3.78861">
        <ele>50.142742</ele>
        <time>2021-01-03T10:12:59Z</time>
      </trkpt>
      <trkpt lat="43.54181" lon="3.78886">
        <ele>50.512371</ele>
        <time>2021-01-03T10:13:04Z</time>
      </trkpt>
      <trkpt lat="43.54169" lon="3.78874">
        <ele>51.173748</ele>
        <time>2021-01-03T10:13:09Z</time>
      </trkpt>
      <trkpt lat="43.54158" lon="3.78859">
        <ele>52.01115</ele>
        <time>2021-01-03T10:13:14Z</time>
      </trkpt>
      <trkpt lat="43.54149" lon="3.78846">
        <ele>52.403912</ele>
        <time>2021-01-03T10:13:19Z</time>
      </trkpt>
      <trkpt lat="43.54142" lon="3.78836">
        <ele>53.290401</ele>
        <time>2021-01-03T10:13:24Z</time>
      </trkpt>
      <trkpt lat="43.54135" lon="3.78826">
        <ele>54.164474</ele>
        <time>2021-01-03T10:13:29Z</time>
      </trkpt>
      <trkpt lat="43.54128" lon="3.78816">
        <ele>54.863544</ele>
        <time>2021-01-03T10:13:34Z</time>
      </trkpt>
      <trkpt lat="43.54121" lon="3.78806">
        <ele>55.431034</ele>
        <time>2021-01-03T10:13:39Z</time>
      </trkpt>
      <trkpt lat="43.54115" lon="3.78796">
        <ele>55.77866</ele>
        <time>2021-01-03T10:13:44Z</time>
      </trkpt>
      <trkpt lat="43.54108" lon="3.78785">
        <ele>56.16338</ele>
        <time>2021-01-03T10:13:49Z</time>
      </trkpt>
      <trkpt lat="43.541" lon="3.78774">
        <ele>56.479168</ele>
        <time>2021-01-03T10:13:54Z</time>
      </trkpt>
      <trkpt lat="43.54092" lon="3.78762">
        <ele>56.791454</ele>
        <time>2021-01-03T10:13:59Z</time>
      </trkpt>
      <trkpt lat="43.54084" lon="3.7875">
        <ele>57.048431</ele>
        <time>2021-01-03T10:14:04Z</time>
      </trkpt>
      <trkpt lat="43.54076" lon="3.78738">
        <ele>57.282124</ele>
        <time>2021-01-03T10:14:09Z</time>
      </trkpt>
      <trkpt lat="43.54067" lon="3.78726">
        <ele>57.630112</ele>
        <time>2021-01-03T10:14:14Z</time>
      </trkpt>
      <trkpt lat="43.54059" lon="3.78714">
        <ele>58.125446</ele>
        <time>2021-01-03T10:14:19Z</time>
      </trkpt>
      <trkpt lat="43.5405" lon="3.78702">
        <ele>58.481339</ele>
        <time>2021-01-03T10:14:24Z</time>
      </trkpt>
      <trkpt lat="43.54041" lon="3.78689">
        <ele>58.843998</ele>
        <time>2021-01-03T10:14:29Z</time>
      </trkpt>
      <trkpt lat="43.54031" lon="3.78676">
        <ele>59.262646</ele>
        <time>2021-01-03T10:14:34Z</time>
      </trkpt>
      <trkpt lat="43.5402" lon="3.78662">
        <ele>59.620804</ele>
        <time>2021-01-03T10:14:39Z</time>
      </trkpt>
      <trkpt lat="43.54008" lon="3.78665">
        <ele>59.88567</ele>
        <time>2021-01-03T10:14:44Z</time>
      </trkpt>
      <trkpt lat="43.53997" lon="3.78673">
        <ele>60.231445</ele>
        <time>2021-01-03T10:14:49Z</time>
      </trkpt>
      <trkpt lat="43.53988" lon="3.78681">
        <ele>60.740967</ele>
        <time>2021-01-03T10:14:54Z</time>
      </trkpt>
      <trkpt lat="43.53981" lon="3.7869">
        <ele>61.2216</ele>
        <time>2021-01-03T10:14:59Z</time>
      </trkpt>
      <trkpt lat="43.53972" lon="3.78694">
        <ele>61.668957</ele>
        <time>2021-01-03T10:15:04Z</time>
      </trkpt>
      <trkpt lat="43.53963" lon="3.78699">
        <ele>61.95113</ele>
        <time>2021-01-03T10:15:09Z</time>
      </trkpt>
      <trkpt lat="43.53954" lon="3.78702">
        <ele>62.236347</ele>
        <time>2021-01-03T10:15:14Z</time>
      </trkpt>
      <trkpt lat="43.53943" lon="3.787">
        <ele>62.404942</ele>
        <time>2021-01-03T10:15:19Z</time>
      </trkpt>
      <trkpt lat="43.53931" lon="3.78702">
        <ele>62.452473</ele>
        <time>2021-01-03T10:15:24Z</time>
      </trkpt>
      <trkpt lat="43.53921" lon="3.78708">
        <ele>62.485352</ele>
        <time>2021-01-03T10:15:29Z</time>
      </trkpt>
      <trkpt lat="43.53914" lon="3.78717">
        <ele>62.643719</ele>
        <time>2021-01-03T10:15:34Z</time>
      </trkpt>
      <trkpt lat="43.53905" lon="3.78723">
        <ele>62.898113</ele>
        <time>2021-01-03T10:15:39Z</time>
      </trkpt>
      <trkpt lat="43.53897" lon="3.7873">
        <ele>63.092773</ele>
        <time>2021-01-03T10:15:44Z</time>
      </trkpt>
      <trkpt lat="43.53885" lon="3.78738">
        <ele>63.303711</ele>
        <time>2021-01-03T10:15:49Z</time>
      </trkpt>
      <trkpt lat="43.53876" lon="3.78748">
        <ele>63.517368</ele>
        <time>2021-01-03T10:15:54Z</time>
      </trkpt>
      <trkpt lat="43.53865" lon="3.78761">
        <ele>64.194435</ele>
        <time>2021-01-03T10:15:59Z</time>
      </trkpt>
      <trkpt lat="43.53858" lon="3.78777">
        <ele>65.461792</ele>
        <time>2021-01-03T10:16:04Z</time>
      </trkpt>
      <trkpt lat="43.53856" lon="3.7879">
        <ele>66.547432</ele>
        <time>2021-01-03T10:16:09Z</time>
      </trkpt>
      <trkpt lat="43.53851" lon="3.78806">
        <ele>67.744026</ele>
        <time>2021-01-03T10:16:14Z</time>
      </trkpt>
      <trkpt lat="43.53852" lon="3.78823">
        <ele>68.834991</ele>
        <time>2021-01-03T10:16:19Z</time>
      </trkpt>
      <trkpt lat="43.53852" lon="3.78841">
        <ele>69.578255</ele>
        <time>2021-01-03T10:16:24Z</time>
      </trkpt>
      <trkpt lat="43.53853" lon="3.78858">
        <ele>70.746742</ele>
        <time>2021-01-03T10:16:29Z</time>
      </trkpt>
      <trkpt lat="43.5385" lon="3.78871">
        <ele>71.685875</ele>
        <time>2021-01-03T10:16:34Z</time>
      </trkpt>
      <trkpt lat="43.53841" lon="3.78863">
        <ele>72.535805</ele>
        <time>2021-01-03T10:16:39Z</time>
      </trkpt>
      <trkpt lat="43.53834" lon="3.78851">
        <ele>72.665039</ele>
        <time>2021-01-03T10:16:44Z</time>
      </trkpt>
      <trkpt lat="43.53825" lon="3.78838">
        <ele>72.468422</ele>
        <time>2021-01-03T10:16:49Z</time>
      </trkpt>
      <trkpt lat="43.53816" lon="3.78825">
        <ele>72.261391</ele>
        <time>2021-01-03T10:16:54Z</time>
      </trkpt>
      <trkpt lat="43.53805" lon="3.78807">
        <ele>72.087578</ele>
        <time>2021-01-03T10:16:59Z</time>
      </trkpt>
      <trkpt lat="43.53794" lon="3.78786">
        <ele>72.017815</ele>
        <time>2021-01-03T10:17:04Z</time>
      </trkpt>
      <trkpt lat="43.53776" lon="3.78764">
        <ele>72.047928</ele>
        <time>2021-01-03T10:17:09Z</time>
      </trkpt>
      <trkpt lat="43.53762" lon="3.78742">
        <ele>72.169319</ele>
        <time>2021-01-03T10:17:14Z</time>
      </trkpt>
      <trkpt lat="43.53748" lon="3.78719">
        <ele>72.127914</ele>
        <time>2021-01-03T10:17:19Z</time>
      </trkpt>
      <trkpt lat="43.53733" lon="3.787">
        <ele>71.874992</ele>
        <time>2021-01-03T10:17:24Z</time>
      </trkpt>
      <trkpt lat="43.53717" lon="3.7868">
        <ele>71.495895</ele>
        <time>2021-01-03T10:17:29Z</time>
      </trkpt>
      <trkpt lat="43.537" lon="3.78659">
        <ele>71.009102</ele>
        <time>2021-01-03T10:17:34Z</time>
      </trkpt>
      <trkpt lat="43.53687" lon="3.78642">
        <ele>70.477455</ele>
        <time>2021-01-03T10:17:39Z</time>
      </trkpt>
      <trkpt lat="43.53677" lon="3.78629">
        <ele>70.001869</ele>
        <time>2021-01-03T10:17:44Z</time>
      </trkpt>
      <trkpt lat="43.53666" lon="3.78616">
        <ele>69.719154</ele>
        <time>2021-01-03T10:17:49Z</time>
      </trkpt>
      <trkpt lat="43.53656" lon="3.786">
        <ele>69.667534</ele>
        <time>2021-01-03T10:17:54Z</time>
      </trkpt>
      <trkpt lat="43.53646" lon="3.78585">
        <ele>69.662621</ele>
        <time>2021-01-03T10:17:59Z</time>
      </trkpt>
      <trkpt lat="43.53635" lon="3.78569">
        <ele>69.595955</ele>
        <time>2021-01-03T10:18:04Z</time>
      </trkpt>
      <trkpt lat="43.53622" lon="3.78551">
        <ele>69.480629</ele>
        <time>2021-01-03T10:18:09Z</time>
      </trkpt>
      <trkpt lat="43.53608" lon="3.78532">
        <ele>69.326027</ele>
        <time>2021-01-03T10:18:14Z</time>
      </trkpt>
      <trkpt lat="43.53596" lon="3.78518">
        <ele>69.305885</ele>
        <time>2021-01-03T10:18:19Z</time>
      </trkpt>
      <trkpt lat="43.53584" lon="3.78493">
        <ele>69.362762</ele>
        <time>2021-01-03T10:18:24Z</time>
      </trkpt>
      <trkpt lat="43.5357" lon="3.78469">
        <ele>69.151794</ele>
        <time>2021-01-03T10:18:29Z</time>
      </trkpt>
      <trkpt lat="43.53554" lon="3.78446">
        <ele>68.763268</ele>
        <time>2021-01-03T10:18:34Z</time>
      </trkpt>
      <trkpt lat="43.53535" lon="3.78421">
        <ele>68.673828</ele>
        <time>2021-01-03T10:18:39Z</time>
      </trkpt>
      <trkpt lat="43.53515" lon="3.78395">
        <ele>68.770576</ele>
        <time>2021-01-03T10:18:44Z</time>
      </trkpt>
      <trkpt lat="43.53496" lon="3.78368">
        <ele>69.471214</ele>
        <time>2021-01-03T10:18:49Z</time>
      </trkpt>
      <trkpt lat="43.53482" lon="3.78343">
        <ele>70.077019</ele>
        <time>2021-01-03T10:18:54Z</time>
      </trkpt>
      <trkpt lat="43.53468" lon="3.78325">
        <ele>70.20327</ele>
        <time>2021-01-03T10:18:59Z</time>
      </trkpt>
      <trkpt lat="43.53453" lon="3.78308">
        <ele>70.714027</ele>
        <time>2021-01-03T10:19:04Z</time>
      </trkpt>
      <trkpt lat="43.53441" lon="3.7829">
        <ele>71.831055</ele>
        <time>2021-01-03T10:19:09Z</time>
      </trkpt>
      <trkpt lat="43.53435" lon="3.78279">
        <ele>72.745605</ele>
        <time>2021-01-03T10:19:14Z</time>
      </trkpt>
      <trkpt lat="43.53428" lon="3.78266">
        <ele>73.216309</ele>
        <time>2021-01-03T10:19:19Z</time>
      </trkpt>
      <trkpt lat="43.53419" lon="3.78252">
        <ele>73.616348</ele>
        <time>2021-01-03T10:19:24Z</time>
      </trkpt>
      <trkpt lat="43.53409" lon="3.78238">
        <ele>73.979149</ele>
        <time>2021-01-03T10:19:29Z</time>
      </trkpt>
      <trkpt lat="43.53399" lon="3.78222">
        <ele>74.524971</ele>
        <time>2021-01-03T10:19:34Z</time>
      </trkpt>
      <trkpt lat="43.53389" lon="3.78207">
        <ele>74.959991</ele>
        <time>2021-01-03T10:19:39Z</time>
      </trkpt>
      <trkpt lat="43.53376" lon="3.78191">
        <ele>75.304039</ele>
        <time>2021-01-03T10:19:44Z</time>
      </trkpt>
      <trkpt lat="43.53363" lon="3.78173">
        <ele>75.308266</ele>
        <time>2021-01-03T10:19:49Z</time>
      </trkpt>
      <trkpt lat="43.53351" lon="3.78156">
        <ele>74.955559</ele>
        <time>2021-01-03T10:19:54Z</time>
      </trkpt>
      <trkpt lat="43.5334" lon="3.7814">
        <ele>74.389824</ele>
        <time>2021-01-03T10:19:59Z</time>
      </trkpt>
      <trkpt lat="43.53328" lon="3.78127">
        <ele>73.920616</ele>
        <time>2021-01-03T10:20:04Z</time>
      </trkpt>
      <trkpt lat="43.53318" lon="3.78106">
        <ele>73.472313</ele>
        <time>2021-01-03T10:20:09Z</time>
      </trkpt>
      <trkpt lat="43.53305" lon="3.78084">
        <ele>72.514305</ele>
        <time>2021-01-03T10:20:14Z</time>
      </trkpt>
      <trkpt lat="43.53291" lon="3.78064">
        <ele>71.53373</ele>
        <time>2021-01-03T10:20:19Z</time>
      </trkpt>
      <trkpt lat="43.53276" lon="3.78043">
        <ele>71.068054</ele>
        <time>2021-01-03T10:20:24Z</time>
      </trkpt>
      <trkpt lat="43.53265" lon="3.78025">
        <ele>70.631104</ele>
        <time>2021-01-03T10:20:29Z</time>
      </trkpt>
      <trkpt lat="43.53252" lon="3.78008">
        <ele>70.330757</ele>
        <time>2021-01-03T10:20:34Z</time>
      </trkpt>
      <trkpt lat="43.5324" lon="3.7799">
        <ele>70.425163</ele>
        <time>2021-01-03T10:20:39Z</time>
      </trkpt>
      <trkpt lat="43.53227" lon="3.77969">
        <ele>70.916214</ele>
        <time>2021-01-03T10:20:44Z</time>
      </trkpt>
      <trkpt lat="43.5321" lon="3.77949">
        <ele>71.577309</ele>
        <time>2021-01-03T10:20:49Z</time>
      </trkpt>
      <trkpt lat="43.53195" lon="3.77931">
        <ele>72.777992</ele>
        <time>2021-01-03T10:20:54Z</time>
      </trkpt>
      <trkpt lat="43.53179" lon="3.77909">
        <ele>74.00647</ele>
        <time>2021-01-03T10:20:59Z</time>
      </trkpt>
      <trkpt lat="43.53164" lon="3.77887">
        <ele>74.735283</ele>
        <time>2021-01-03T10:21:04Z</time>
      </trkpt>
      <trkpt lat="43.5315" lon="3.77867">
        <ele>75.170052</ele>
        <time>2021-01-03T10:21:09Z</time>
      </trkpt>
      <trkpt lat="43.53135" lon="3.77847">
        <ele>75.399872</ele>
        <time>2021-01-03T10:21:14Z</time>
      </trkpt>
      <trkpt lat="43.53122" lon="3.77828">
        <ele>75.883797</ele>
        <time>2021-01-03T10:21:19Z</time>
      </trkpt>
      <trkpt lat="43.53113" lon="3.77812">
        <ele>75.995537</ele>
        <time>2021-01-03T10:21:24Z</time>
      </trkpt>
      <trkpt lat="43.53104" lon="3.778">
        <ele>75.906044</ele>
        <time>2021-01-03T10:21:29Z</time>
      </trkpt>
      <trkpt lat="43.53096" lon="3.77786">
        <ele>75.843681</ele>
        <time>2021-01-03T10:21:34Z</time>
      </trkpt>
      <trkpt lat="43.53085" lon="3.77771">
        <ele>75.665222</ele>
        <time>2021-01-03T10:21:39Z</time>
      </trkpt>
      <trkpt lat="43.53074" lon="3.77755">
        <ele>75.47039</ele>
        <time>2021-01-03T10:21:44Z</time>
      </trkpt>
      <trkpt lat="43.53064" lon="3.77739">
        <ele>75.269722</ele>
        <time>2021-01-03T10:21:49Z</time>
      </trkpt>
      <trkpt lat="43.53054" lon="3.77725">
        <ele>74.866699</ele>
        <time>2021-01-03T10:21:54Z</time>
      </trkpt>
      <trkpt lat="43.53046" lon="3.77713">
        <ele>74.412483</ele>
        <time>2021-01-03T10:21:59Z</time>
      </trkpt>
      <trkpt lat="43.53038" lon="3.777">
        <ele>73.915855</ele>
        <time>2021-01-03T10:22:04Z</time>
      </trkpt>
      <trkpt lat="43.53029" lon="3.77687">
        <ele>73.482178</ele>
        <time>2021-01-03T10:22:09Z</time>
      </trkpt>
      <trkpt lat="43.53017" lon="3.77671">
        <ele>73.047203</ele>
        <time>2021-01-03T10:22:14Z</time>
      </trkpt>
      <trkpt lat="43.53004" lon="3.77657">
        <ele>72.590332</ele>
        <time>2021-01-03T10:22:19Z</time>
      </trkpt>
      <trkpt lat="43.52991" lon="3.77636">
        <ele>72.287621</ele>
        <time>2021-01-03T10:22:24Z</time>
      </trkpt>
      <trkpt lat="43.52977" lon="3.77612">
        <ele>71.854805</ele>
        <time>2021-01-03T10:22:29Z</time>
      </trkpt>
      <trkpt lat="43.52966" lon="3.77598">
        <ele>71.244957</ele>
        <time>2021-01-03T10:22:34Z</time>
      </trkpt>
      <trkpt lat="43.5296" lon="3.77591">
        <ele>70.758766</ele>
        <time>2021-01-03T10:22:39Z</time>
      </trkpt>
      <trkpt lat="43.5295" lon="3.77576">
        <ele>70.519234</ele>
        <time>2021-01-03T10:22:44Z</time>
      </trkpt>
      <trkpt lat="43.52938" lon="3.77562">
        <ele>70.345299</ele>
        <time>2021-01-03T10:22:54Z</time>
      </trkpt>
      <trkpt lat="43.52932" lon="3.77554">
        <ele>70.25296</ele>
        <time>2021-01-03T10:22:59Z</time>
      </trkpt>
      <trkpt lat="43.52925" lon="3.77545">
        <ele>70.157173</ele>
        <time>2021-01-03T10:23:04Z</time>
      </trkpt>
      <trkpt lat="43.52913" lon="3.77529">
        <ele>70.054344</ele>
        <time>2021-01-03T10:23:09Z</time>
      </trkpt>
      <trkpt lat="43.52899" lon="3.77511">
        <ele>69.871544</ele>
        <time>2021-01-03T10:23:14Z</time>
      </trkpt>
      <trkpt lat="43.52885" lon="3.77488">
        <ele>69.648155</ele>
        <time>2021-01-03T10:23:19Z</time>
      </trkpt>
      <trkpt lat="43.52869" lon="3.77469">
        <ele>69.129364</ele>
        <time>2021-01-03T10:23:24Z</time>
      </trkpt>
      <trkpt lat="43.52858" lon="3.77453">
        <ele>68.609238</ele>
        <time>2021-01-03T10:23:29Z</time>
      </trkpt>
      <trkpt lat="43.52859" lon="3.77427">
        <ele>68.145317</ele>
        <time>2021-01-03T10:23:34Z</time>
      </trkpt>
      <trkpt lat="43.52842" lon="3.77406">
        <ele>67.009163</ele>
        <time>2021-01-03T10:23:39Z</time>
      </trkpt>
      <trkpt lat="43.52824" lon="3.77391">
        <ele>66.329765</ele>
        <time>2021-01-03T10:23:44Z</time>
      </trkpt>
      <trkpt lat="43.52811" lon="3.77371">
        <ele>65.932152</ele>
        <time>2021-01-03T10:23:49Z</time>
      </trkpt>
      <trkpt lat="43.52796" lon="3.77351">
        <ele>65.357643</ele>
        <time>2021-01-03T10:23:54Z</time>
      </trkpt>
      <trkpt lat="43.52781" lon="3.77335">
        <ele>64.999756</ele>
        <time>2021-01-03T10:23:59Z</time>
      </trkpt>
      <trkpt lat="43.52767" lon="3.77315">
        <ele>64.74469</ele>
        <time>2021-01-03T10:24:04Z</time>
      </trkpt>
      <trkpt lat="43.52755" lon="3.77289">
        <ele>64.561363</ele>
        <time>2021-01-03T10:24:09Z</time>
      </trkpt>
      <trkpt lat="43.52751" lon="3.77282">
        <ele>64.500816</ele>
        <time>2021-01-03T10:24:14Z</time>
      </trkpt>
      <trkpt lat="43.52748" lon="3.77277">
        <ele>64.503662</ele>
        <time>2021-01-03T10:24:19Z</time>
      </trkpt>
      <trkpt lat="43.5274" lon="3.77265">
        <ele>64.519691</ele>
        <time>2021-01-03T10:24:24Z</time>
      </trkpt>
      <trkpt lat="43.52729" lon="3.77247">
        <ele>64.57357</ele>
        <time>2021-01-03T10:24:29Z</time>
      </trkpt>
      <trkpt lat="43.52722" lon="3.77226">
        <ele>64.615883</ele>
        <time>2021-01-03T10:24:34Z</time>
      </trkpt>
      <trkpt lat="43.52707" lon="3.77223">
        <ele>64.717705</ele>
        <time>2021-01-03T10:24:39Z</time>
      </trkpt>
      <trkpt lat="43.52696" lon="3.77213">
        <ele>65.251945</ele>
        <time>2021-01-03T10:24:44Z</time>
      </trkpt>
      <trkpt lat="43.52694" lon="3.77195">
        <ele>65.736816</ele>
        <time>2021-01-03T10:24:49Z</time>
      </trkpt>
      <trkpt lat="43.5268" lon="3.77181">
        <ele>65.928223</ele>
        <time>2021-01-03T10:24:54Z</time>
      </trkpt>
      <trkpt lat="43.52668" lon="3.77167">
        <ele>66.428467</ele>
        <time>2021-01-03T10:24:59Z</time>
      </trkpt>
      <trkpt lat="43.52659" lon="3.77153">
        <ele>66.988525</ele>
        <time>2021-01-03T10:25:04Z</time>
      </trkpt>
      <trkpt lat="43.52646" lon="3.77137">
        <ele>67.381592</ele>
        <time>2021-01-03T10:25:09Z</time>
      </trkpt>
      <trkpt lat="43.52633" lon="3.77119">
        <ele>67.904945</ele>
        <time>2021-01-03T10:25:14Z</time>
      </trkpt>
      <trkpt lat="43.52619" lon="3.77099">
        <ele>68.343102</ele>
        <time>2021-01-03T10:25:19Z</time>
      </trkpt>
      <trkpt lat="43.52607" lon="3.77076">
        <ele>68.395912</ele>
        <time>2021-01-03T10:25:24Z</time>
      </trkpt>
      <trkpt lat="43.52594" lon="3.77055">
        <ele>67.912437</ele>
        <time>2021-01-03T10:25:29Z</time>
      </trkpt>
      <trkpt lat="43.52588" lon="3.77027">
        <ele>67.470375</ele>
        <time>2021-01-03T10:25:34Z</time>
      </trkpt>
      <trkpt lat="43.52575" lon="3.77004">
        <ele>66.466393</ele>
        <time>2021-01-03T10:25:39Z</time>
      </trkpt>
      <trkpt lat="43.52561" lon="3.76981">
        <ele>65.705078</ele>
        <time>2021-01-03T10:25:44Z</time>
      </trkpt>
      <trkpt lat="43.52549" lon="3.76959">
        <ele>65.268311</ele>
        <time>2021-01-03T10:25:49Z</time>
      </trkpt>
      <trkpt lat="43.52536" lon="3.76939">
        <ele>64.900635</ele>
        <time>2021-01-03T10:25:54Z</time>
      </trkpt>
      <trkpt lat="43.52522" lon="3.7692">
        <ele>64.552734</ele>
        <time>2021-01-03T10:25:59Z</time>
      </trkpt>
      <trkpt lat="43.52509" lon="3.76902">
        <ele>64.295898</ele>
        <time>2021-01-03T10:26:04Z</time>
      </trkpt>
      <trkpt lat="43.52494" lon="3.76887">
        <ele>64.076721</ele>
        <time>2021-01-03T10:26:09Z</time>
      </trkpt>
      <trkpt lat="43.5248" lon="3.7687">
        <ele>63.983395</ele>
        <time>2021-01-03T10:26:14Z</time>
      </trkpt>
      <trkpt lat="43.52467" lon="3.76852">
        <ele>63.825123</ele>
        <time>2021-01-03T10:26:19Z</time>
      </trkpt>
      <trkpt lat="43.52451" lon="3.7684">
        <ele>63.529743</ele>
        <time>2021-01-03T10:26:24Z</time>
      </trkpt>
      <trkpt lat="43.52435" lon="3.7683">
        <ele>63.260349</ele>
        <time>2021-01-03T10:26:29Z</time>
      </trkpt>
      <trkpt lat="43.52419" lon="3.76821">
        <ele>63.125645</ele>
        <time>2021-01-03T10:26:34Z</time>
      </trkpt>
      <trkpt lat="43.52402" lon="3.76809">
        <ele>63.147625</ele>
        <time>2021-01-03T10:26:39Z</time>
      </trkpt>
      <trkpt lat="43.52388" lon="3.76798">
        <ele>63.221027</ele>
        <time>2021-01-03T10:26:44Z</time>
      </trkpt>
      <trkpt lat="43.52373" lon="3.76792">
        <ele>63.266521</ele>
        <time>2021-01-03T10:26:49Z</time>
      </trkpt>
      <trkpt lat="43.52356" lon="3.76785">
        <ele>63.412655</ele>
        <time>2021-01-03T10:26:54Z</time>
      </trkpt>
      <trkpt lat="43.52339" lon="3.76776">
        <ele>63.786098</ele>
        <time>2021-01-03T10:26:59Z</time>
      </trkpt>
      <trkpt lat="43.52322" lon="3.76766">
        <ele>64.179626</ele>
        <time>2021-01-03T10:27:04Z</time>
      </trkpt>
      <trkpt lat="43.52306" lon="3.76756">
        <ele>64.481384</ele>
        <time>2021-01-03T10:27:09Z</time>
      </trkpt>
      <trkpt lat="43.5229" lon="3.76746">
        <ele>64.700966</ele>
        <time>2021-01-03T10:27:14Z</time>
      </trkpt>
      <trkpt lat="43.52274" lon="3.76736">
        <ele>64.993629</ele>
        <time>2021-01-03T10:27:19Z</time>
      </trkpt>
      <trkpt lat="43.52261" lon="3.76725">
        <ele>65.255539</ele>
        <time>2021-01-03T10:27:24Z</time>
      </trkpt>
      <trkpt lat="43.52248" lon="3.7671">
        <ele>65.343369</ele>
        <time>2021-01-03T10:27:29Z</time>
      </trkpt>
      <trkpt lat="43.52233" lon="3.76699">
        <ele>65.283989</ele>
        <time>2021-01-03T10:27:34Z</time>
      </trkpt>
      <trkpt lat="43.52216" lon="3.76689">
        <ele>65.262856</ele>
        <time>2021-01-03T10:27:39Z</time>
      </trkpt>
      <trkpt lat="43.52198" lon="3.76679">
        <ele>65.346611</ele>
        <time>2021-01-03T10:27:44Z</time>
      </trkpt>
      <trkpt lat="43.52183" lon="3.76666">
        <ele>65.484947</ele>
        <time>2021-01-03T10:27:49Z</time>
      </trkpt>
      <trkpt lat="43.52167" lon="3.76652">
        <ele>65.569847</ele>
        <time>2021-01-03T10:27:54Z</time>
      </trkpt>
      <trkpt lat="43.5215" lon="3.76637">
        <ele>65.705284</ele>
        <time>2021-01-03T10:27:59Z</time>
      </trkpt>
      <trkpt lat="43.52133" lon="3.76623">
        <ele>66.037651</ele>
        <time>2021-01-03T10:28:04Z</time>
      </trkpt>
      <trkpt lat="43.52116" lon="3.76609">
        <ele>66.771751</ele>
        <time>2021-01-03T10:28:09Z</time>
      </trkpt>
      <trkpt lat="43.52099" lon="3.76594">
        <ele>67.576904</ele>
        <time>2021-01-03T10:28:14Z</time>
      </trkpt>
      <trkpt lat="43.52083" lon="3.7658">
        <ele>68.332512</ele>
        <time>2021-01-03T10:28:19Z</time>
      </trkpt>
      <trkpt lat="43.52067" lon="3.76566">
        <ele>69.012543</ele>
        <time>2021-01-03T10:28:24Z</time>
      </trkpt>
      <trkpt lat="43.52051" lon="3.76553">
        <ele>69.521088</ele>
        <time>2021-01-03T10:28:29Z</time>
      </trkpt>
      <trkpt lat="43.52035" lon="3.76543">
        <ele>69.883293</ele>
        <time>2021-01-03T10:28:34Z</time>
      </trkpt>
      <trkpt lat="43.52021" lon="3.76531">
        <ele>70.263962</ele>
        <time>2021-01-03T10:28:39Z</time>
      </trkpt>
      <trkpt lat="43.52009" lon="3.76523">
        <ele>70.432625</ele>
        <time>2021-01-03T10:28:44Z</time>
      </trkpt>
      <trkpt lat="43.51999" lon="3.76514">
        <ele>70.550453</ele>
        <time>2021-01-03T10:28:49Z</time>
      </trkpt>
      <trkpt lat="43.51992" lon="3.76504">
        <ele>70.600914</ele>
        <time>2021-01-03T10:28:54Z</time>
      </trkpt>
      <trkpt lat="43.51995" lon="3.76484">
        <ele>70.509117</ele>
        <time>2021-01-03T10:28:59Z</time>
      </trkpt>
      <trkpt lat="43.51988" lon="3.7646">
        <ele>69.997314</ele>
        <time>2021-01-03T10:29:04Z</time>
      </trkpt>
      <trkpt lat="43.51986" lon="3.76441">
        <ele>69.766441</ele>
        <time>2021-01-03T10:29:09Z</time>
      </trkpt>
      <trkpt lat="43.51996" lon="3.76425">
        <ele>69.565269</ele>
        <time>2021-01-03T10:29:14Z</time>
      </trkpt>
      <trkpt lat="43.52012" lon="3.76411">
        <ele>69.071533</ele>
        <time>2021-01-03T10:29:19Z</time>
      </trkpt>
      <trkpt lat="43.52026" lon="3.76395">
        <ele>68.408852</ele>
        <time>2021-01-03T10:29:24Z</time>
      </trkpt>
      <trkpt lat="43.52031" lon="3.76376">
        <ele>67.777016</ele>
        <time>2021-01-03T10:29:29Z</time>
      </trkpt>
      <trkpt lat="43.52033" lon="3.76358">
        <ele>67.3396</ele>
        <time>2021-01-03T10:29:34Z</time>
      </trkpt>
      <trkpt lat="43.52021" lon="3.76344">
        <ele>67.046303</ele>
        <time>2021-01-03T10:29:39Z</time>
      </trkpt>
      <trkpt lat="43.5201" lon="3.76333">
        <ele>67.050636</ele>
        <time>2021-01-03T10:29:44Z</time>
      </trkpt>
      <trkpt lat="43.51997" lon="3.76322">
        <ele>67.272797</ele>
        <time>2021-01-03T10:29:49Z</time>
      </trkpt>
      <trkpt lat="43.51983" lon="3.76313">
        <ele>67.643677</ele>
        <time>2021-01-03T10:29:54Z</time>
      </trkpt>
      <trkpt lat="43.51969" lon="3.76311">
        <ele>68.112518</ele>
        <time>2021-01-03T10:29:59Z</time>
      </trkpt>
      <trkpt lat="43.51957" lon="3.76309">
        <ele>68.611595</ele>
        <time>2021-01-03T10:30:04Z</time>
      </trkpt>
      <trkpt lat="43.51944" lon="3.76313">
        <ele>69.122551</ele>
        <time>2021-01-03T10:30:09Z</time>
      </trkpt>
      <trkpt lat="43.51934" lon="3.76313">
        <ele>69.909782</ele>
        <time>2021-01-03T10:30:14Z</time>
      </trkpt>
      <trkpt lat="43.51925" lon="3.76315">
        <ele>70.647133</ele>
        <time>2021-01-03T10:30:19Z</time>
      </trkpt>
      <trkpt lat="43.51917" lon="3.76319">
        <ele>71.222801</ele>
        <time>2021-01-03T10:30:24Z</time>
      </trkpt>
      <trkpt lat="43.51907" lon="3.76322">
        <ele>71.688911</ele>
        <time>2021-01-03T10:30:29Z</time>
      </trkpt>
      <trkpt lat="43.51897" lon="3.76327">
        <ele>72.276863</ele>
        <time>2021-01-03T10:30:34Z</time>
      </trkpt>
      <trkpt lat="43.51886" lon="3.76327">
        <ele>72.843369</ele>
        <time>2021-01-03T10:30:39Z</time>
      </trkpt>
      <trkpt lat="43.51876" lon="3.76331">
        <ele>73.542145</ele>
        <time>2021-01-03T10:30:44Z</time>
      </trkpt>
      <trkpt lat="43.5186" lon="3.76333">
        <ele>74.144409</ele>
        <time>2021-01-03T10:30:49Z</time>
      </trkpt>
      <trkpt lat="43.51851" lon="3.76334">
        <ele>75.120415</ele>
        <time>2021-01-03T10:30:54Z</time>
      </trkpt>
      <trkpt lat="43.51843" lon="3.76336">
        <ele>75.728691</ele>
        <time>2021-01-03T10:30:59Z</time>
      </trkpt>
      <trkpt lat="43.51831" lon="3.76333">
        <ele>76.202965</ele>
        <time>2021-01-03T10:31:04Z</time>
      </trkpt>
      <trkpt lat="43.51823" lon="3.76332">
        <ele>76.982368</ele>
        <time>2021-01-03T10:31:09Z</time>
      </trkpt>
      <trkpt lat="43.51811" lon="3.76336">
        <ele>77.550568</ele>
        <time>2021-01-03T10:31:14Z</time>
      </trkpt>
      <trkpt lat="43.51803" lon="3.76338">
        <ele>78.264549</ele>
        <time>2021-01-03T10:31:19Z</time>
      </trkpt>
      <trkpt lat="43.51793" lon="3.76338">
        <ele>78.747414</ele>
        <time>2021-01-03T10:31:24Z</time>
      </trkpt>
      <trkpt lat="43.5178" lon="3.76338">
        <ele>79.369995</ele>
        <time>2021-01-03T10:31:29Z</time>
      </trkpt>
      <trkpt lat="43.51765" lon="3.76341">
        <ele>80.133377</ele>
        <time>2021-01-03T10:31:34Z</time>
      </trkpt>
      <trkpt lat="43.51753" lon="3.76339">
        <ele>80.936195</ele>
        <time>2021-01-03T10:31:39Z</time>
      </trkpt>
      <trkpt lat="43.51742" lon="3.76339">
        <ele>81.749931</ele>
        <time>2021-01-03T10:31:44Z</time>
      </trkpt>
      <trkpt lat="43.51731" lon="3.76338">
        <ele>82.445473</ele>
        <time>2021-01-03T10:31:49Z</time>
      </trkpt>
      <trkpt lat="43.51721" lon="3.76338">
        <ele>83.001709</ele>
        <time>2021-01-03T10:31:54Z</time>
      </trkpt>
      <trkpt lat="43.5171" lon="3.76338">
        <ele>83.719971</ele>
        <time>2021-01-03T10:31:59Z</time>
      </trkpt>
      <trkpt lat="43.517" lon="3.76339">
        <ele>84.350258</ele>
        <time>2021-01-03T10:32:04Z</time>
      </trkpt>
      <trkpt lat="43.5169" lon="3.76338">
        <ele>84.933022</ele>
        <time>2021-01-03T10:32:09Z</time>
      </trkpt>
      <trkpt lat="43.5168" lon="3.76338">
        <ele>85.505859</ele>
        <time>2021-01-03T10:32:14Z</time>
      </trkpt>
      <trkpt lat="43.51668" lon="3.76337">
        <ele>85.872581</ele>
        <time>2021-01-03T10:32:19Z</time>
      </trkpt>
      <trkpt lat="43.51658" lon="3.76334">
        <ele>85.936089</ele>
        <time>2021-01-03T10:32:24Z</time>
      </trkpt>
      <trkpt lat="43.51649" lon="3.76331">
        <ele>86.069893</ele>
        <time>2021-01-03T10:32:29Z</time>
      </trkpt>
      <trkpt lat="43.51642" lon="3.76329">
        <ele>86.226631</ele>
        <time>2021-01-03T10:32:34Z</time>
      </trkpt>
      <trkpt lat="43.51635" lon="3.76325">
        <ele>86.380699</ele>
        <time>2021-01-03T10:32:39Z</time>
      </trkpt>
      <trkpt lat="43.51626" lon="3.7632">
        <ele>86.563103</ele>
        <time>2021-01-03T10:32:44Z</time>
      </trkpt>
      <trkpt lat="43.51615" lon="3.76315">
        <ele>86.764244</ele>
        <time>2021-01-03T10:32:49Z</time>
      </trkpt>
      <trkpt lat="43.51608" lon="3.76309">
        <ele>87.040253</ele>
        <time>2021-01-03T10:32:54Z</time>
      </trkpt>
      <trkpt lat="43.516" lon="3.76302">
        <ele>87.315758</ele>
        <time>2021-01-03T10:32:59Z</time>
      </trkpt>
      <trkpt lat="43.5159" lon="3.76295">
        <ele>87.604927</ele>
        <time>2021-01-03T10:33:04Z</time>
      </trkpt>
      <trkpt lat="43.51579" lon="3.76287">
        <ele>87.886574</ele>
        <time>2021-01-03T10:33:09Z</time>
      </trkpt>
      <trkpt lat="43.51565" lon="3.76276">
        <ele>88.190498</ele>
        <time>2021-01-03T10:33:14Z</time>
      </trkpt>
      <trkpt lat="43.51553" lon="3.76266">
        <ele>88.350067</ele>
        <time>2021-01-03T10:33:19Z</time>
      </trkpt>
      <trkpt lat="43.51543" lon="3.76255">
        <ele>88.3312</ele>
        <time>2021-01-03T10:33:24Z</time>
      </trkpt>
      <trkpt lat="43.51531" lon="3.76244">
        <ele>88.322365</ele>
        <time>2021-01-03T10:33:29Z</time>
      </trkpt>
      <trkpt lat="43.51518" lon="3.76235">
        <ele>88.310303</ele>
        <time>2021-01-03T10:33:34Z</time>
      </trkpt>
      <trkpt lat="43.51511" lon="3.76218">
        <ele>88.29557</ele>
        <time>2021-01-03T10:33:39Z</time>
      </trkpt>
      <trkpt lat="43.51505" lon="3.76208">
        <ele>88.385582</ele>
        <time>2021-01-03T10:33:44Z</time>
      </trkpt>
      <trkpt lat="43.51492" lon="3.76213">
        <ele>88.421303</ele>
        <time>2021-01-03T10:33:49Z</time>
      </trkpt>
      <trkpt lat="43.51477" lon="3.7622">
        <ele>88.267822</ele>
        <time>2021-01-03T10:33:54Z</time>
      </trkpt>
      <trkpt lat="43.51474" lon="3.76241">
        <ele>87.81559</ele>
        <time>2021-01-03T10:34:14Z</time>
      </trkpt>
      <trkpt lat="43.51475" lon="3.76265">
        <ele>87.590881</ele>
        <time>2021-01-03T10:34:24Z</time>
      </trkpt>
      <trkpt lat="43.51475" lon="3.7629">
        <ele>87.242989</ele>
        <time>2021-01-03T10:34:29Z</time>
      </trkpt>
      <trkpt lat="43.5146" lon="3.76302">
        <ele>86.78199</ele>
        <time>2021-01-03T10:34:34Z</time>
      </trkpt>
      <trkpt lat="43.51456" lon="3.76325">
        <ele>86.234581</ele>
        <time>2021-01-03T10:34:39Z</time>
      </trkpt>
      <trkpt lat="43.51438" lon="3.76341">
        <ele>85.685333</ele>
        <time>2021-01-03T10:34:44Z</time>
      </trkpt>
      <trkpt lat="43.51415" lon="3.76356">
        <ele>85.238144</ele>
        <time>2021-01-03T10:34:49Z</time>
      </trkpt>
      <trkpt lat="43.51392" lon="3.76372">
        <ele>85.167984</ele>
        <time>2021-01-03T10:34:54Z</time>
      </trkpt>
      <trkpt lat="43.51372" lon="3.76386">
        <ele>86.138512</ele>
        <time>2021-01-03T10:34:59Z</time>
      </trkpt>
      <trkpt lat="43.51354" lon="3.76399">
        <ele>87.618813</ele>
        <time>2021-01-03T10:35:04Z</time>
      </trkpt>
      <trkpt lat="43.51339" lon="3.76411">
        <ele>88.955482</ele>
        <time>2021-01-03T10:35:09Z</time>
      </trkpt>
      <trkpt lat="43.51323" lon="3.76421">
        <ele>90.049644</ele>
        <time>2021-01-03T10:35:14Z</time>
      </trkpt>
      <trkpt lat="43.51307" lon="3.76433">
        <ele>91.180031</ele>
        <time>2021-01-03T10:35:19Z</time>
      </trkpt>
      <trkpt lat="43.51294" lon="3.76445">
        <ele>92.278038</ele>
        <time>2021-01-03T10:35:24Z</time>
      </trkpt>
      <trkpt lat="43.51295" lon="3.76461">
        <ele>92.977257</ele>
        <time>2021-01-03T10:35:29Z</time>
      </trkpt>
      <trkpt lat="43.51313" lon="3.76471">
        <ele>92.967834</ele>
        <time>2021-01-03T10:35:34Z</time>
      </trkpt>
      <trkpt lat="43.51332" lon="3.76484">
        <ele>91.898796</ele>
        <time>2021-01-03T10:35:39Z</time>
      </trkpt>
      <trkpt lat="43.51351" lon="3.76499">
        <ele>90.656303</ele>
        <time>2021-01-03T10:35:44Z</time>
      </trkpt>
      <trkpt lat="43.5137" lon="3.76515">
        <ele>89.202454</ele>
        <time>2021-01-03T10:35:49Z</time>
      </trkpt>
      <trkpt lat="43.51387" lon="3.76535">
        <ele>87.599396</ele>
        <time>2021-01-03T10:35:54Z</time>
      </trkpt>
      <trkpt lat="43.51408" lon="3.76556">
        <ele>86.540741</ele>
        <time>2021-01-03T10:35:59Z</time>
      </trkpt>
      <trkpt lat="43.51429" lon="3.76576">
        <ele>85.376923</ele>
        <time>2021-01-03T10:36:04Z</time>
      </trkpt>
      <trkpt lat="43.51447" lon="3.76601">
        <ele>84.833984</ele>
        <time>2021-01-03T10:36:09Z</time>
      </trkpt>
      <trkpt lat="43.51464" lon="3.76627">
        <ele>84.770996</ele>
        <time>2021-01-03T10:36:14Z</time>
      </trkpt>
      <trkpt lat="43.51476" lon="3.76654">
        <ele>84.957924</ele>
        <time>2021-01-03T10:36:19Z</time>
      </trkpt>
      <trkpt lat="43.51488" lon="3.76685">
        <ele>85.755211</ele>
        <time>2021-01-03T10:36:24Z</time>
      </trkpt>
      <trkpt lat="43.51499" lon="3.76716">
        <ele>86.759308</ele>
        <time>2021-01-03T10:36:29Z</time>
      </trkpt>
      <trkpt lat="43.5151" lon="3.76747">
        <ele>87.6157</ele>
        <time>2021-01-03T10:36:34Z</time>
      </trkpt>
      <trkpt lat="43.51517" lon="3.76779">
        <ele>88.42234</ele>
        <time>2021-01-03T10:36:39Z</time>
      </trkpt>
      <trkpt lat="43.51513" lon="3.76808">
        <ele>89.249413</ele>
        <time>2021-01-03T10:36:44Z</time>
      </trkpt>
      <trkpt lat="43.51514" lon="3.76828">
        <ele>90.478943</ele>
        <time>2021-01-03T10:36:49Z</time>
      </trkpt>
      <trkpt lat="43.51525" lon="3.76855">
        <ele>91.045929</ele>
        <time>2021-01-03T10:36:54Z</time>
      </trkpt>
      <trkpt lat="43.51537" lon="3.76884">
        <ele>90.638832</ele>
        <time>2021-01-03T10:36:59Z</time>
      </trkpt>
      <trkpt lat="43.5155" lon="3.76915">
        <ele>89.171143</ele>
        <time>2021-01-03T10:37:04Z</time>
      </trkpt>
      <trkpt lat="43.51563" lon="3.76942">
        <ele>87.464752</ele>
        <time>2021-01-03T10:37:09Z</time>
      </trkpt>
      <trkpt lat="43.51573" lon="3.76966">
        <ele>85.719147</ele>
        <time>2021-01-03T10:37:14Z</time>
      </trkpt>
      <trkpt lat="43.5158" lon="3.76983">
        <ele>84.759941</ele>
        <time>2021-01-03T10:37:19Z</time>
      </trkpt>
      <trkpt lat="43.51592" lon="3.76991">
        <ele>84.241211</ele>
        <time>2021-01-03T10:37:24Z</time>
      </trkpt>
      <trkpt lat="43.51605" lon="3.76982">
        <ele>84.059631</ele>
        <time>2021-01-03T10:37:29Z</time>
      </trkpt>
      <trkpt lat="43.51618" lon="3.76972">
        <ele>84.045662</ele>
        <time>2021-01-03T10:37:34Z</time>
      </trkpt>
      <trkpt lat="43.51628" lon="3.76958">
        <ele>84.072151</ele>
        <time>2021-01-03T10:37:39Z</time>
      </trkpt>
      <trkpt lat="43.51641" lon="3.7695">
        <ele>84.115448</ele>
        <time>2021-01-03T10:37:44Z</time>
      </trkpt>
      <trkpt lat="43.51651" lon="3.76939">
        <ele>84.111397</ele>
        <time>2021-01-03T10:37:49Z</time>
      </trkpt>
      <trkpt lat="43.51657" lon="3.7692">
        <ele>83.937599</ele>
        <time>2021-01-03T10:37:54Z</time>
      </trkpt>
      <trkpt lat="43.51665" lon="3.76901">
        <ele>83.44239</ele>
        <time>2021-01-03T10:37:59Z</time>
      </trkpt>
      <trkpt lat="43.51676" lon="3.76888">
        <ele>82.432434</ele>
        <time>2021-01-03T10:38:04Z</time>
      </trkpt>
      <trkpt lat="43.51686" lon="3.76878">
        <ele>81.707573</ele>
        <time>2021-01-03T10:38:09Z</time>
      </trkpt>
      <trkpt lat="43.51694" lon="3.76868">
        <ele>81.506172</ele>
        <time>2021-01-03T10:38:14Z</time>
      </trkpt>
      <trkpt lat="43.517" lon="3.76857">
        <ele>82.001343</ele>
        <time>2021-01-03T10:38:19Z</time>
      </trkpt>
      <trkpt lat="43.51706" lon="3.76848">
        <ele>82.552788</ele>
        <time>2021-01-03T10:38:24Z</time>
      </trkpt>
      <trkpt lat="43.51711" lon="3.7684">
        <ele>83.002647</ele>
        <time>2021-01-03T10:38:29Z</time>
      </trkpt>
      <trkpt lat="43.51716" lon="3.7683">
        <ele>83.23423</ele>
        <time>2021-01-03T10:38:34Z</time>
      </trkpt>
      <trkpt lat="43.51721" lon="3.76821">
        <ele>83.462555</ele>
        <time>2021-01-03T10:38:39Z</time>
      </trkpt>
      <trkpt lat="43.51726" lon="3.76813">
        <ele>83.645332</ele>
        <time>2021-01-03T10:38:44Z</time>
      </trkpt>
      <trkpt lat="43.5173" lon="3.76805">
        <ele>83.749634</ele>
        <time>2021-01-03T10:38:49Z</time>
      </trkpt>
      <trkpt lat="43.51735" lon="3.76798">
        <ele>83.862396</ele>
        <time>2021-01-03T10:38:54Z</time>
      </trkpt>
      <trkpt lat="43.51739" lon="3.76791">
        <ele>84</ele>
        <time>2021-01-03T10:38:59Z</time>
      </trkpt>
      <trkpt lat="43.51744" lon="3.76784">
        <ele>84.096405</ele>
        <time>2021-01-03T10:39:04Z</time>
      </trkpt>
      <trkpt lat="43.51751" lon="3.76776">
        <ele>84.273315</ele>
        <time>2021-01-03T10:39:09Z</time>
      </trkpt>
      <trkpt lat="43.51759" lon="3.76768">
        <ele>84.569191</ele>
        <time>2021-01-03T10:39:14Z</time>
      </trkpt>
      <trkpt lat="43.51766" lon="3.76761">
        <ele>85.065559</ele>
        <time>2021-01-03T10:39:19Z</time>
      </trkpt>
      <trkpt lat="43.51773" lon="3.76754">
        <ele>85.518669</ele>
        <time>2021-01-03T10:39:24Z</time>
      </trkpt>
      <trkpt lat="43.51781" lon="3.76745">
        <ele>85.735474</ele>
        <time>2021-01-03T10:39:29Z</time>
      </trkpt>
      <trkpt lat="43.51789" lon="3.76735">
        <ele>85.848595</ele>
        <time>2021-01-03T10:39:34Z</time>
      </trkpt>
      <trkpt lat="43.51798" lon="3.76725">
        <ele>85.846985</ele>
        <time>2021-01-03T10:39:39Z</time>
      </trkpt>
      <trkpt lat="43.51806" lon="3.76709">
        <ele>85.752892</ele>
        <time>2021-01-03T10:39:44Z</time>
      </trkpt>
      <trkpt lat="43.51817" lon="3.76687">
        <ele>85.043541</ele>
        <time>2021-01-03T10:39:49Z</time>
      </trkpt>
      <trkpt lat="43.51833" lon="3.76682">
        <ele>83.845703</ele>
        <time>2021-01-03T10:39:54Z</time>
      </trkpt>
      <trkpt lat="43.51838" lon="3.76691">
        <ele>83.732079</ele>
        <time>2021-01-03T10:39:59Z</time>
      </trkpt>
      <trkpt lat="43.51839" lon="3.76699">
        <ele>84.476479</ele>
        <time>2021-01-03T10:40:04Z</time>
      </trkpt>
      <trkpt lat="43.5184" lon="3.76706">
        <ele>85.711182</ele>
        <time>2021-01-03T10:40:09Z</time>
      </trkpt>
      <trkpt lat="43.51843" lon="3.76713">
        <ele>86.632164</ele>
        <time>2021-01-03T10:40:14Z</time>
      </trkpt>
      <trkpt lat="43.51848" lon="3.76718">
        <ele>87.493324</ele>
        <time>2021-01-03T10:40:19Z</time>
      </trkpt>
      <trkpt lat="43.51855" lon="3.76723">
        <ele>88.159668</ele>
        <time>2021-01-03T10:40:24Z</time>
      </trkpt>
      <trkpt lat="43.51854" lon="3.76732">
        <ele>88.829674</ele>
        <time>2021-01-03T10:40:29Z</time>
      </trkpt>
      <trkpt lat="43.5185" lon="3.76738">
        <ele>89.779457</ele>
        <time>2021-01-03T10:40:34Z</time>
      </trkpt>
      <trkpt lat="43.51846" lon="3.76744">
        <ele>90.504311</ele>
        <time>2021-01-03T10:40:39Z</time>
      </trkpt>
      <trkpt lat="43.51844" lon="3.76751">
        <ele>91.17627</ele>
        <time>2021-01-03T10:40:44Z</time>
      </trkpt>
      <trkpt lat="43.51842" lon="3.76758">
        <ele>91.893639</ele>
        <time>2021-01-03T10:40:49Z</time>
      </trkpt>
      <trkpt lat="43.5184" lon="3.76766">
        <ele>92.70475</ele>
        <time>2021-01-03T10:40:54Z</time>
      </trkpt>
      <trkpt lat="43.51838" lon="3.76774">
        <ele>93.568367</ele>
        <time>2021-01-03T10:40:59Z</time>
      </trkpt>
      <trkpt lat="43.51835" lon="3.76782">
        <ele>94.326958</ele>
        <time>2021-01-03T10:41:04Z</time>
      </trkpt>
      <trkpt lat="43.51832" lon="3.76789">
        <ele>95.128326</ele>
        <time>2021-01-03T10:41:09Z</time>
      </trkpt>
      <trkpt lat="43.5183" lon="3.76795">
        <ele>96.03109</ele>
        <time>2021-01-03T10:41:14Z</time>
      </trkpt>
      <trkpt lat="43.5183" lon="3.76805">
        <ele>96.835846</ele>
        <time>2021-01-03T10:41:19Z</time>
      </trkpt>
      <trkpt lat="43.51829" lon="3.76815">
        <ele>97.838379</ele>
        <time>2021-01-03T10:41:24Z</time>
      </trkpt>
      <trkpt lat="43.51828" lon="3.76827">
        <ele>99.024529</ele>
        <time>2021-01-03T10:41:29Z</time>
      </trkpt>
      <trkpt lat="43.51824" lon="3.76839">
        <ele>100.299828</ele>
        <time>2021-01-03T10:41:34Z</time>
      </trkpt>
      <trkpt lat="43.51818" lon="3.76847">
        <ele>101.337242</ele>
        <time>2021-01-03T10:41:39Z</time>
      </trkpt>
      <trkpt lat="43.51815" lon="3.7686">
        <ele>101.600258</ele>
        <time>2021-01-03T10:41:44Z</time>
      </trkpt>
      <trkpt lat="43.51811" lon="3.76871">
        <ele>101.87484</ele>
        <time>2021-01-03T10:41:49Z</time>
      </trkpt>
      <trkpt lat="43.51807" lon="3.76886">
        <ele>101.943115</ele>
        <time>2021-01-03T10:41:54Z</time>
      </trkpt>
      <trkpt lat="43.51804" lon="3.76901">
        <ele>102.265869</ele>
        <time>2021-01-03T10:41:59Z</time>
      </trkpt>
      <trkpt lat="43.51801" lon="3.76915">
        <ele>102.792969</ele>
        <time>2021-01-03T10:42:04Z</time>
      </trkpt>
      <trkpt lat="43.51799" lon="3.76932">
        <ele>103.077797</ele>
        <time>2021-01-03T10:42:09Z</time>
      </trkpt>
      <trkpt lat="43.5181" lon="3.76942">
        <ele>103.736977</ele>
        <time>2021-01-03T10:42:14Z</time>
      </trkpt>
      <trkpt lat="43.51816" lon="3.76952">
        <ele>106.060219</ele>
        <time>2021-01-03T10:42:19Z</time>
      </trkpt>
      <trkpt lat="43.51817" lon="3.76964">
        <ele>108.04525</ele>
        <time>2021-01-03T10:43:09Z</time>
      </trkpt>
      <trkpt lat="43.51814" lon="3.76982">
        <ele>108.663795</ele>
        <time>2021-01-03T10:43:19Z</time>
      </trkpt>
      <trkpt lat="43.5181" lon="3.76999">
        <ele>108.748405</ele>
        <time>2021-01-03T10:43:24Z</time>
      </trkpt>
      <trkpt lat="43.51809" lon="3.77016">
        <ele>108.461815</ele>
        <time>2021-01-03T10:43:29Z</time>
      </trkpt>
      <trkpt lat="43.51807" lon="3.77033">
        <ele>108.467049</ele>
        <time>2021-01-03T10:43:34Z</time>
      </trkpt>
      <trkpt lat="43.51804" lon="3.7705">
        <ele>108.502388</ele>
        <time>2021-01-03T10:43:39Z</time>
      </trkpt>
      <trkpt lat="43.51803" lon="3.7707">
        <ele>108.415253</ele>
        <time>2021-01-03T10:43:44Z</time>
      </trkpt>
      <trkpt lat="43.51801" lon="3.77089">
        <ele>108.524284</ele>
        <time>2021-01-03T10:43:49Z</time>
      </trkpt>
      <trkpt lat="43.51793" lon="3.77105">
        <ele>108.518585</ele>
        <time>2021-01-03T10:43:54Z</time>
      </trkpt>
      <trkpt lat="43.51788" lon="3.77121">
        <ele>107.81736</ele>
        <time>2021-01-03T10:43:59Z</time>
      </trkpt>
      <trkpt lat="43.51796" lon="3.77132">
        <ele>107.613045</ele>
        <time>2021-01-03T10:44:04Z</time>
      </trkpt>
      <trkpt lat="43.51805" lon="3.77131">
        <ele>108.581429</ele>
        <time>2021-01-03T10:44:09Z</time>
      </trkpt>
      <trkpt lat="43.51814" lon="3.7713">
        <ele>109.92263</ele>
        <time>2021-01-03T10:44:14Z</time>
      </trkpt>
      <trkpt lat="43.51825" lon="3.77134">
        <ele>111.014526</ele>
        <time>2021-01-03T10:44:19Z</time>
      </trkpt>
      <trkpt lat="43.51831" lon="3.77143">
        <ele>112.314995</ele>
        <time>2021-01-03T10:44:24Z</time>
      </trkpt>
      <trkpt lat="43.51822" lon="3.77152">
        <ele>112.640587</ele>
        <time>2021-01-03T10:44:29Z</time>
      </trkpt>
      <trkpt lat="43.51817" lon="3.77168">
        <ele>112.598244</ele>
        <time>2021-01-03T10:44:34Z</time>
      </trkpt>
      <trkpt lat="43.51814" lon="3.77185">
        <ele>112.299622</ele>
        <time>2021-01-03T10:44:39Z</time>
      </trkpt>
      <trkpt lat="43.51812" lon="3.77205">
        <ele>111.769859</ele>
        <time>2021-01-03T10:44:44Z</time>
      </trkpt>
      <trkpt lat="43.51817" lon="3.77229">
        <ele>110.980652</ele>
        <time>2021-01-03T10:44:49Z</time>
      </trkpt>
      <trkpt lat="43.51829" lon="3.77249">
        <ele>110.884399</ele>
        <time>2021-01-03T10:44:54Z</time>
      </trkpt>
      <trkpt lat="43.51846" lon="3.77262">
        <ele>110.608864</ele>
        <time>2021-01-03T10:44:59Z</time>
      </trkpt>
      <trkpt lat="43.51862" lon="3.77271">
        <ele>110.100945</ele>
        <time>2021-01-03T10:45:04Z</time>
      </trkpt>
      <trkpt lat="43.51877" lon="3.77283">
        <ele>110.210693</ele>
        <time>2021-01-03T10:45:09Z</time>
      </trkpt>
      <trkpt lat="43.51892" lon="3.773">
        <ele>110.251465</ele>
        <time>2021-01-03T10:45:14Z</time>
      </trkpt>
      <trkpt lat="43.51911" lon="3.77319">
        <ele>110.180733</ele>
        <time>2021-01-03T10:45:19Z</time>
      </trkpt>
      <trkpt lat="43.51926" lon="3.77338">
        <ele>110.058754</ele>
        <time>2021-01-03T10:45:24Z</time>
      </trkpt>
      <trkpt lat="43.51941" lon="3.77354">
        <ele>109.989861</ele>
        <time>2021-01-03T10:45:29Z</time>
      </trkpt>
      <trkpt lat="43.51955" lon="3.77372">
        <ele>110.318535</ele>
        <time>2021-01-03T10:45:34Z</time>
      </trkpt>
      <trkpt lat="43.51967" lon="3.77391">
        <ele>110.807709</ele>
        <time>2021-01-03T10:45:39Z</time>
      </trkpt>
      <trkpt lat="43.5198" lon="3.77406">
        <ele>111.102631</ele>
        <time>2021-01-03T10:45:44Z</time>
      </trkpt>
      <trkpt lat="43.51991" lon="3.77416">
        <ele>111.717247</ele>
        <time>2021-01-03T10:45:49Z</time>
      </trkpt>
      <trkpt lat="43.52" lon="3.77423">
        <ele>112.530403</ele>
        <time>2021-01-03T10:45:54Z</time>
      </trkpt>
      <trkpt lat="43.52007" lon="3.77432">
        <ele>113.250511</ele>
        <time>2021-01-03T10:45:59Z</time>
      </trkpt>
      <trkpt lat="43.52011" lon="3.77445">
        <ele>113.75238</ele>
        <time>2021-01-03T10:46:04Z</time>
      </trkpt>
      <trkpt lat="43.52014" lon="3.7746">
        <ele>113.700905</ele>
        <time>2021-01-03T10:46:09Z</time>
      </trkpt>
      <trkpt lat="43.52021" lon="3.77472">
        <ele>113.469025</ele>
        <time>2021-01-03T10:46:14Z</time>
      </trkpt>
      <trkpt lat="43.52026" lon="3.77482">
        <ele>113.578285</ele>
        <time>2021-01-03T10:46:19Z</time>
      </trkpt>
      <trkpt lat="43.52031" lon="3.77493">
        <ele>113.702675</ele>
        <time>2021-01-03T10:46:24Z</time>
      </trkpt>
      <trkpt lat="43.52036" lon="3.775">
        <ele>113.714867</ele>
        <time>2021-01-03T10:46:29Z</time>
      </trkpt>
      <trkpt lat="43.52042" lon="3.77503">
        <ele>113.771019</ele>
        <time>2021-01-03T10:46:34Z</time>
      </trkpt>
      <trkpt lat="43.52051" lon="3.77504">
        <ele>114.189857</ele>
        <time>2021-01-03T10:46:39Z</time>
      </trkpt>
      <trkpt lat="43.52059" lon="3.77506">
        <ele>114.910736</ele>
        <time>2021-01-03T10:46:44Z</time>
      </trkpt>
      <trkpt lat="43.52067" lon="3.77513">
        <ele>115.516869</ele>
        <time>2021-01-03T10:46:49Z</time>
      </trkpt>
      <trkpt lat="43.5207" lon="3.77524">
        <ele>116.065575</ele>
        <time>2021-01-03T10:46:54Z</time>
      </trkpt>
      <trkpt lat="43.52073" lon="3.77536">
        <ele>116.49662</ele>
        <time>2021-01-03T10:46:59Z</time>
      </trkpt>
      <trkpt lat="43.52076" lon="3.77548">
        <ele>117.343773</ele>
        <time>2021-01-03T10:47:04Z</time>
      </trkpt>
      <trkpt lat="43.52076" lon="3.7756">
        <ele>118.322487</ele>
        <time>2021-01-03T10:47:09Z</time>
      </trkpt>
      <trkpt lat="43.52071" lon="3.77571">
        <ele>118.904747</ele>
        <time>2021-01-03T10:47:14Z</time>
      </trkpt>
      <trkpt lat="43.52066" lon="3.77583">
        <ele>118.905647</ele>
        <time>2021-01-03T10:47:19Z</time>
      </trkpt>
      <trkpt lat="43.52063" lon="3.77595">
        <ele>118.920738</ele>
        <time>2021-01-03T10:47:24Z</time>
      </trkpt>
      <trkpt lat="43.5206" lon="3.77607">
        <ele>119.050598</ele>
        <time>2021-01-03T10:47:29Z</time>
      </trkpt>
      <trkpt lat="43.52058" lon="3.7762">
        <ele>119.170525</ele>
        <time>2021-01-03T10:47:34Z</time>
      </trkpt>
      <trkpt lat="43.52058" lon="3.77631">
        <ele>119.578682</ele>
        <time>2021-01-03T10:47:39Z</time>
      </trkpt>
      <trkpt lat="43.52061" lon="3.77641">
        <ele>120.109978</ele>
        <time>2021-01-03T10:47:44Z</time>
      </trkpt>
      <trkpt lat="43.52064" lon="3.77651">
        <ele>120.958435</ele>
        <time>2021-01-03T10:47:49Z</time>
      </trkpt>
      <trkpt lat="43.52067" lon="3.77661">
        <ele>121.926414</ele>
        <time>2021-01-03T10:47:54Z</time>
      </trkpt>
      <trkpt lat="43.52071" lon="3.77669">
        <ele>122.949791</ele>
        <time>2021-01-03T10:47:59Z</time>
      </trkpt>
      <trkpt lat="43.52074" lon="3.77678">
        <ele>124.065437</ele>
        <time>2021-01-03T10:48:04Z</time>
      </trkpt>
      <trkpt lat="43.52078" lon="3.77687">
        <ele>125.222191</ele>
        <time>2021-01-03T10:48:09Z</time>
      </trkpt>
      <trkpt lat="43.52082" lon="3.77694">
        <ele>126.357399</ele>
        <time>2021-01-03T10:48:14Z</time>
      </trkpt>
      <trkpt lat="43.52086" lon="3.77702">
        <ele>127.508034</ele>
        <time>2021-01-03T10:48:19Z</time>
      </trkpt>
      <trkpt lat="43.52088" lon="3.77713">
        <ele>128.619949</ele>
        <time>2021-01-03T10:48:24Z</time>
      </trkpt>
      <trkpt lat="43.52091" lon="3.77723">
        <ele>129.492111</ele>
        <time>2021-01-03T10:48:29Z</time>
      </trkpt>
      <trkpt lat="43.52095" lon="3.77733">
        <ele>130.815842</ele>
        <time>2021-01-03T10:48:34Z</time>
      </trkpt>
      <trkpt lat="43.52101" lon="3.77742">
        <ele>131.924072</ele>
        <time>2021-01-03T10:48:39Z</time>
      </trkpt>
      <trkpt lat="43.52107" lon="3.77748">
        <ele>132.734924</ele>
        <time>2021-01-03T10:48:44Z</time>
      </trkpt>
      <trkpt lat="43.52114" lon="3.77755">
        <ele>133.419968</ele>
        <time>2021-01-03T10:48:49Z</time>
      </trkpt>
      <trkpt lat="43.5212" lon="3.77762">
        <ele>134.170273</ele>
        <time>2021-01-03T10:48:54Z</time>
      </trkpt>
      <trkpt lat="43.52124" lon="3.77771">
        <ele>134.94577</ele>
        <time>2021-01-03T10:48:59Z</time>
      </trkpt>
      <trkpt lat="43.52128" lon="3.77781">
        <ele>135.689804</ele>
        <time>2021-01-03T10:49:04Z</time>
      </trkpt>
      <trkpt lat="43.52133" lon="3.7779">
        <ele>136.509369</ele>
        <time>2021-01-03T10:49:09Z</time>
      </trkpt>
      <trkpt lat="43.52138" lon="3.77799">
        <ele>137.442932</ele>
        <time>2021-01-03T10:49:14Z</time>
      </trkpt>
      <trkpt lat="43.52144" lon="3.77806">
        <ele>137.960114</ele>
        <time>2021-01-03T10:49:19Z</time>
      </trkpt>
      <trkpt lat="43.52152" lon="3.77808">
        <ele>138.323502</ele>
        <time>2021-01-03T10:49:24Z</time>
      </trkpt>
      <trkpt lat="43.52159" lon="3.77804">
        <ele>138.869736</ele>
        <time>2021-01-03T10:49:29Z</time>
      </trkpt>
      <trkpt lat="43.52167" lon="3.77801">
        <ele>139.658508</ele>
        <time>2021-01-03T10:49:34Z</time>
      </trkpt>
      <trkpt lat="43.52176" lon="3.77801">
        <ele>140.755951</ele>
        <time>2021-01-03T10:49:39Z</time>
      </trkpt>
      <trkpt lat="43.52184" lon="3.77805">
        <ele>141.348862</ele>
        <time>2021-01-03T10:49:44Z</time>
      </trkpt>
      <trkpt lat="43.5219" lon="3.77811">
        <ele>141.806198</ele>
        <time>2021-01-03T10:49:49Z</time>
      </trkpt>
      <trkpt lat="43.52196" lon="3.77818">
        <ele>142.191025</ele>
        <time>2021-01-03T10:49:54Z</time>
      </trkpt>
      <trkpt lat="43.52203" lon="3.77823">
        <ele>142.481918</ele>
        <time>2021-01-03T10:49:59Z</time>
      </trkpt>
      <trkpt lat="43.52209" lon="3.77828">
        <ele>142.940994</ele>
        <time>2021-01-03T10:50:04Z</time>
      </trkpt>
      <trkpt lat="43.52216" lon="3.77832">
        <ele>143.458374</ele>
        <time>2021-01-03T10:50:09Z</time>
      </trkpt>
      <trkpt lat="43.52222" lon="3.77834">
        <ele>143.993576</ele>
        <time>2021-01-03T10:50:14Z</time>
      </trkpt>
      <trkpt lat="43.52229" lon="3.77834">
        <ele>144.562225</ele>
        <time>2021-01-03T10:50:19Z</time>
      </trkpt>
      <trkpt lat="43.52237" lon="3.77833">
        <ele>145.15416</ele>
        <time>2021-01-03T10:50:24Z</time>
      </trkpt>
      <trkpt lat="43.52245" lon="3.77834">
        <ele>145.740662</ele>
        <time>2021-01-03T10:50:29Z</time>
      </trkpt>
      <trkpt lat="43.52252" lon="3.77837">
        <ele>146.246643</ele>
        <time>2021-01-03T10:50:34Z</time>
      </trkpt>
      <trkpt lat="43.52257" lon="3.77842">
        <ele>146.679153</ele>
        <time>2021-01-03T10:50:39Z</time>
      </trkpt>
      <trkpt lat="43.52262" lon="3.7785">
        <ele>147.330872</ele>
        <time>2021-01-03T10:50:44Z</time>
      </trkpt>
      <trkpt lat="43.52265" lon="3.77856">
        <ele>147.965652</ele>
        <time>2021-01-03T10:50:49Z</time>
      </trkpt>
      <trkpt lat="43.52266" lon="3.77865">
        <ele>148.441193</ele>
        <time>2021-01-03T10:50:54Z</time>
      </trkpt>
      <trkpt lat="43.52267" lon="3.77872">
        <ele>148.649704</ele>
        <time>2021-01-03T10:50:59Z</time>
      </trkpt>
      <trkpt lat="43.52274" lon="3.77889">
        <ele>148.5811</ele>
        <time>2021-01-03T10:55:09Z</time>
      </trkpt>
      <trkpt lat="43.52283" lon="3.77898">
        <ele>148.983109</ele>
        <time>2021-01-03T10:55:19Z</time>
      </trkpt>
      <trkpt lat="43.52293" lon="3.77905">
        <ele>149.946198</ele>
        <time>2021-01-03T10:55:24Z</time>
      </trkpt>
      <trkpt lat="43.52303" lon="3.77915">
        <ele>151.252121</ele>
        <time>2021-01-03T10:55:29Z</time>
      </trkpt>
      <trkpt lat="43.5231" lon="3.77925">
        <ele>152.584244</ele>
        <time>2021-01-03T10:55:34Z</time>
      </trkpt>
      <trkpt lat="43.52319" lon="3.77935">
        <ele>153.682175</ele>
        <time>2021-01-03T10:55:39Z</time>
      </trkpt>
      <trkpt lat="43.52327" lon="3.77945">
        <ele>154.458862</ele>
        <time>2021-01-03T10:55:44Z</time>
      </trkpt>
      <trkpt lat="43.52335" lon="3.77956">
        <ele>154.827209</ele>
        <time>2021-01-03T10:55:49Z</time>
      </trkpt>
      <trkpt lat="43.52342" lon="3.77968">
        <ele>155.129135</ele>
        <time>2021-01-03T10:55:54Z</time>
      </trkpt>
      <trkpt lat="43.52348" lon="3.7798">
        <ele>155.433578</ele>
        <time>2021-01-03T10:55:59Z</time>
      </trkpt>
      <trkpt lat="43.52356" lon="3.77988">
        <ele>155.732529</ele>
        <time>2021-01-03T10:56:04Z</time>
      </trkpt>
      <trkpt lat="43.52366" lon="3.77991">
        <ele>156.695206</ele>
        <time>2021-01-03T10:56:09Z</time>
      </trkpt>
      <trkpt lat="43.52375" lon="3.77994">
        <ele>158.120743</ele>
        <time>2021-01-03T10:56:14Z</time>
      </trkpt>
      <trkpt lat="43.52383" lon="3.78">
        <ele>159.302246</ele>
        <time>2021-01-03T10:56:19Z</time>
      </trkpt>
      <trkpt lat="43.52391" lon="3.7801">
        <ele>159.933517</ele>
        <time>2021-01-03T10:56:24Z</time>
      </trkpt>
      <trkpt lat="43.52398" lon="3.78021">
        <ele>160.319656</ele>
        <time>2021-01-03T10:56:29Z</time>
      </trkpt>
      <trkpt lat="43.52403" lon="3.78035">
        <ele>160.630814</ele>
        <time>2021-01-03T10:56:34Z</time>
      </trkpt>
      <trkpt lat="43.52409" lon="3.7805">
        <ele>160.799149</ele>
        <time>2021-01-03T10:56:39Z</time>
      </trkpt>
      <trkpt lat="43.52414" lon="3.78064">
        <ele>161.263824</ele>
        <time>2021-01-03T10:56:44Z</time>
      </trkpt>
      <trkpt lat="43.52414" lon="3.78082">
        <ele>161.806381</ele>
        <time>2021-01-03T10:56:49Z</time>
      </trkpt>
      <trkpt lat="43.52413" lon="3.78103">
        <ele>161.951096</ele>
        <time>2021-01-03T10:56:54Z</time>
      </trkpt>
      <trkpt lat="43.5241" lon="3.78123">
        <ele>161.902939</ele>
        <time>2021-01-03T10:56:59Z</time>
      </trkpt>
      <trkpt lat="43.52406" lon="3.78147">
        <ele>161.562363</ele>
        <time>2021-01-03T10:57:04Z</time>
      </trkpt>
      <trkpt lat="43.52404" lon="3.78171">
        <ele>160.403305</ele>
        <time>2021-01-03T10:57:09Z</time>
      </trkpt>
      <trkpt lat="43.52407" lon="3.78191">
        <ele>159.195068</ele>
        <time>2021-01-03T10:57:14Z</time>
      </trkpt>
      <trkpt lat="43.52419" lon="3.782">
        <ele>159.315414</ele>
        <time>2021-01-03T10:57:19Z</time>
      </trkpt>
      <trkpt lat="43.52428" lon="3.78207">
        <ele>161.569687</ele>
        <time>2021-01-03T10:57:24Z</time>
      </trkpt>
      <trkpt lat="43.52436" lon="3.78214">
        <ele>163.686783</ele>
        <time>2021-01-03T10:57:29Z</time>
      </trkpt>
      <trkpt lat="43.52445" lon="3.7822">
        <ele>165.434616</ele>
        <time>2021-01-03T10:57:34Z</time>
      </trkpt>
      <trkpt lat="43.52454" lon="3.78228">
        <ele>167.033585</ele>
        <time>2021-01-03T10:57:39Z</time>
      </trkpt>
      <trkpt lat="43.52465" lon="3.78234">
        <ele>168.44516</ele>
        <time>2021-01-03T10:57:44Z</time>
      </trkpt>
      <trkpt lat="43.52472" lon="3.7823">
        <ele>170.379578</ele>
        <time>2021-01-03T10:57:49Z</time>
      </trkpt>
      <trkpt lat="43.52479" lon="3.78225">
        <ele>172.273911</ele>
        <time>2021-01-03T10:57:54Z</time>
      </trkpt>
      <trkpt lat="43.52487" lon="3.78223">
        <ele>173.970642</ele>
        <time>2021-01-03T10:57:59Z</time>
      </trkpt>
      <trkpt lat="43.52495" lon="3.78221">
        <ele>175.425598</ele>
        <time>2021-01-03T10:58:04Z</time>
      </trkpt>
      <trkpt lat="43.52504" lon="3.78218">
        <ele>177.556702</ele>
        <time>2021-01-03T10:58:09Z</time>
      </trkpt>
      <trkpt lat="43.52512" lon="3.78215">
        <ele>179.426941</ele>
        <time>2021-01-03T10:58:14Z</time>
      </trkpt>
      <trkpt lat="43.52521" lon="3.78214">
        <ele>180.874863</ele>
        <time>2021-01-03T10:58:19Z</time>
      </trkpt>
      <trkpt lat="43.5253" lon="3.78218">
        <ele>181.603622</ele>
        <time>2021-01-03T10:58:24Z</time>
      </trkpt>
      <trkpt lat="43.52541" lon="3.78225">
        <ele>182.250244</ele>
        <time>2021-01-03T10:58:29Z</time>
      </trkpt>
      <trkpt lat="43.52553" lon="3.78229">
        <ele>182.921921</ele>
        <time>2021-01-03T10:58:34Z</time>
      </trkpt>
      <trkpt lat="43.52565" lon="3.78238">
        <ele>183.899231</ele>
        <time>2021-01-03T10:58:39Z</time>
      </trkpt>
      <trkpt lat="43.52578" lon="3.78248">
        <ele>184.833572</ele>
        <time>2021-01-03T10:58:44Z</time>
      </trkpt>
      <trkpt lat="43.52593" lon="3.78254">
        <ele>185.848312</ele>
        <time>2021-01-03T10:58:49Z</time>
      </trkpt>
      <trkpt lat="43.52605" lon="3.78263">
        <ele>186.350327</ele>
        <time>2021-01-03T10:58:54Z</time>
      </trkpt>
      <trkpt lat="43.52619" lon="3.78271">
        <ele>186.718552</ele>
        <time>2021-01-03T10:58:59Z</time>
      </trkpt>
      <trkpt lat="43.52625" lon="3.78291">
        <ele>186.98912</ele>
        <time>2021-01-03T10:59:04Z</time>
      </trkpt>
      <trkpt lat="43.52631" lon="3.78314">
        <ele>186.613419</ele>
        <time>2021-01-03T10:59:09Z</time>
      </trkpt>
      <trkpt lat="43.52643" lon="3.78329">
        <ele>185.839523</ele>
        <time>2021-01-03T10:59:14Z</time>
      </trkpt>
      <trkpt lat="43.52654" lon="3.78348">
        <ele>185.456558</ele>
        <time>2021-01-03T10:59:19Z</time>
      </trkpt>
      <trkpt lat="43.52664" lon="3.78369">
        <ele>184.712219</ele>
        <time>2021-01-03T10:59:24Z</time>
      </trkpt>
      <trkpt lat="43.52672" lon="3.78391">
        <ele>183.342941</ele>
        <time>2021-01-03T10:59:29Z</time>
      </trkpt>
      <trkpt lat="43.52681" lon="3.7841">
        <ele>181.948547</ele>
        <time>2021-01-03T10:59:34Z</time>
      </trkpt>
      <trkpt lat="43.52694" lon="3.78424">
        <ele>181.154785</ele>
        <time>2021-01-03T10:59:39Z</time>
      </trkpt>
      <trkpt lat="43.52707" lon="3.78435">
        <ele>180.966202</ele>
        <time>2021-01-03T10:59:44Z</time>
      </trkpt>
      <trkpt lat="43.52723" lon="3.78431">
        <ele>181.232101</ele>
        <time>2021-01-03T10:59:49Z</time>
      </trkpt>
      <trkpt lat="43.52737" lon="3.78441">
        <ele>182.486572</ele>
        <time>2021-01-03T10:59:54Z</time>
      </trkpt>
      <trkpt lat="43.5275" lon="3.78455">
        <ele>182.884872</ele>
        <time>2021-01-03T10:59:59Z</time>
      </trkpt>
      <trkpt lat="43.52764" lon="3.78467">
        <ele>182.949539</ele>
        <time>2021-01-03T11:00:04Z</time>
      </trkpt>
      <trkpt lat="43.52779" lon="3.78475">
        <ele>183.524902</ele>
        <time>2021-01-03T11:00:09Z</time>
      </trkpt>
      <trkpt lat="43.52796" lon="3.78483">
        <ele>184.376877</ele>
        <time>2021-01-03T11:00:14Z</time>
      </trkpt>
      <trkpt lat="43.52811" lon="3.78489">
        <ele>184.953369</ele>
        <time>2021-01-03T11:00:19Z</time>
      </trkpt>
      <trkpt lat="43.52828" lon="3.78497">
        <ele>184.952682</ele>
        <time>2021-01-03T11:00:24Z</time>
      </trkpt>
      <trkpt lat="43.52843" lon="3.78508">
        <ele>184.93396</ele>
        <time>2021-01-03T11:00:29Z</time>
      </trkpt>
      <trkpt lat="43.52855" lon="3.78527">
        <ele>184.897278</ele>
        <time>2021-01-03T11:00:34Z</time>
      </trkpt>
      <trkpt lat="43.52868" lon="3.7854">
        <ele>184.592896</ele>
        <time>2021-01-03T11:00:39Z</time>
      </trkpt>
      <trkpt lat="43.52881" lon="3.78552">
        <ele>183.991013</ele>
        <time>2021-01-03T11:00:44Z</time>
      </trkpt>
      <trkpt lat="43.52892" lon="3.78568">
        <ele>183.413559</ele>
        <time>2021-01-03T11:00:49Z</time>
      </trkpt>
      <trkpt lat="43.52901" lon="3.78585">
        <ele>182.703506</ele>
        <time>2021-01-03T11:00:54Z</time>
      </trkpt>
      <trkpt lat="43.52915" lon="3.78596">
        <ele>182.204712</ele>
        <time>2021-01-03T11:00:59Z</time>
      </trkpt>
      <trkpt lat="43.52927" lon="3.78609">
        <ele>182.140457</ele>
        <time>2021-01-03T11:01:04Z</time>
      </trkpt>
      <trkpt lat="43.52938" lon="3.78628">
        <ele>182.282654</ele>
        <time>2021-01-03T11:01:09Z</time>
      </trkpt>
      <trkpt lat="43.52949" lon="3.7865">
        <ele>181.912399</ele>
        <time>2021-01-03T11:01:14Z</time>
      </trkpt>
      <trkpt lat="43.5296" lon="3.78672">
        <ele>181.067215</ele>
        <time>2021-01-03T11:01:19Z</time>
      </trkpt>
      <trkpt lat="43.52969" lon="3.78697">
        <ele>180.455872</ele>
        <time>2021-01-03T11:01:24Z</time>
      </trkpt>
      <trkpt lat="43.52974" lon="3.78725">
        <ele>180.125473</ele>
        <time>2021-01-03T11:01:29Z</time>
      </trkpt>
      <trkpt lat="43.52978" lon="3.78752">
        <ele>179.64032</ele>
        <time>2021-01-03T11:01:34Z</time>
      </trkpt>
      <trkpt lat="43.52981" lon="3.78774">
        <ele>179.410507</ele>
        <time>2021-01-03T11:01:39Z</time>
      </trkpt>
      <trkpt lat="43.52984" lon="3.78796">
        <ele>180.24559</ele>
        <time>2021-01-03T11:01:44Z</time>
      </trkpt>
      <trkpt lat="43.52989" lon="3.78818">
        <ele>181.772949</ele>
        <time>2021-01-03T11:01:49Z</time>
      </trkpt>
      <trkpt lat="43.5299" lon="3.7884">
        <ele>183.497604</ele>
        <time>2021-01-03T11:01:54Z</time>
      </trkpt>
      <trkpt lat="43.5299" lon="3.78861">
        <ele>184.549454</ele>
        <time>2021-01-03T11:01:59Z</time>
      </trkpt>
      <trkpt lat="43.5299" lon="3.78881">
        <ele>185.072067</ele>
        <time>2021-01-03T11:02:04Z</time>
      </trkpt>
      <trkpt lat="43.53001" lon="3.789">
        <ele>185.70256</ele>
        <time>2021-01-03T11:02:09Z</time>
      </trkpt>
      <trkpt lat="43.53014" lon="3.7892">
        <ele>186.623032</ele>
        <time>2021-01-03T11:02:14Z</time>
      </trkpt>
      <trkpt lat="43.53033" lon="3.7893">
        <ele>187.2845</ele>
        <time>2021-01-03T11:02:19Z</time>
      </trkpt>
      <trkpt lat="43.53055" lon="3.78932">
        <ele>188.47493</ele>
        <time>2021-01-03T11:02:24Z</time>
      </trkpt>
      <trkpt lat="43.53076" lon="3.78937">
        <ele>189.239456</ele>
        <time>2021-01-03T11:02:29Z</time>
      </trkpt>
      <trkpt lat="43.53093" lon="3.78949">
        <ele>188.69072</ele>
        <time>2021-01-03T11:02:34Z</time>
      </trkpt>
      <trkpt lat="43.53111" lon="3.78966">
        <ele>187.389053</ele>
        <time>2021-01-03T11:02:39Z</time>
      </trkpt>
      <trkpt lat="43.53131" lon="3.78983">
        <ele>186.225464</ele>
        <time>2021-01-03T11:02:44Z</time>
      </trkpt>
      <trkpt lat="43.53153" lon="3.79005">
        <ele>184.710449</ele>
        <time>2021-01-03T11:02:49Z</time>
      </trkpt>
      <trkpt lat="43.53175" lon="3.79025">
        <ele>183.137329</ele>
        <time>2021-01-03T11:02:54Z</time>
      </trkpt>
      <trkpt lat="43.53198" lon="3.79037">
        <ele>182.239853</ele>
        <time>2021-01-03T11:02:59Z</time>
      </trkpt>
      <trkpt lat="43.53219" lon="3.79049">
        <ele>181.208786</ele>
        <time>2021-01-03T11:03:04Z</time>
      </trkpt>
      <trkpt lat="43.53239" lon="3.79064">
        <ele>181.095322</ele>
        <time>2021-01-03T11:03:09Z</time>
      </trkpt>
      <trkpt lat="43.53262" lon="3.79078">
        <ele>181.305862</ele>
        <time>2021-01-03T11:03:14Z</time>
      </trkpt>
      <trkpt lat="43.53285" lon="3.79104">
        <ele>181.49353</ele>
        <time>2021-01-03T11:03:19Z</time>
      </trkpt>
      <trkpt lat="43.53301" lon="3.79137">
        <ele>181.205826</ele>
        <time>2021-01-03T11:03:24Z</time>
      </trkpt>
      <trkpt lat="43.53314" lon="3.79162">
        <ele>179.912918</ele>
        <time>2021-01-03T11:03:29Z</time>
      </trkpt>
      <trkpt lat="43.53326" lon="3.79174">
        <ele>178.755173</ele>
        <time>2021-01-03T11:03:34Z</time>
      </trkpt>
      <trkpt lat="43.53333" lon="3.79179">
        <ele>178.020935</ele>
        <time>2021-01-03T11:03:39Z</time>
      </trkpt>
      <trkpt lat="43.53338" lon="3.79185">
        <ele>177.604568</ele>
        <time>2021-01-03T11:03:44Z</time>
      </trkpt>
      <trkpt lat="43.5335" lon="3.79201">
        <ele>176.964172</ele>
        <time>2021-01-03T11:03:49Z</time>
      </trkpt>
      <trkpt lat="43.5336" lon="3.79226">
        <ele>175.760086</ele>
        <time>2021-01-03T11:03:54Z</time>
      </trkpt>
      <trkpt lat="43.53368" lon="3.7925">
        <ele>174.634888</ele>
        <time>2021-01-03T11:03:59Z</time>
      </trkpt>
      <trkpt lat="43.53375" lon="3.79272">
        <ele>173.618973</ele>
        <time>2021-01-03T11:04:04Z</time>
      </trkpt>
      <trkpt lat="43.5338" lon="3.79295">
        <ele>172.657211</ele>
        <time>2021-01-03T11:04:09Z</time>
      </trkpt>
      <trkpt lat="43.53388" lon="3.79318">
        <ele>171.868301</ele>
        <time>2021-01-03T11:04:14Z</time>
      </trkpt>
      <trkpt lat="43.53401" lon="3.79336">
        <ele>170.84169</ele>
        <time>2021-01-03T11:04:19Z</time>
      </trkpt>
      <trkpt lat="43.53421" lon="3.7935">
        <ele>169.827316</ele>
        <time>2021-01-03T11:04:24Z</time>
      </trkpt>
      <trkpt lat="43.53435" lon="3.79375">
        <ele>168.094223</ele>
        <time>2021-01-03T11:04:29Z</time>
      </trkpt>
      <trkpt lat="43.53456" lon="3.79393">
        <ele>166.464661</ele>
        <time>2021-01-03T11:04:34Z</time>
      </trkpt>
      <trkpt lat="43.53478" lon="3.79402">
        <ele>164.790451</ele>
        <time>2021-01-03T11:04:39Z</time>
      </trkpt>
      <trkpt lat="43.53494" lon="3.79419">
        <ele>163.175156</ele>
        <time>2021-01-03T11:04:44Z</time>
      </trkpt>
      <trkpt lat="43.53508" lon="3.79435">
        <ele>161.3871</ele>
        <time>2021-01-03T11:04:49Z</time>
      </trkpt>
      <trkpt lat="43.53523" lon="3.79446">
        <ele>160.400085</ele>
        <time>2021-01-03T11:04:54Z</time>
      </trkpt>
      <trkpt lat="43.53534" lon="3.79462">
        <ele>159.815353</ele>
        <time>2021-01-03T11:04:59Z</time>
      </trkpt>
      <trkpt lat="43.53545" lon="3.79483">
        <ele>159.747543</ele>
        <time>2021-01-03T11:05:04Z</time>
      </trkpt>
      <trkpt lat="43.53563" lon="3.79494">
        <ele>160.028564</ele>
        <time>2021-01-03T11:05:09Z</time>
      </trkpt>
      <trkpt lat="43.53581" lon="3.79502">
        <ele>160.125931</ele>
        <time>2021-01-03T11:05:14Z</time>
      </trkpt>
      <trkpt lat="43.53598" lon="3.79515">
        <ele>160.289886</ele>
        <time>2021-01-03T11:05:19Z</time>
      </trkpt>
      <trkpt lat="43.53614" lon="3.79527">
        <ele>160.961761</ele>
        <time>2021-01-03T11:05:24Z</time>
      </trkpt>
      <trkpt lat="43.53629" lon="3.79536">
        <ele>161.026169</ele>
        <time>2021-01-03T11:05:29Z</time>
      </trkpt>
      <trkpt lat="43.53643" lon="3.7954">
        <ele>159.792282</ele>
        <time>2021-01-03T11:05:34Z</time>
      </trkpt>
      <trkpt lat="43.53656" lon="3.79546">
        <ele>158.251236</ele>
        <time>2021-01-03T11:05:39Z</time>
      </trkpt>
      <trkpt lat="43.53674" lon="3.7955">
        <ele>156.913437</ele>
        <time>2021-01-03T11:05:44Z</time>
      </trkpt>
      <trkpt lat="43.53689" lon="3.79563">
        <ele>155.114792</ele>
        <time>2021-01-03T11:05:49Z</time>
      </trkpt>
      <trkpt lat="43.53704" lon="3.79575">
        <ele>153.337448</ele>
        <time>2021-01-03T11:05:54Z</time>
      </trkpt>
      <trkpt lat="43.5372" lon="3.79583">
        <ele>151.628555</ele>
        <time>2021-01-03T11:05:59Z</time>
      </trkpt>
      <trkpt lat="43.53738" lon="3.79584">
        <ele>149.23822</ele>
        <time>2021-01-03T11:06:04Z</time>
      </trkpt>
      <trkpt lat="43.53756" lon="3.79586">
        <ele>145.465179</ele>
        <time>2021-01-03T11:06:09Z</time>
      </trkpt>
      <trkpt lat="43.53776" lon="3.79592">
        <ele>142.209091</ele>
        <time>2021-01-03T11:06:14Z</time>
      </trkpt>
      <trkpt lat="43.53795" lon="3.79599">
        <ele>139.063538</ele>
        <time>2021-01-03T11:06:19Z</time>
      </trkpt>
      <trkpt lat="43.53814" lon="3.79606">
        <ele>136.13414</ele>
        <time>2021-01-03T11:06:24Z</time>
      </trkpt>
      <trkpt lat="43.53833" lon="3.79616">
        <ele>133.874725</ele>
        <time>2021-01-03T11:06:29Z</time>
      </trkpt>
      <trkpt lat="43.53851" lon="3.79626">
        <ele>130.76236</ele>
        <time>2021-01-03T11:06:34Z</time>
      </trkpt>
      <trkpt lat="43.53863" lon="3.79642">
        <ele>128.324265</ele>
        <time>2021-01-03T11:06:39Z</time>
      </trkpt>
      <trkpt lat="43.53875" lon="3.79654">
        <ele>127.087433</ele>
        <time>2021-01-03T11:06:44Z</time>
      </trkpt>
      <trkpt lat="43.53886" lon="3.79676">
        <ele>125.850807</ele>
        <time>2021-01-03T11:06:49Z</time>
      </trkpt>
      <trkpt lat="43.53905" lon="3.79689">
        <ele>124.750633</ele>
        <time>2021-01-03T11:06:54Z</time>
      </trkpt>
      <trkpt lat="43.53927" lon="3.79676">
        <ele>123.511681</ele>
        <time>2021-01-03T11:06:59Z</time>
      </trkpt>
      <trkpt lat="43.53948" lon="3.79656">
        <ele>121.809753</ele>
        <time>2021-01-03T11:07:04Z</time>
      </trkpt>
      <trkpt lat="43.53972" lon="3.79641">
        <ele>119.69706</ele>
        <time>2021-01-03T11:07:09Z</time>
      </trkpt>
      <trkpt lat="43.53999" lon="3.79639">
        <ele>117.224823</ele>
        <time>2021-01-03T11:07:14Z</time>
      </trkpt>
      <trkpt lat="43.54024" lon="3.79649">
        <ele>115.014977</ele>
        <time>2021-01-03T11:07:19Z</time>
      </trkpt>
      <trkpt lat="43.54048" lon="3.79664">
        <ele>114.180443</ele>
        <time>2021-01-03T11:07:24Z</time>
      </trkpt>
      <trkpt lat="43.54075" lon="3.79667">
        <ele>114.091927</ele>
        <time>2021-01-03T11:07:29Z</time>
      </trkpt>
      <trkpt lat="43.54095" lon="3.79645">
        <ele>113.662056</ele>
        <time>2021-01-03T11:07:34Z</time>
      </trkpt>
      <trkpt lat="43.5411" lon="3.79613">
        <ele>112.738014</ele>
        <time>2021-01-03T11:07:39Z</time>
      </trkpt>
      <trkpt lat="43.54127" lon="3.79584">
        <ele>111.673271</ele>
        <time>2021-01-03T11:07:44Z</time>
      </trkpt>
      <trkpt lat="43.54142" lon="3.79557">
        <ele>111.164223</ele>
        <time>2021-01-03T11:07:49Z</time>
      </trkpt>
      <trkpt lat="43.54162" lon="3.79536">
        <ele>109.901527</ele>
        <time>2021-01-03T11:07:54Z</time>
      </trkpt>
      <trkpt lat="43.54184" lon="3.7952">
        <ele>108.012306</ele>
        <time>2021-01-03T11:07:59Z</time>
      </trkpt>
      <trkpt lat="43.54208" lon="3.79516">
        <ele>105.137703</ele>
        <time>2021-01-03T11:08:04Z</time>
      </trkpt>
      <trkpt lat="43.54235" lon="3.79522">
        <ele>102.815865</ele>
        <time>2021-01-03T11:08:09Z</time>
      </trkpt>
      <trkpt lat="43.54259" lon="3.79525">
        <ele>100.725739</ele>
        <time>2021-01-03T11:08:14Z</time>
      </trkpt>
      <trkpt lat="43.54284" lon="3.79517">
        <ele>98.018837</ele>
        <time>2021-01-03T11:08:19Z</time>
      </trkpt>
      <trkpt lat="43.54302" lon="3.79503">
        <ele>95.319893</ele>
        <time>2021-01-03T11:08:24Z</time>
      </trkpt>
      <trkpt lat="43.54311" lon="3.79513">
        <ele>92.958992</ele>
        <time>2021-01-03T11:08:29Z</time>
      </trkpt>
      <trkpt lat="43.54308" lon="3.79536">
        <ele>91.826912</ele>
        <time>2021-01-03T11:08:34Z</time>
      </trkpt>
      <trkpt lat="43.543" lon="3.79566">
        <ele>91.703339</ele>
        <time>2021-01-03T11:08:39Z</time>
      </trkpt>
      <trkpt lat="43.54284" lon="3.79595">
        <ele>92.242027</ele>
        <time>2021-01-03T11:08:44Z</time>
      </trkpt>
      <trkpt lat="43.54261" lon="3.7961">
        <ele>93.077087</ele>
        <time>2021-01-03T11:08:49Z</time>
      </trkpt>
      <trkpt lat="43.54264" lon="3.79629">
        <ele>94.497124</ele>
        <time>2021-01-03T11:08:54Z</time>
      </trkpt>
      <trkpt lat="43.54286" lon="3.79622">
        <ele>93.623207</ele>
        <time>2021-01-03T11:08:59Z</time>
      </trkpt>
      <trkpt lat="43.54307" lon="3.79614">
        <ele>90.241722</ele>
        <time>2021-01-03T11:09:04Z</time>
      </trkpt>
      <trkpt lat="43.54328" lon="3.79604">
        <ele>87.584633</ele>
        <time>2021-01-03T11:09:09Z</time>
      </trkpt>
      <trkpt lat="43.54351" lon="3.79595">
        <ele>85.898438</ele>
        <time>2021-01-03T11:09:14Z</time>
      </trkpt>
      <trkpt lat="43.54377" lon="3.79587">
        <ele>83.281982</ele>
        <time>2021-01-03T11:09:19Z</time>
      </trkpt>
      <trkpt lat="43.54402" lon="3.79582">
        <ele>80.486572</ele>
        <time>2021-01-03T11:09:24Z</time>
      </trkpt>
      <trkpt lat="43.54421" lon="3.79583">
        <ele>77.593262</ele>
        <time>2021-01-03T11:09:29Z</time>
      </trkpt>
      <trkpt lat="43.54443" lon="3.79597">
        <ele>75.002113</ele>
        <time>2021-01-03T11:09:34Z</time>
      </trkpt>
      <trkpt lat="43.54467" lon="3.79615">
        <ele>71.282166</ele>
        <time>2021-01-03T11:09:39Z</time>
      </trkpt>
      <trkpt lat="43.54479" lon="3.79626">
        <ele>68.156982</ele>
        <time>2021-01-03T11:09:44Z</time>
      </trkpt>
      <trkpt lat="43.54496" lon="3.7965">
        <ele>65.481987</ele>
        <time>2021-01-03T11:09:49Z</time>
      </trkpt>
      <trkpt lat="43.54516" lon="3.79669">
        <ele>62.377625</ele>
        <time>2021-01-03T11:09:54Z</time>
      </trkpt>
      <trkpt lat="43.54543" lon="3.79678">
        <ele>59.816319</ele>
        <time>2021-01-03T11:09:59Z</time>
      </trkpt>
      <trkpt lat="43.54573" lon="3.79686">
        <ele>57.934345</ele>
        <time>2021-01-03T11:10:04Z</time>
      </trkpt>
      <trkpt lat="43.54603" lon="3.79694">
        <ele>56.350178</ele>
        <time>2021-01-03T11:10:09Z</time>
      </trkpt>
      <trkpt lat="43.54631" lon="3.79702">
        <ele>55.232395</ele>
        <time>2021-01-03T11:10:14Z</time>
      </trkpt>
      <trkpt lat="43.54663" lon="3.79711">
        <ele>54.40271</ele>
        <time>2021-01-03T11:10:19Z</time>
      </trkpt>
      <trkpt lat="43.54696" lon="3.7972">
        <ele>54.041889</ele>
        <time>2021-01-03T11:10:24Z</time>
      </trkpt>
      <trkpt lat="43.54728" lon="3.79729">
        <ele>53.983704</ele>
        <time>2021-01-03T11:10:29Z</time>
      </trkpt>
      <trkpt lat="43.54758" lon="3.79748">
        <ele>53.456055</ele>
        <time>2021-01-03T11:10:34Z</time>
      </trkpt>
      <trkpt lat="43.54786" lon="3.79787">
        <ele>52.579914</ele>
        <time>2021-01-03T11:10:39Z</time>
      </trkpt>
      <trkpt lat="43.54814" lon="3.79836">
        <ele>51.866535</ele>
        <time>2021-01-03T11:10:44Z</time>
      </trkpt>
      <trkpt lat="43.54839" lon="3.79886">
        <ele>51.042164</ele>
        <time>2021-01-03T11:10:49Z</time>
      </trkpt>
      <trkpt lat="43.54859" lon="3.7993">
        <ele>51.095661</ele>
        <time>2021-01-03T11:10:54Z</time>
      </trkpt>
      <trkpt lat="43.54874" lon="3.79964">
        <ele>51.805454</ele>
        <time>2021-01-03T11:10:59Z</time>
      </trkpt>
      <trkpt lat="43.54887" lon="3.79995">
        <ele>52.608196</ele>
        <time>2021-01-03T11:11:04Z</time>
      </trkpt>
      <trkpt lat="43.54898" lon="3.80026">
        <ele>53.173019</ele>
        <time>2021-01-03T11:11:09Z</time>
      </trkpt>
      <trkpt lat="43.54908" lon="3.80058">
        <ele>53.330967</ele>
        <time>2021-01-03T11:11:14Z</time>
      </trkpt>
      <trkpt lat="43.54918" lon="3.80088">
        <ele>53.262127</ele>
        <time>2021-01-03T11:11:19Z</time>
      </trkpt>
      <trkpt lat="43.54928" lon="3.80118">
        <ele>53.028839</ele>
        <time>2021-01-03T11:11:24Z</time>
      </trkpt>
      <trkpt lat="43.54933" lon="3.8015">
        <ele>52.743343</ele>
        <time>2021-01-03T11:11:29Z</time>
      </trkpt>
      <trkpt lat="43.54932" lon="3.80183">
        <ele>52.00655</ele>
        <time>2021-01-03T11:11:34Z</time>
      </trkpt>
      <trkpt lat="43.54924" lon="3.80216">
        <ele>51.35973</ele>
        <time>2021-01-03T11:11:39Z</time>
      </trkpt>
      <trkpt lat="43.54913" lon="3.80251">
        <ele>50.596085</ele>
        <time>2021-01-03T11:11:44Z</time>
      </trkpt>
      <trkpt lat="43.549" lon="3.80298">
        <ele>49.625225</ele>
        <time>2021-01-03T11:11:49Z</time>
      </trkpt>
      <trkpt lat="43.54918" lon="3.80345">
        <ele>48.557087</ele>
        <time>2021-01-03T11:11:54Z</time>
      </trkpt>
      <trkpt lat="43.54956" lon="3.80344">
        <ele>46.587688</ele>
        <time>2021-01-03T11:11:59Z</time>
      </trkpt>
      <trkpt lat="43.54977" lon="3.80345">
        <ele>44.913025</ele>
        <time>2021-01-03T11:12:04Z</time>
      </trkpt>
      <trkpt lat="43.54997" lon="3.8032">
        <ele>44.081562</ele>
        <time>2021-01-03T11:12:09Z</time>
      </trkpt>
      <trkpt lat="43.55014" lon="3.80291">
        <ele>44.071095</ele>
        <time>2021-01-03T11:12:14Z</time>
      </trkpt>
      <trkpt lat="43.55035" lon="3.80258">
        <ele>44.407955</ele>
        <time>2021-01-03T11:12:19Z</time>
      </trkpt>
      <trkpt lat="43.55056" lon="3.80222">
        <ele>44.485996</ele>
        <time>2021-01-03T11:12:24Z</time>
      </trkpt>
      <trkpt lat="43.55084" lon="3.80183">
        <ele>44.336018</ele>
        <time>2021-01-03T11:12:29Z</time>
      </trkpt>
      <trkpt lat="43.5511" lon="3.80144">
        <ele>43.669483</ele>
        <time>2021-01-03T11:12:34Z</time>
      </trkpt>
      <trkpt lat="43.55134" lon="3.80109">
        <ele>42.758331</ele>
        <time>2021-01-03T11:12:39Z</time>
      </trkpt>
      <trkpt lat="43.55152" lon="3.80082">
        <ele>41.707344</ele>
        <time>2021-01-03T11:12:44Z</time>
      </trkpt>
      <trkpt lat="43.55167" lon="3.80059">
        <ele>41.656322</ele>
        <time>2021-01-03T11:12:49Z</time>
      </trkpt>
      <trkpt lat="43.55182" lon="3.80039">
        <ele>41.795887</ele>
        <time>2021-01-03T11:12:54Z</time>
      </trkpt>
      <trkpt lat="43.55201" lon="3.80021">
        <ele>41.986069</ele>
        <time>2021-01-03T11:12:59Z</time>
      </trkpt>
      <trkpt lat="43.55222" lon="3.80005">
        <ele>42.024418</ele>
        <time>2021-01-03T11:13:04Z</time>
      </trkpt>
      <trkpt lat="43.55247" lon="3.79991">
        <ele>41.808838</ele>
        <time>2021-01-03T11:13:09Z</time>
      </trkpt>
      <trkpt lat="43.55276" lon="3.79983">
        <ele>41.319965</ele>
        <time>2021-01-03T11:13:14Z</time>
      </trkpt>
      <trkpt lat="43.55309" lon="3.79981">
        <ele>40.355755</ele>
        <time>2021-01-03T11:13:19Z</time>
      </trkpt>
      <trkpt lat="43.55343" lon="3.79985">
        <ele>38.290955</ele>
        <time>2021-01-03T11:13:24Z</time>
      </trkpt>
      <trkpt lat="43.55379" lon="3.79994">
        <ele>35.70089</ele>
        <time>2021-01-03T11:13:29Z</time>
      </trkpt>
      <trkpt lat="43.55418" lon="3.80004">
        <ele>32.494381</ele>
        <time>2021-01-03T11:13:34Z</time>
      </trkpt>
      <trkpt lat="43.55458" lon="3.80011">
        <ele>29.587671</ele>
        <time>2021-01-03T11:13:39Z</time>
      </trkpt>
      <trkpt lat="43.55497" lon="3.80007">
        <ele>27.585135</ele>
        <time>2021-01-03T11:13:44Z</time>
      </trkpt>
      <trkpt lat="43.55534" lon="3.79991">
        <ele>25.001175</ele>
        <time>2021-01-03T11:13:49Z</time>
      </trkpt>
      <trkpt lat="43.55571" lon="3.79967">
        <ele>22.243332</ele>
        <time>2021-01-03T11:13:54Z</time>
      </trkpt>
      <trkpt lat="43.55607" lon="3.79942">
        <ele>20.096415</ele>
        <time>2021-01-03T11:13:59Z</time>
      </trkpt>
      <trkpt lat="43.55639" lon="3.79919">
        <ele>18.980543</ele>
        <time>2021-01-03T11:14:04Z</time>
      </trkpt>
      <trkpt lat="43.55667" lon="3.79902">
        <ele>19.140297</ele>
        <time>2021-01-03T11:14:09Z</time>
      </trkpt>
      <trkpt lat="43.5569" lon="3.79888">
        <ele>19.92145</ele>
        <time>2021-01-03T11:14:14Z</time>
      </trkpt>
      <trkpt lat="43.55711" lon="3.79881">
        <ele>20.89624</ele>
        <time>2021-01-03T11:14:19Z</time>
      </trkpt>
      <trkpt lat="43.55732" lon="3.79878">
        <ele>21.820801</ele>
        <time>2021-01-03T11:14:24Z</time>
      </trkpt>
      <trkpt lat="43.55752" lon="3.7988">
        <ele>22.734863</ele>
        <time>2021-01-03T11:14:29Z</time>
      </trkpt>
      <trkpt lat="43.55772" lon="3.79883">
        <ele>23.632813</ele>
        <time>2021-01-03T11:14:34Z</time>
      </trkpt>
      <trkpt lat="43.55793" lon="3.79881">
        <ele>24.49707</ele>
        <time>2021-01-03T11:14:39Z</time>
      </trkpt>
      <trkpt lat="43.55811" lon="3.79882">
        <ele>25.20752</ele>
        <time>2021-01-03T11:14:44Z</time>
      </trkpt>
      <trkpt lat="43.5583" lon="3.79883">
        <ele>25.95558</ele>
        <time>2021-01-03T11:14:49Z</time>
      </trkpt>
      <trkpt lat="43.55846" lon="3.79865">
        <ele>26.139872</ele>
        <time>2021-01-03T11:14:54Z</time>
      </trkpt>
      <trkpt lat="43.55864" lon="3.79847">
        <ele>26.115587</ele>
        <time>2021-01-03T11:14:59Z</time>
      </trkpt>
      <trkpt lat="43.55878" lon="3.79832">
        <ele>26.007818</ele>
        <time>2021-01-03T11:15:04Z</time>
      </trkpt>
      <trkpt lat="43.55889" lon="3.79822">
        <ele>26</ele>
        <time>2021-01-03T11:15:09Z</time>
      </trkpt>
      <trkpt lat="43.55903" lon="3.79816">
        <ele>26</ele>
        <time>2021-01-03T11:15:14Z</time>
      </trkpt>
      <trkpt lat="43.55917" lon="3.79813">
        <ele>26</ele>
        <time>2021-01-03T11:15:19Z</time>
      </trkpt>
      <trkpt lat="43.55932" lon="3.7981">
        <ele>26</ele>
        <time>2021-01-03T11:15:24Z</time>
      </trkpt>
      <trkpt lat="43.55945" lon="3.79799">
        <ele>26</ele>
        <time>2021-01-03T11:15:29Z</time>
      </trkpt>
      <trkpt lat="43.55954" lon="3.79784">
        <ele>26</ele>
        <time>2021-01-03T11:15:34Z</time>
      </trkpt>
      <trkpt lat="43.55965" lon="3.79766">
        <ele>26</ele>
        <time>2021-01-03T11:15:39Z</time>
      </trkpt>
      <trkpt lat="43.55977" lon="3.79747">
        <ele>26</ele>
        <time>2021-01-03T11:15:44Z</time>
      </trkpt>
      <trkpt lat="43.55989" lon="3.79726">
        <ele>26</ele>
        <time>2021-01-03T11:15:49Z</time>
      </trkpt>
      <trkpt lat="43.56003" lon="3.79704">
        <ele>26</ele>
        <time>2021-01-03T11:15:54Z</time>
      </trkpt>
      <trkpt lat="43.56019" lon="3.79686">
        <ele>26.121262</ele>
        <time>2021-01-03T11:15:59Z</time>
      </trkpt>
      <trkpt lat="43.5604" lon="3.79681">
        <ele>26.325296</ele>
        <time>2021-01-03T11:16:04Z</time>
      </trkpt>
      <trkpt lat="43.56059" lon="3.79668">
        <ele>26.298941</ele>
        <time>2021-01-03T11:16:09Z</time>
      </trkpt>
      <trkpt lat="43.56067" lon="3.79636">
        <ele>26.213196</ele>
        <time>2021-01-03T11:16:14Z</time>
      </trkpt>
      <trkpt lat="43.56067" lon="3.79602">
        <ele>26.279905</ele>
        <time>2021-01-03T11:16:19Z</time>
      </trkpt>
      <trkpt lat="43.56055" lon="3.79586">
        <ele>26.661337</ele>
        <time>2021-01-03T11:16:24Z</time>
      </trkpt>
      <trkpt lat="43.56067" lon="3.79569">
        <ele>26.903498</ele>
        <time>2021-01-03T11:16:29Z</time>
      </trkpt>
      <trkpt lat="43.56082" lon="3.79545">
        <ele>27.005812</ele>
        <time>2021-01-03T11:16:34Z</time>
      </trkpt>
      <trkpt lat="43.56098" lon="3.7952">
        <ele>26.91761</ele>
        <time>2021-01-03T11:16:39Z</time>
      </trkpt>
      <trkpt lat="43.56115" lon="3.79496">
        <ele>26.485189</ele>
        <time>2021-01-03T11:16:44Z</time>
      </trkpt>
      <trkpt lat="43.5613" lon="3.79473">
        <ele>26.169271</ele>
        <time>2021-01-03T11:16:49Z</time>
      </trkpt>
      <trkpt lat="43.56143" lon="3.79452">
        <ele>26.087076</ele>
        <time>2021-01-03T11:16:54Z</time>
      </trkpt>
      <trkpt lat="43.56156" lon="3.79431">
        <ele>25.978922</ele>
        <time>2021-01-03T11:16:59Z</time>
      </trkpt>
      <trkpt lat="43.56171" lon="3.79416">
        <ele>25.787354</ele>
        <time>2021-01-03T11:17:04Z</time>
      </trkpt>
      <trkpt lat="43.56186" lon="3.79398">
        <ele>25.376303</ele>
        <time>2021-01-03T11:17:09Z</time>
      </trkpt>
      <trkpt lat="43.562" lon="3.79377">
        <ele>24.930664</ele>
        <time>2021-01-03T11:17:14Z</time>
      </trkpt>
      <trkpt lat="43.56213" lon="3.79356">
        <ele>24.531492</ele>
        <time>2021-01-03T11:17:19Z</time>
      </trkpt>
      <trkpt lat="43.56228" lon="3.79335">
        <ele>24.127653</ele>
        <time>2021-01-03T11:17:24Z</time>
      </trkpt>
      <trkpt lat="43.56242" lon="3.79313">
        <ele>23.636427</ele>
        <time>2021-01-03T11:17:29Z</time>
      </trkpt>
      <trkpt lat="43.56257" lon="3.79291">
        <ele>23.228148</ele>
        <time>2021-01-03T11:17:34Z</time>
      </trkpt>
      <trkpt lat="43.56271" lon="3.7927">
        <ele>22.932962</ele>
        <time>2021-01-03T11:17:39Z</time>
      </trkpt>
      <trkpt lat="43.56286" lon="3.7925">
        <ele>22.551382</ele>
        <time>2021-01-03T11:17:44Z</time>
      </trkpt>
      <trkpt lat="43.56304" lon="3.79238">
        <ele>22.037851</ele>
        <time>2021-01-03T11:17:49Z</time>
      </trkpt>
      <trkpt lat="43.56322" lon="3.79219">
        <ele>21.577036</ele>
        <time>2021-01-03T11:17:54Z</time>
      </trkpt>
      <trkpt lat="43.56337" lon="3.79195">
        <ele>21.06328</ele>
        <time>2021-01-03T11:17:59Z</time>
      </trkpt>
      <trkpt lat="43.56351" lon="3.7917">
        <ele>20.682173</ele>
        <time>2021-01-03T11:18:04Z</time>
      </trkpt>
      <trkpt lat="43.56364" lon="3.79147">
        <ele>20.242826</ele>
        <time>2021-01-03T11:18:09Z</time>
      </trkpt>
      <trkpt lat="43.56377" lon="3.79125">
        <ele>20.203821</ele>
        <time>2021-01-03T11:18:14Z</time>
      </trkpt>
      <trkpt lat="43.56394" lon="3.79113">
        <ele>20.363016</ele>
        <time>2021-01-03T11:18:19Z</time>
      </trkpt>
      <trkpt lat="43.56412" lon="3.79131">
        <ele>20.324747</ele>
        <time>2021-01-03T11:18:24Z</time>
      </trkpt>
      <trkpt lat="43.5643" lon="3.79148">
        <ele>20.104765</ele>
        <time>2021-01-03T11:18:29Z</time>
      </trkpt>
      <trkpt lat="43.56448" lon="3.79164">
        <ele>20.003382</ele>
        <time>2021-01-03T11:18:34Z</time>
      </trkpt>
      <trkpt lat="43.56467" lon="3.7918">
        <ele>19.986246</ele>
        <time>2021-01-03T11:18:39Z</time>
      </trkpt>
      <trkpt lat="43.56485" lon="3.79196">
        <ele>19.815512</ele>
        <time>2021-01-03T11:18:44Z</time>
      </trkpt>
      <trkpt lat="43.56504" lon="3.79212">
        <ele>19.579428</ele>
        <time>2021-01-03T11:18:49Z</time>
      </trkpt>
      <trkpt lat="43.56522" lon="3.79228">
        <ele>19.348633</ele>
        <time>2021-01-03T11:18:54Z</time>
      </trkpt>
      <trkpt lat="43.56542" lon="3.79244">
        <ele>19.153402</ele>
        <time>2021-01-03T11:18:59Z</time>
      </trkpt>
      <trkpt lat="43.56562" lon="3.79257">
        <ele>18.879721</ele>
        <time>2021-01-03T11:19:04Z</time>
      </trkpt>
      <trkpt lat="43.56583" lon="3.79271">
        <ele>18.679688</ele>
        <time>2021-01-03T11:19:09Z</time>
      </trkpt>
      <trkpt lat="43.56606" lon="3.79283">
        <ele>18.488037</ele>
        <time>2021-01-03T11:19:14Z</time>
      </trkpt>
      <trkpt lat="43.56626" lon="3.79296">
        <ele>18.316</ele>
        <time>2021-01-03T11:19:19Z</time>
      </trkpt>
      <trkpt lat="43.56645" lon="3.79308">
        <ele>18.121176</ele>
        <time>2021-01-03T11:19:24Z</time>
      </trkpt>
      <trkpt lat="43.56664" lon="3.7932">
        <ele>17.956169</ele>
        <time>2021-01-03T11:19:29Z</time>
      </trkpt>
      <trkpt lat="43.5668" lon="3.79335">
        <ele>17.886423</ele>
        <time>2021-01-03T11:19:34Z</time>
      </trkpt>
      <trkpt lat="43.56698" lon="3.79348">
        <ele>17.888691</ele>
        <time>2021-01-03T11:19:39Z</time>
      </trkpt>
      <trkpt lat="43.56716" lon="3.79359">
        <ele>17.978804</ele>
        <time>2021-01-03T11:19:44Z</time>
      </trkpt>
      <trkpt lat="43.56733" lon="3.79372">
        <ele>18.032438</ele>
        <time>2021-01-03T11:19:49Z</time>
      </trkpt>
      <trkpt lat="43.56747" lon="3.7938">
        <ele>18.007862</ele>
        <time>2021-01-03T11:19:54Z</time>
      </trkpt>
      <trkpt lat="43.5676" lon="3.79392">
        <ele>17.973257</ele>
        <time>2021-01-03T11:19:59Z</time>
      </trkpt>
      <trkpt lat="43.5676" lon="3.79415">
        <ele>17.969643</ele>
        <time>2021-01-03T11:20:04Z</time>
      </trkpt>
      <trkpt lat="43.56755" lon="3.79433">
        <ele>17.951632</ele>
        <time>2021-01-03T11:20:09Z</time>
      </trkpt>
      <trkpt lat="43.56751" lon="3.79451">
        <ele>17.864828</ele>
        <time>2021-01-03T11:20:14Z</time>
      </trkpt>
      <trkpt lat="43.56746" lon="3.79468">
        <ele>17.666441</ele>
        <time>2021-01-03T11:20:19Z</time>
      </trkpt>
      <trkpt lat="43.56745" lon="3.79487">
        <ele>17.346518</ele>
        <time>2021-01-03T11:20:24Z</time>
      </trkpt>
      <trkpt lat="43.5674" lon="3.79504">
        <ele>17.049234</ele>
        <time>2021-01-03T11:20:29Z</time>
      </trkpt>
      <trkpt lat="43.56738" lon="3.79522">
        <ele>16.803223</ele>
        <time>2021-01-03T11:20:34Z</time>
      </trkpt>
      <trkpt lat="43.56736" lon="3.7954">
        <ele>16.600992</ele>
        <time>2021-01-03T11:20:39Z</time>
      </trkpt>
      <trkpt lat="43.56733" lon="3.7956">
        <ele>16.561441</ele>
        <time>2021-01-03T11:20:44Z</time>
      </trkpt>
      <trkpt lat="43.56746" lon="3.79575">
        <ele>16.547037</ele>
        <time>2021-01-03T11:20:49Z</time>
      </trkpt>
      <trkpt lat="43.56763" lon="3.79587">
        <ele>16.691244</ele>
        <time>2021-01-03T11:20:54Z</time>
      </trkpt>
      <trkpt lat="43.5678" lon="3.79597">
        <ele>16.93685</ele>
        <time>2021-01-03T11:20:59Z</time>
      </trkpt>
      <trkpt lat="43.56797" lon="3.79607">
        <ele>17.182699</ele>
        <time>2021-01-03T11:21:04Z</time>
      </trkpt>
      <trkpt lat="43.56816" lon="3.79617">
        <ele>17.384684</ele>
        <time>2021-01-03T11:21:09Z</time>
      </trkpt>
      <trkpt lat="43.56834" lon="3.79625">
        <ele>17.692545</ele>
        <time>2021-01-03T11:21:14Z</time>
      </trkpt>
      <trkpt lat="43.56851" lon="3.79636">
        <ele>17.964355</ele>
        <time>2021-01-03T11:21:19Z</time>
      </trkpt>
      <trkpt lat="43.5687" lon="3.79646">
        <ele>18.221598</ele>
        <time>2021-01-03T11:21:24Z</time>
      </trkpt>
      <trkpt lat="43.56889" lon="3.79656">
        <ele>18.484213</ele>
        <time>2021-01-03T11:21:29Z</time>
      </trkpt>
      <trkpt lat="43.56908" lon="3.79664">
        <ele>18.761557</ele>
        <time>2021-01-03T11:21:34Z</time>
      </trkpt>
      <trkpt lat="43.56928" lon="3.79671">
        <ele>18.9764</ele>
        <time>2021-01-03T11:21:39Z</time>
      </trkpt>
      <trkpt lat="43.56947" lon="3.79679">
        <ele>19</ele>
        <time>2021-01-03T11:21:44Z</time>
      </trkpt>
      <trkpt lat="43.56966" lon="3.79688">
        <ele>19</ele>
        <time>2021-01-03T11:21:49Z</time>
      </trkpt>
      <trkpt lat="43.56985" lon="3.79698">
        <ele>19</ele>
        <time>2021-01-03T11:21:54Z</time>
      </trkpt>
      <trkpt lat="43.57003" lon="3.79708">
        <ele>19</ele>
        <time>2021-01-03T11:21:59Z</time>
      </trkpt>
      <trkpt lat="43.57022" lon="3.79715">
        <ele>19</ele>
        <time>2021-01-03T11:22:04Z</time>
      </trkpt>
      <trkpt lat="43.5704" lon="3.79719">
        <ele>19</ele>
        <time>2021-01-03T11:22:09Z</time>
      </trkpt>
      <trkpt lat="43.57056" lon="3.79721">
        <ele>19.021891</ele>
        <time>2021-01-03T11:22:14Z</time>
      </trkpt>
      <trkpt lat="43.57071" lon="3.79725">
        <ele>19.203451</ele>
        <time>2021-01-03T11:22:19Z</time>
      </trkpt>
      <trkpt lat="43.57089" lon="3.79734">
        <ele>19.426188</ele>
        <time>2021-01-03T11:22:24Z</time>
      </trkpt>
      <trkpt lat="43.57108" lon="3.79743">
        <ele>19.681314</ele>
        <time>2021-01-03T11:22:29Z</time>
      </trkpt>
      <trkpt lat="43.57127" lon="3.79751">
        <ele>19.934896</ele>
        <time>2021-01-03T11:22:34Z</time>
      </trkpt>
      <trkpt lat="43.57146" lon="3.79759">
        <ele>20</ele>
        <time>2021-01-03T11:22:39Z</time>
      </trkpt>
      <trkpt lat="43.57164" lon="3.79767">
        <ele>20</ele>
        <time>2021-01-03T11:22:44Z</time>
      </trkpt>
      <trkpt lat="43.57183" lon="3.79775">
        <ele>20</ele>
        <time>2021-01-03T11:22:49Z</time>
      </trkpt>
      <trkpt lat="43.57199" lon="3.79779">
        <ele>20.061523</ele>
        <time>2021-01-03T11:22:54Z</time>
      </trkpt>
      <trkpt lat="43.57211" lon="3.79779">
        <ele>20.281006</ele>
        <time>2021-01-03T11:22:59Z</time>
      </trkpt>
      <trkpt lat="43.57232" lon="3.79778">
        <ele>20.481607</ele>
        <time>2021-01-03T11:23:04Z</time>
      </trkpt>
      <trkpt lat="43.57255" lon="3.79778">
        <ele>20.752604</ele>
        <time>2021-01-03T11:23:09Z</time>
      </trkpt>
      <trkpt lat="43.57274" lon="3.79777">
        <ele>21.040039</ele>
        <time>2021-01-03T11:23:14Z</time>
      </trkpt>
      <trkpt lat="43.57293" lon="3.79776">
        <ele>21.373697</ele>
        <time>2021-01-03T11:23:19Z</time>
      </trkpt>
      <trkpt lat="43.57312" lon="3.79777">
        <ele>21.647461</ele>
        <time>2021-01-03T11:23:24Z</time>
      </trkpt>
      <trkpt lat="43.5733" lon="3.79778">
        <ele>21.912642</ele>
        <time>2021-01-03T11:23:29Z</time>
      </trkpt>
      <trkpt lat="43.57349" lon="3.79783">
        <ele>22.013708</ele>
        <time>2021-01-03T11:23:34Z</time>
      </trkpt>
      <trkpt lat="43.57365" lon="3.79793">
        <ele>22.007675</ele>
        <time>2021-01-03T11:23:39Z</time>
      </trkpt>
      <trkpt lat="43.57378" lon="3.79812">
        <ele>21.974874</ele>
        <time>2021-01-03T11:23:44Z</time>
      </trkpt>
      <trkpt lat="43.57394" lon="3.79825">
        <ele>21.970251</ele>
        <time>2021-01-03T11:23:49Z</time>
      </trkpt>
      <trkpt lat="43.57411" lon="3.79837">
        <ele>22.123087</ele>
        <time>2021-01-03T11:23:54Z</time>
      </trkpt>
      <trkpt lat="43.57428" lon="3.79855">
        <ele>22.372559</ele>
        <time>2021-01-03T11:23:59Z</time>
      </trkpt>
      <trkpt lat="43.57452" lon="3.79873">
        <ele>22.595793</ele>
        <time>2021-01-03T11:24:04Z</time>
      </trkpt>
      <trkpt lat="43.57475" lon="3.79887">
        <ele>22.669683</ele>
        <time>2021-01-03T11:24:09Z</time>
      </trkpt>
      <trkpt lat="43.57497" lon="3.79901">
        <ele>22.677317</ele>
        <time>2021-01-03T11:24:14Z</time>
      </trkpt>
      <trkpt lat="43.57518" lon="3.79915">
        <ele>22.73868</ele>
        <time>2021-01-03T11:24:19Z</time>
      </trkpt>
      <trkpt lat="43.57539" lon="3.79929">
        <ele>22.928909</ele>
        <time>2021-01-03T11:24:24Z</time>
      </trkpt>
      <trkpt lat="43.5756" lon="3.79942">
        <ele>23</ele>
        <time>2021-01-03T11:24:29Z</time>
      </trkpt>
      <trkpt lat="43.57577" lon="3.79954">
        <ele>23</ele>
        <time>2021-01-03T11:24:34Z</time>
      </trkpt>
      <trkpt lat="43.57586" lon="3.79974">
        <ele>23</ele>
        <time>2021-01-03T11:24:39Z</time>
      </trkpt>
      <trkpt lat="43.5761" lon="3.79985">
        <ele>23.000864</ele>
        <time>2021-01-03T11:24:44Z</time>
      </trkpt>
      <trkpt lat="43.57643" lon="3.79975">
        <ele>23.023802</ele>
        <time>2021-01-03T11:24:49Z</time>
      </trkpt>
      <trkpt lat="43.57672" lon="3.7997">
        <ele>23.145561</ele>
        <time>2021-01-03T11:24:54Z</time>
      </trkpt>
      <trkpt lat="43.57699" lon="3.79966">
        <ele>23.398218</ele>
        <time>2021-01-03T11:24:59Z</time>
      </trkpt>
      <trkpt lat="43.57726" lon="3.79963">
        <ele>23.699064</ele>
        <time>2021-01-03T11:25:04Z</time>
      </trkpt>
      <trkpt lat="43.57753" lon="3.7996">
        <ele>23.977877</ele>
        <time>2021-01-03T11:25:09Z</time>
      </trkpt>
      <trkpt lat="43.57778" lon="3.79958">
        <ele>24.33667</ele>
        <time>2021-01-03T11:25:14Z</time>
      </trkpt>
      <trkpt lat="43.57804" lon="3.79956">
        <ele>24.650473</ele>
        <time>2021-01-03T11:25:19Z</time>
      </trkpt>
      <trkpt lat="43.57828" lon="3.79957">
        <ele>25.081299</ele>
        <time>2021-01-03T11:25:24Z</time>
      </trkpt>
      <trkpt lat="43.5785" lon="3.79958">
        <ele>25.424805</ele>
        <time>2021-01-03T11:25:29Z</time>
      </trkpt>
      <trkpt lat="43.57873" lon="3.79958">
        <ele>25.752604</ele>
        <time>2021-01-03T11:25:34Z</time>
      </trkpt>
      <trkpt lat="43.57896" lon="3.7996">
        <ele>26.14702</ele>
        <time>2021-01-03T11:25:39Z</time>
      </trkpt>
      <trkpt lat="43.57918" lon="3.79962">
        <ele>26.659355</ele>
        <time>2021-01-03T11:25:44Z</time>
      </trkpt>
      <trkpt lat="43.57939" lon="3.79963">
        <ele>27.193375</ele>
        <time>2021-01-03T11:25:49Z</time>
      </trkpt>
      <trkpt lat="43.5796" lon="3.79964">
        <ele>27.654806</ele>
        <time>2021-01-03T11:25:54Z</time>
      </trkpt>
      <trkpt lat="43.5798" lon="3.79966">
        <ele>27.991781</ele>
        <time>2021-01-03T11:25:59Z</time>
      </trkpt>
      <trkpt lat="43.58" lon="3.79967">
        <ele>28.308594</ele>
        <time>2021-01-03T11:26:04Z</time>
      </trkpt>
      <trkpt lat="43.58018" lon="3.79973">
        <ele>28.635986</ele>
        <time>2021-01-03T11:26:09Z</time>
      </trkpt>
      <trkpt lat="43.58032" lon="3.7999">
        <ele>29.161865</ele>
        <time>2021-01-03T11:26:14Z</time>
      </trkpt>
      <trkpt lat="43.58044" lon="3.80011">
        <ele>29.676107</ele>
        <time>2021-01-03T11:26:19Z</time>
      </trkpt>
      <trkpt lat="43.58058" lon="3.80032">
        <ele>30.466635</ele>
        <time>2021-01-03T11:26:24Z</time>
      </trkpt>
      <trkpt lat="43.5807" lon="3.80053">
        <ele>31.184814</ele>
        <time>2021-01-03T11:26:29Z</time>
      </trkpt>
      <trkpt lat="43.58083" lon="3.80073">
        <ele>31.83724</ele>
        <time>2021-01-03T11:26:34Z</time>
      </trkpt>
      <trkpt lat="43.58096" lon="3.80091">
        <ele>32.16927</ele>
        <time>2021-01-03T11:26:39Z</time>
      </trkpt>
      <trkpt lat="43.58112" lon="3.80106">
        <ele>32.350342</ele>
        <time>2021-01-03T11:26:44Z</time>
      </trkpt>
      <trkpt lat="43.5813" lon="3.80118">
        <ele>32.57967</ele>
        <time>2021-01-03T11:26:49Z</time>
      </trkpt>
      <trkpt lat="43.58147" lon="3.80127">
        <ele>32.833324</ele>
        <time>2021-01-03T11:26:54Z</time>
      </trkpt>
      <trkpt lat="43.58164" lon="3.8013">
        <ele>32.874584</ele>
        <time>2021-01-03T11:26:59Z</time>
      </trkpt>
      <trkpt lat="43.58176" lon="3.80132">
        <ele>32.79137</ele>
        <time>2021-01-03T11:27:04Z</time>
      </trkpt>
      <trkpt lat="43.58191" lon="3.80131">
        <ele>32.719593</ele>
        <time>2021-01-03T11:27:09Z</time>
      </trkpt>
      <trkpt lat="43.58204" lon="3.80133">
        <ele>32.586643</ele>
        <time>2021-01-03T11:27:14Z</time>
      </trkpt>
      <trkpt lat="43.5822" lon="3.80134">
        <ele>32.53965</ele>
        <time>2021-01-03T11:27:19Z</time>
      </trkpt>
      <trkpt lat="43.58242" lon="3.80138">
        <ele>32.6464</ele>
        <time>2021-01-03T11:27:24Z</time>
      </trkpt>
      <trkpt lat="43.58262" lon="3.80138">
        <ele>33.193027</ele>
        <time>2021-01-03T11:27:29Z</time>
      </trkpt>
      <trkpt lat="43.58283" lon="3.80141">
        <ele>33.34399</ele>
        <time>2021-01-03T11:27:34Z</time>
      </trkpt>
      <trkpt lat="43.58308" lon="3.80147">
        <ele>33.834572</ele>
        <time>2021-01-03T11:27:39Z</time>
      </trkpt>
      <trkpt lat="43.58324" lon="3.80153">
        <ele>34.695866</ele>
        <time>2021-01-03T11:27:44Z</time>
      </trkpt>
      <trkpt lat="43.58343" lon="3.80155">
        <ele>35.450306</ele>
        <time>2021-01-03T11:27:49Z</time>
      </trkpt>
      <trkpt lat="43.58363" lon="3.80157">
        <ele>35.863243</ele>
        <time>2021-01-03T11:27:54Z</time>
      </trkpt>
      <trkpt lat="43.58379" lon="3.8017">
        <ele>36.1077</ele>
        <time>2021-01-03T11:27:59Z</time>
      </trkpt>
      <trkpt lat="43.5839" lon="3.80189">
        <ele>37.128727</ele>
        <time>2021-01-03T11:28:04Z</time>
      </trkpt>
      <trkpt lat="43.58403" lon="3.80216">
        <ele>38.663044</ele>
        <time>2021-01-03T11:28:09Z</time>
      </trkpt>
      <trkpt lat="43.58411" lon="3.80247">
        <ele>40.017895</ele>
        <time>2021-01-03T11:28:14Z</time>
      </trkpt>
      <trkpt lat="43.58419" lon="3.80272">
        <ele>41.811985</ele>
        <time>2021-01-03T11:28:19Z</time>
      </trkpt>
      <trkpt lat="43.58426" lon="3.80297">
        <ele>42.732803</ele>
        <time>2021-01-03T11:28:24Z</time>
      </trkpt>
      <trkpt lat="43.58435" lon="3.80322">
        <ele>42.709976</ele>
        <time>2021-01-03T11:28:29Z</time>
      </trkpt>
      <trkpt lat="43.5845" lon="3.80344">
        <ele>42.403698</ele>
        <time>2021-01-03T11:28:34Z</time>
      </trkpt>
      <trkpt lat="43.58462" lon="3.80371">
        <ele>41.421944</ele>
        <time>2021-01-03T11:28:39Z</time>
      </trkpt>
      <trkpt lat="43.58468" lon="3.80403">
        <ele>40.434811</ele>
        <time>2021-01-03T11:28:44Z</time>
      </trkpt>
      <trkpt lat="43.58472" lon="3.80437">
        <ele>39.742001</ele>
        <time>2021-01-03T11:28:49Z</time>
      </trkpt>
      <trkpt lat="43.5848" lon="3.80464">
        <ele>38.560547</ele>
        <time>2021-01-03T11:28:54Z</time>
      </trkpt>
      <trkpt lat="43.58487" lon="3.80491">
        <ele>37.410633</ele>
        <time>2021-01-03T11:28:59Z</time>
      </trkpt>
      <trkpt lat="43.58485" lon="3.80523">
        <ele>36.466415</ele>
        <time>2021-01-03T11:29:04Z</time>
      </trkpt>
      <trkpt lat="43.58483" lon="3.80551">
        <ele>35.616505</ele>
        <time>2021-01-03T11:29:09Z</time>
      </trkpt>
      <trkpt lat="43.58481" lon="3.80578">
        <ele>35.047802</ele>
        <time>2021-01-03T11:29:14Z</time>
      </trkpt>
      <trkpt lat="43.58482" lon="3.8061">
        <ele>34.967823</ele>
        <time>2021-01-03T11:29:19Z</time>
      </trkpt>
      <trkpt lat="43.58485" lon="3.80645">
        <ele>34.908352</ele>
        <time>2021-01-03T11:29:24Z</time>
      </trkpt>
      <trkpt lat="43.58486" lon="3.80684">
        <ele>34.532391</ele>
        <time>2021-01-03T11:29:29Z</time>
      </trkpt>
      <trkpt lat="43.58489" lon="3.80718">
        <ele>34.112141</ele>
        <time>2021-01-03T11:29:34Z</time>
      </trkpt>
      <trkpt lat="43.58496" lon="3.8075">
        <ele>33.549316</ele>
        <time>2021-01-03T11:29:39Z</time>
      </trkpt>
      <trkpt lat="43.58507" lon="3.80769">
        <ele>33.171223</ele>
        <time>2021-01-03T11:29:44Z</time>
      </trkpt>
      <trkpt lat="43.58524" lon="3.80791">
        <ele>33.008545</ele>
        <time>2021-01-03T11:29:49Z</time>
      </trkpt>
      <trkpt lat="43.58538" lon="3.80811">
        <ele>32.942627</ele>
        <time>2021-01-03T11:29:54Z</time>
      </trkpt>
      <trkpt lat="43.58552" lon="3.8083">
        <ele>32.857014</ele>
        <time>2021-01-03T11:29:59Z</time>
      </trkpt>
      <trkpt lat="43.58567" lon="3.8085">
        <ele>32.776569</ele>
        <time>2021-01-03T11:30:04Z</time>
      </trkpt>
      <trkpt lat="43.58581" lon="3.80869">
        <ele>32.594303</ele>
        <time>2021-01-03T11:30:09Z</time>
      </trkpt>
      <trkpt lat="43.58596" lon="3.80888">
        <ele>32.303585</ele>
        <time>2021-01-03T11:30:14Z</time>
      </trkpt>
      <trkpt lat="43.58612" lon="3.80909">
        <ele>31.863901</ele>
        <time>2021-01-03T11:30:19Z</time>
      </trkpt>
      <trkpt lat="43.58625" lon="3.80929">
        <ele>31.287598</ele>
        <time>2021-01-03T11:30:24Z</time>
      </trkpt>
      <trkpt lat="43.58639" lon="3.8095">
        <ele>30.795572</ele>
        <time>2021-01-03T11:30:29Z</time>
      </trkpt>
      <trkpt lat="43.58655" lon="3.80969">
        <ele>30.113935</ele>
        <time>2021-01-03T11:30:34Z</time>
      </trkpt>
      <trkpt lat="43.58673" lon="3.80991">
        <ele>29.64065</ele>
        <time>2021-01-03T11:30:39Z</time>
      </trkpt>
      <trkpt lat="43.58692" lon="3.8101">
        <ele>29.016272</ele>
        <time>2021-01-03T11:30:44Z</time>
      </trkpt>
      <trkpt lat="43.58703" lon="3.8103">
        <ele>28.335257</ele>
        <time>2021-01-03T11:30:49Z</time>
      </trkpt>
      <trkpt lat="43.58719" lon="3.81053">
        <ele>27.875</ele>
        <time>2021-01-03T11:30:54Z</time>
      </trkpt>
      <trkpt lat="43.58738" lon="3.81079">
        <ele>27.538412</ele>
        <time>2021-01-03T11:30:59Z</time>
      </trkpt>
      <trkpt lat="43.58756" lon="3.81102">
        <ele>27.176758</ele>
        <time>2021-01-03T11:31:04Z</time>
      </trkpt>
      <trkpt lat="43.58772" lon="3.81125">
        <ele>26.901693</ele>
        <time>2021-01-03T11:31:09Z</time>
      </trkpt>
      <trkpt lat="43.58788" lon="3.81149">
        <ele>26.521158</ele>
        <time>2021-01-03T11:31:14Z</time>
      </trkpt>
      <trkpt lat="43.58804" lon="3.81174">
        <ele>26.146484</ele>
        <time>2021-01-03T11:31:19Z</time>
      </trkpt>
      <trkpt lat="43.58821" lon="3.81197">
        <ele>25.784994</ele>
        <time>2021-01-03T11:31:24Z</time>
      </trkpt>
      <trkpt lat="43.58838" lon="3.81221">
        <ele>25.449057</ele>
        <time>2021-01-03T11:31:29Z</time>
      </trkpt>
      <trkpt lat="43.58855" lon="3.81244">
        <ele>25.258139</ele>
        <time>2021-01-03T11:31:34Z</time>
      </trkpt>
      <trkpt lat="43.58873" lon="3.81269">
        <ele>25.179443</ele>
        <time>2021-01-03T11:31:39Z</time>
      </trkpt>
      <trkpt lat="43.58892" lon="3.81294">
        <ele>25.068197</ele>
        <time>2021-01-03T11:31:44Z</time>
      </trkpt>
      <trkpt lat="43.58909" lon="3.8132">
        <ele>25.037752</ele>
        <time>2021-01-03T11:31:49Z</time>
      </trkpt>
      <trkpt lat="43.5893" lon="3.81347">
        <ele>25.299841</ele>
        <time>2021-01-03T11:31:54Z</time>
      </trkpt>
      <trkpt lat="43.58949" lon="3.81375">
        <ele>25.602442</ele>
        <time>2021-01-03T11:31:59Z</time>
      </trkpt>
      <trkpt lat="43.58968" lon="3.814">
        <ele>25.78167</ele>
        <time>2021-01-03T11:32:04Z</time>
      </trkpt>
      <trkpt lat="43.58987" lon="3.81424">
        <ele>26.057268</ele>
        <time>2021-01-03T11:32:09Z</time>
      </trkpt>
      <trkpt lat="43.59003" lon="3.81448">
        <ele>26.347708</ele>
        <time>2021-01-03T11:32:14Z</time>
      </trkpt>
      <trkpt lat="43.5902" lon="3.81474">
        <ele>26.552896</ele>
        <time>2021-01-03T11:32:19Z</time>
      </trkpt>
      <trkpt lat="43.59038" lon="3.81499">
        <ele>26.80607</ele>
        <time>2021-01-03T11:32:24Z</time>
      </trkpt>
      <trkpt lat="43.59054" lon="3.81523">
        <ele>27.052896</ele>
        <time>2021-01-03T11:32:29Z</time>
      </trkpt>
      <trkpt lat="43.5907" lon="3.81547">
        <ele>27.302652</ele>
        <time>2021-01-03T11:32:34Z</time>
      </trkpt>
      <trkpt lat="43.59088" lon="3.81572">
        <ele>27.499023</ele>
        <time>2021-01-03T11:32:39Z</time>
      </trkpt>
      <trkpt lat="43.59106" lon="3.81597">
        <ele>27.797104</ele>
        <time>2021-01-03T11:32:44Z</time>
      </trkpt>
      <trkpt lat="43.59124" lon="3.81608">
        <ele>27.985115</ele>
        <time>2021-01-03T11:32:49Z</time>
      </trkpt>
      <trkpt lat="43.59138" lon="3.81607">
        <ele>28</ele>
        <time>2021-01-03T11:32:54Z</time>
      </trkpt>
      <trkpt lat="43.59165" lon="3.81595">
        <ele>28</ele>
        <time>2021-01-03T11:32:59Z</time>
      </trkpt>
      <trkpt lat="43.59171" lon="3.81566">
        <ele>27.989664</ele>
        <time>2021-01-03T11:33:04Z</time>
      </trkpt>
      <trkpt lat="43.59163" lon="3.81533">
        <ele>27.903847</ele>
        <time>2021-01-03T11:33:09Z</time>
      </trkpt>
      <trkpt lat="43.59152" lon="3.81502">
        <ele>27.569235</ele>
        <time>2021-01-03T11:33:14Z</time>
      </trkpt>
      <trkpt lat="43.59141" lon="3.81471">
        <ele>27.349268</ele>
        <time>2021-01-03T11:33:19Z</time>
      </trkpt>
      <trkpt lat="43.59131" lon="3.8146">
        <ele>27.390951</ele>
        <time>2021-01-03T11:33:24Z</time>
      </trkpt>
      <trkpt lat="43.59132" lon="3.81481">
        <ele>27.521158</ele>
        <time>2021-01-03T11:33:29Z</time>
      </trkpt>
      <trkpt lat="43.59139" lon="3.8151">
        <ele>27.535645</ele>
        <time>2021-01-03T11:33:34Z</time>
      </trkpt>
      <trkpt lat="43.59148" lon="3.81539">
        <ele>27.527634</ele>
        <time>2021-01-03T11:33:39Z</time>
      </trkpt>
      <trkpt lat="43.59155" lon="3.81567">
        <ele>27.641525</ele>
        <time>2021-01-03T11:33:44Z</time>
      </trkpt>
      <trkpt lat="43.5916" lon="3.81597">
        <ele>27.921427</ele>
        <time>2021-01-03T11:33:49Z</time>
      </trkpt>
      <trkpt lat="43.59167" lon="3.81626">
        <ele>28</ele>
        <time>2021-01-03T11:33:54Z</time>
      </trkpt>
      <trkpt lat="43.59175" lon="3.81658">
        <ele>28</ele>
        <time>2021-01-03T11:33:59Z</time>
      </trkpt>
      <trkpt lat="43.59186" lon="3.8169">
        <ele>28.16626</ele>
        <time>2021-01-03T11:34:04Z</time>
      </trkpt>
      <trkpt lat="43.59196" lon="3.81721">
        <ele>28.480062</ele>
        <time>2021-01-03T11:34:09Z</time>
      </trkpt>
      <trkpt lat="43.59205" lon="3.81752">
        <ele>28.687551</ele>
        <time>2021-01-03T11:34:14Z</time>
      </trkpt>
      <trkpt lat="43.59216" lon="3.8178">
        <ele>28.818365</ele>
        <time>2021-01-03T11:34:19Z</time>
      </trkpt>
      <trkpt lat="43.59238" lon="3.81785">
        <ele>28.897203</ele>
        <time>2021-01-03T11:34:24Z</time>
      </trkpt>
      <trkpt lat="43.59259" lon="3.81801">
        <ele>28.823248</ele>
        <time>2021-01-03T11:34:29Z</time>
      </trkpt>
      <trkpt lat="43.59266" lon="3.81839">
        <ele>28.476759</ele>
        <time>2021-01-03T11:34:34Z</time>
      </trkpt>
      <trkpt lat="43.59273" lon="3.81876">
        <ele>28.071337</ele>
        <time>2021-01-03T11:34:39Z</time>
      </trkpt>
      <trkpt lat="43.59279" lon="3.81911">
        <ele>27.678549</ele>
        <time>2021-01-03T11:34:44Z</time>
      </trkpt>
      <trkpt lat="43.59285" lon="3.81943">
        <ele>27.110678</ele>
        <time>2021-01-03T11:34:49Z</time>
      </trkpt>
      <trkpt lat="43.59291" lon="3.81972">
        <ele>27</ele>
        <time>2021-01-03T11:34:54Z</time>
      </trkpt>
      <trkpt lat="43.59296" lon="3.81997">
        <ele>27.004812</ele>
        <time>2021-01-03T11:34:59Z</time>
      </trkpt>
      <trkpt lat="43.59311" lon="3.82012">
        <ele>27.169252</ele>
        <time>2021-01-03T11:35:04Z</time>
      </trkpt>
      <trkpt lat="43.59329" lon="3.82031">
        <ele>27.468262</ele>
        <time>2021-01-03T11:35:09Z</time>
      </trkpt>
      <trkpt lat="43.59351" lon="3.82041">
        <ele>27.776674</ele>
        <time>2021-01-03T11:35:14Z</time>
      </trkpt>
    </trkseg>
  </trk>
</gpx>